<?xml version='1.0' encoding='UTF-8'?><gpx version="1.1" creator="JPX - https://github.com/jenetics/jpx" xmlns="http://www.topografix.com/GPX/1/1"><trk><trkseg><trkpt lat="43.9429716" lon="10.8973557"><ele>86.0</ele><time>2026-04-26T07:44:45.071Z</time></trkpt><trkpt lat="43.9429526" lon="10.8972489"><ele>86.0</ele><time>2026-04-26T07:50:08.074Z</time></trkpt><trkpt lat="43.9430239" lon="10.8971486"><ele>86.0</ele><time>2026-04-26T07:50:46.074Z</time></trkpt><trkpt lat="43.9430428" lon="10.8970226"><ele>86.0</ele><time>2026-04-26T07:50:47.073Z</time></trkpt><trkpt lat="43.9430556" lon="10.8968966"><ele>86.0</ele><time>2026-04-26T07:50:48.073Z</time></trkpt><trkpt lat="43.9430737" lon="10.8967611"><ele>85.8</ele><time>2026-04-26T07:50:49.072Z</time></trkpt><trkpt lat="43.943097" lon="10.8966309"><ele>85.6</ele><time>2026-04-26T07:50:50.074Z</time></trkpt><trkpt lat="43.9431215" lon="10.8965164"><ele>85.4</ele><time>2026-04-26T07:50:51.074Z</time></trkpt><trkpt lat="43.9431474" lon="10.8963994"><ele>85.2</ele><time>2026-04-26T07:50:52.073Z</time></trkpt><trkpt lat="43.9431821" lon="10.8962627"><ele>85.0</ele><time>2026-04-26T07:50:53.072Z</time></trkpt><trkpt lat="43.9432446" lon="10.8960648"><ele>85.0</ele><time>2026-04-26T07:50:54.074Z</time></trkpt><trkpt lat="43.9433108" lon="10.8957848"><ele>85.0</ele><time>2026-04-26T07:50:55.073Z</time></trkpt><trkpt lat="43.9433637" lon="10.8955661"><ele>85.0</ele><time>2026-04-26T07:50:56.073Z</time></trkpt><trkpt lat="43.9433958" lon="10.8953833"><ele>85.0</ele><time>2026-04-26T07:50:57.073Z</time></trkpt><trkpt lat="43.9434094" lon="10.8952304"><ele>85.0</ele><time>2026-04-26T07:50:58.074Z</time></trkpt><trkpt lat="43.9434062" lon="10.8950588"><ele>85.0</ele><time>2026-04-26T07:50:59.074Z</time></trkpt><trkpt lat="43.9433915" lon="10.8948794"><ele>85.0</ele><time>2026-04-26T07:51:00.074Z</time></trkpt><trkpt lat="43.9433736" lon="10.8946992"><ele>85.0</ele><time>2026-04-26T07:51:01.072Z</time></trkpt><trkpt lat="43.9433627" lon="10.8945128"><ele>85.0</ele><time>2026-04-26T07:51:02.074Z</time></trkpt><trkpt lat="43.9433436" lon="10.8943274"><ele>85.0</ele><time>2026-04-26T07:51:03.073Z</time></trkpt><trkpt lat="43.9433259" lon="10.8941174"><ele>85.0</ele><time>2026-04-26T07:51:04.073Z</time></trkpt><trkpt lat="43.943333" lon="10.8938966"><ele>85.66666666666666</ele><time>2026-04-26T07:51:05.074Z</time></trkpt><trkpt lat="43.9433308" lon="10.8936744"><ele>86.33333333333333</ele><time>2026-04-26T07:51:06.073Z</time></trkpt><trkpt lat="43.9433361" lon="10.893479"><ele>87.0</ele><time>2026-04-26T07:51:07.074Z</time></trkpt><trkpt lat="43.9433335" lon="10.8932591"><ele>87.0</ele><time>2026-04-26T07:51:08.072Z</time></trkpt><trkpt lat="43.9433332" lon="10.8930188"><ele>87.0</ele><time>2026-04-26T07:51:09.072Z</time></trkpt><trkpt lat="43.9433334" lon="10.8927764"><ele>87.0</ele><time>2026-04-26T07:51:10.073Z</time></trkpt><trkpt lat="43.9433365" lon="10.8925592"><ele>86.33333333333333</ele><time>2026-04-26T07:51:11.074Z</time></trkpt><trkpt lat="43.9433434" lon="10.8923324"><ele>85.66666666666666</ele><time>2026-04-26T07:51:12.072Z</time></trkpt><trkpt lat="43.9433485" lon="10.8921143"><ele>85.0</ele><time>2026-04-26T07:51:13.072Z</time></trkpt><trkpt lat="43.9433748" lon="10.8918855"><ele>85.66666666666666</ele><time>2026-04-26T07:51:14.073Z</time></trkpt><trkpt lat="43.9434067" lon="10.8916478"><ele>86.33333333333333</ele><time>2026-04-26T07:51:15.074Z</time></trkpt><trkpt lat="43.9434296" lon="10.891405"><ele>87.0</ele><time>2026-04-26T07:51:16.073Z</time></trkpt><trkpt lat="43.9434567" lon="10.8911746"><ele>87.0</ele><time>2026-04-26T07:51:17.074Z</time></trkpt><trkpt lat="43.9434843" lon="10.89096"><ele>87.0</ele><time>2026-04-26T07:51:18.073Z</time></trkpt><trkpt lat="43.9435046" lon="10.8907702"><ele>87.0</ele><time>2026-04-26T07:51:19.072Z</time></trkpt><trkpt lat="43.9435193" lon="10.8905927"><ele>87.0</ele><time>2026-04-26T07:51:20.072Z</time></trkpt><trkpt lat="43.9435398" lon="10.8904316"><ele>87.0</ele><time>2026-04-26T07:51:21.074Z</time></trkpt><trkpt lat="43.9435589" lon="10.8902861"><ele>87.0</ele><time>2026-04-26T07:51:22.073Z</time></trkpt><trkpt lat="43.9435802" lon="10.8901446"><ele>87.0</ele><time>2026-04-26T07:51:23.072Z</time></trkpt><trkpt lat="43.943637" lon="10.8899881"><ele>87.0</ele><time>2026-04-26T07:51:24.074Z</time></trkpt><trkpt lat="43.9437018" lon="10.8898354"><ele>87.0</ele><time>2026-04-26T07:51:25.073Z</time></trkpt><trkpt lat="43.9437804" lon="10.8896828"><ele>87.0</ele><time>2026-04-26T07:51:26.072Z</time></trkpt><trkpt lat="43.9438294" lon="10.8895212"><ele>87.0</ele><time>2026-04-26T07:51:27.072Z</time></trkpt><trkpt lat="43.9438658" lon="10.8893142"><ele>87.0</ele><time>2026-04-26T07:51:28.073Z</time></trkpt><trkpt lat="43.9438955" lon="10.8890839"><ele>86.33333333333333</ele><time>2026-04-26T07:51:29.073Z</time></trkpt><trkpt lat="43.943923" lon="10.8888557"><ele>85.66666666666666</ele><time>2026-04-26T07:51:30.072Z</time></trkpt><trkpt lat="43.9439529" lon="10.8886474"><ele>85.0</ele><time>2026-04-26T07:51:31.073Z</time></trkpt><trkpt lat="43.9439793" lon="10.8884565"><ele>85.0</ele><time>2026-04-26T07:51:32.072Z</time></trkpt><trkpt lat="43.9440083" lon="10.8882799"><ele>85.0</ele><time>2026-04-26T07:51:33.073Z</time></trkpt><trkpt lat="43.944057" lon="10.8881022"><ele>85.0</ele><time>2026-04-26T07:51:34.072Z</time></trkpt><trkpt lat="43.9441457" lon="10.8879719"><ele>85.0</ele><time>2026-04-26T07:51:35.072Z</time></trkpt><trkpt lat="43.9442039" lon="10.8877918"><ele>85.5</ele><time>2026-04-26T07:51:36.073Z</time></trkpt><trkpt lat="43.9442336" lon="10.8875909"><ele>86.0</ele><time>2026-04-26T07:51:37.074Z</time></trkpt><trkpt lat="43.9442391" lon="10.8873842"><ele>86.5</ele><time>2026-04-26T07:51:38.073Z</time></trkpt><trkpt lat="43.9442347" lon="10.8871819"><ele>87.0</ele><time>2026-04-26T07:51:39.073Z</time></trkpt><trkpt lat="43.9442445" lon="10.8869801"><ele>87.0</ele><time>2026-04-26T07:51:40.074Z</time></trkpt><trkpt lat="43.9442798" lon="10.886781"><ele>87.0</ele><time>2026-04-26T07:51:41.073Z</time></trkpt><trkpt lat="43.9443068" lon="10.8865703"><ele>87.0</ele><time>2026-04-26T07:51:42.074Z</time></trkpt><trkpt lat="43.9443308" lon="10.8863906"><ele>87.0</ele><time>2026-04-26T07:51:43.074Z</time></trkpt><trkpt lat="43.9443534" lon="10.8862251"><ele>86.5</ele><time>2026-04-26T07:51:44.073Z</time></trkpt><trkpt lat="43.9443789" lon="10.8860573"><ele>86.0</ele><time>2026-04-26T07:51:45.073Z</time></trkpt><trkpt lat="43.9443974" lon="10.8858645"><ele>85.5</ele><time>2026-04-26T07:51:46.074Z</time></trkpt><trkpt lat="43.9444213" lon="10.8856456"><ele>85.0</ele><time>2026-04-26T07:51:47.074Z</time></trkpt><trkpt lat="43.944446" lon="10.8854079"><ele>85.0</ele><time>2026-04-26T07:51:48.073Z</time></trkpt><trkpt lat="43.9444686" lon="10.8851999"><ele>85.0</ele><time>2026-04-26T07:51:49.072Z</time></trkpt><trkpt lat="43.944494" lon="10.8850008"><ele>85.0</ele><time>2026-04-26T07:51:50.072Z</time></trkpt><trkpt lat="43.9445204" lon="10.8847946"><ele>85.0</ele><time>2026-04-26T07:51:51.073Z</time></trkpt><trkpt lat="43.9445512" lon="10.8845968"><ele>85.5</ele><time>2026-04-26T07:51:52.074Z</time></trkpt><trkpt lat="43.9445866" lon="10.8843957"><ele>86.0</ele><time>2026-04-26T07:51:53.074Z</time></trkpt><trkpt lat="43.9446318" lon="10.8842087"><ele>86.5</ele><time>2026-04-26T07:51:54.073Z</time></trkpt><trkpt lat="43.9446822" lon="10.8840255"><ele>87.0</ele><time>2026-04-26T07:51:55.073Z</time></trkpt><trkpt lat="43.9447253" lon="10.8838514"><ele>88.25</ele><time>2026-04-26T07:51:56.073Z</time></trkpt><trkpt lat="43.9447639" lon="10.8836702"><ele>89.5</ele><time>2026-04-26T07:51:57.073Z</time></trkpt><trkpt lat="43.9447922" lon="10.8834885"><ele>90.75</ele><time>2026-04-26T07:51:58.074Z</time></trkpt><trkpt lat="43.9448181" lon="10.88331"><ele>92.0</ele><time>2026-04-26T07:51:59.073Z</time></trkpt><trkpt lat="43.9448364" lon="10.8831264"><ele>92.5</ele><time>2026-04-26T07:52:00.072Z</time></trkpt><trkpt lat="43.9448448" lon="10.8829378"><ele>93.0</ele><time>2026-04-26T07:52:01.073Z</time></trkpt><trkpt lat="43.9448464" lon="10.8827637"><ele>93.5</ele><time>2026-04-26T07:52:02.072Z</time></trkpt><trkpt lat="43.9448509" lon="10.8825926"><ele>94.0</ele><time>2026-04-26T07:52:03.073Z</time></trkpt><trkpt lat="43.9448543" lon="10.8824155"><ele>94.0</ele><time>2026-04-26T07:52:04.074Z</time></trkpt><trkpt lat="43.9448555" lon="10.8822383"><ele>94.0</ele><time>2026-04-26T07:52:05.073Z</time></trkpt><trkpt lat="43.9448537" lon="10.8819155"><ele>94.0</ele><time>2026-04-26T07:52:07.073Z</time></trkpt><trkpt lat="43.9448522" lon="10.8817611"><ele>94.0</ele><time>2026-04-26T07:52:08.074Z</time></trkpt><trkpt lat="43.9448518" lon="10.8816269"><ele>94.0</ele><time>2026-04-26T07:52:09.074Z</time></trkpt><trkpt lat="43.9448508" lon="10.8815033"><ele>94.0</ele><time>2026-04-26T07:52:10.074Z</time></trkpt><trkpt lat="43.9448508" lon="10.881364"><ele>94.0</ele><time>2026-04-26T07:52:11.073Z</time></trkpt><trkpt lat="43.9448504" lon="10.8812292"><ele>94.0</ele><time>2026-04-26T07:52:12.073Z</time></trkpt><trkpt lat="43.9448494" lon="10.8810833"><ele>94.25</ele><time>2026-04-26T07:52:13.072Z</time></trkpt><trkpt lat="43.9448409" lon="10.8809265"><ele>94.5</ele><time>2026-04-26T07:52:14.074Z</time></trkpt><trkpt lat="43.9448123" lon="10.8807666"><ele>94.75</ele><time>2026-04-26T07:52:15.073Z</time></trkpt><trkpt lat="43.9447611" lon="10.8806188"><ele>95.0</ele><time>2026-04-26T07:52:16.072Z</time></trkpt><trkpt lat="43.9446474" lon="10.8803692"><ele>95.0</ele><time>2026-04-26T07:52:18.073Z</time></trkpt><trkpt lat="43.9445833" lon="10.8802517"><ele>95.0</ele><time>2026-04-26T07:52:19.073Z</time></trkpt><trkpt lat="43.944511" lon="10.8801471"><ele>95.0</ele><time>2026-04-26T07:52:20.072Z</time></trkpt><trkpt lat="43.9444402" lon="10.8800563"><ele>95.0</ele><time>2026-04-26T07:52:21.072Z</time></trkpt><trkpt lat="43.9443752" lon="10.8799762"><ele>95.0</ele><time>2026-04-26T07:52:22.073Z</time></trkpt><trkpt lat="43.9443212" lon="10.8799054"><ele>94.8</ele><time>2026-04-26T07:52:23.073Z</time></trkpt><trkpt lat="43.9442414" lon="10.8798002"><ele>94.6</ele><time>2026-04-26T07:52:25.072Z</time></trkpt><trkpt lat="43.9441617" lon="10.8797007"><ele>94.4</ele><time>2026-04-26T07:52:27.072Z</time></trkpt><trkpt lat="43.9441032" lon="10.8795763"><ele>94.2</ele><time>2026-04-26T07:52:29.072Z</time></trkpt><trkpt lat="43.9440727" lon="10.879499"><ele>94.0</ele><time>2026-04-26T07:52:30.074Z</time></trkpt><trkpt lat="43.9440568" lon="10.8794114"><ele>94.0</ele><time>2026-04-26T07:52:31.073Z</time></trkpt><trkpt lat="43.9440413" lon="10.8792808"><ele>94.0</ele><time>2026-04-26T07:52:32.072Z</time></trkpt><trkpt lat="43.9440305" lon="10.8791445"><ele>94.0</ele><time>2026-04-26T07:52:33.074Z</time></trkpt><trkpt lat="43.9440752" lon="10.8789908"><ele>94.0</ele><time>2026-04-26T07:52:34.073Z</time></trkpt><trkpt lat="43.944105" lon="10.8788285"><ele>94.0</ele><time>2026-04-26T07:52:35.073Z</time></trkpt><trkpt lat="43.9441311" lon="10.8787043"><ele>95.25</ele><time>2026-04-26T07:52:36.073Z</time></trkpt><trkpt lat="43.9441819" lon="10.8786"><ele>96.5</ele><time>2026-04-26T07:52:37.074Z</time></trkpt><trkpt lat="43.9442289" lon="10.8784709"><ele>97.75</ele><time>2026-04-26T07:52:38.073Z</time></trkpt><trkpt lat="43.9442924" lon="10.878341"><ele>99.0</ele><time>2026-04-26T07:52:39.072Z</time></trkpt><trkpt lat="43.9444377" lon="10.8782134"><ele>100.0</ele><time>2026-04-26T07:52:40.073Z</time></trkpt><trkpt lat="43.9445373" lon="10.8780557"><ele>101.0</ele><time>2026-04-26T07:52:41.073Z</time></trkpt><trkpt lat="43.944618" lon="10.8778948"><ele>102.0</ele><time>2026-04-26T07:52:42.073Z</time></trkpt><trkpt lat="43.9446913" lon="10.8777306"><ele>103.0</ele><time>2026-04-26T07:52:43.072Z</time></trkpt><trkpt lat="43.9447548" lon="10.8775604"><ele>106.5</ele><time>2026-04-26T07:52:44.074Z</time></trkpt><trkpt lat="43.9448194" lon="10.8773917"><ele>110.0</ele><time>2026-04-26T07:52:45.073Z</time></trkpt><trkpt lat="43.9448855" lon="10.8772275"><ele>113.5</ele><time>2026-04-26T07:52:46.073Z</time></trkpt><trkpt lat="43.9449399" lon="10.8770849"><ele>117.0</ele><time>2026-04-26T07:52:47.074Z</time></trkpt><trkpt lat="43.9449862" lon="10.8769445"><ele>117.0</ele><time>2026-04-26T07:52:48.073Z</time></trkpt><trkpt lat="43.9450113" lon="10.8768037"><ele>117.0</ele><time>2026-04-26T07:52:49.074Z</time></trkpt><trkpt lat="43.94501" lon="10.8766464"><ele>117.0</ele><time>2026-04-26T07:52:50.073Z</time></trkpt><trkpt lat="43.9450105" lon="10.8764843"><ele>117.0</ele><time>2026-04-26T07:52:51.073Z</time></trkpt><trkpt lat="43.9450024" lon="10.8763231"><ele>118.6</ele><time>2026-04-26T07:52:52.072Z</time></trkpt><trkpt lat="43.94495" lon="10.8761962"><ele>120.19999999999999</ele><time>2026-04-26T07:52:53.074Z</time></trkpt><trkpt lat="43.944925" lon="10.8760531"><ele>121.8</ele><time>2026-04-26T07:52:54.072Z</time></trkpt><trkpt lat="43.9448904" lon="10.8759145"><ele>123.4</ele><time>2026-04-26T07:52:55.072Z</time></trkpt><trkpt lat="43.9449055" lon="10.8758025"><ele>125.0</ele><time>2026-04-26T07:52:56.073Z</time></trkpt><trkpt lat="43.9449241" lon="10.875685"><ele>125.4</ele><time>2026-04-26T07:52:57.073Z</time></trkpt><trkpt lat="43.944989" lon="10.875559"><ele>125.8</ele><time>2026-04-26T07:52:58.072Z</time></trkpt><trkpt lat="43.9450134" lon="10.8754404"><ele>126.19999999999999</ele><time>2026-04-26T07:53:00.073Z</time></trkpt><trkpt lat="43.9449102" lon="10.8753735"><ele>126.6</ele><time>2026-04-26T07:53:01.073Z</time></trkpt><trkpt lat="43.9448516" lon="10.8753196"><ele>127.0</ele><time>2026-04-26T07:53:02.073Z</time></trkpt><trkpt lat="43.9447464" lon="10.8753077"><ele>127.0</ele><time>2026-04-26T07:53:03.073Z</time></trkpt><trkpt lat="43.9446754" lon="10.8752588"><ele>126.99999999999999</ele><time>2026-04-26T07:53:04.072Z</time></trkpt><trkpt lat="43.9445882" lon="10.8752147"><ele>126.99999999999999</ele><time>2026-04-26T07:53:05.073Z</time></trkpt><trkpt lat="43.9445104" lon="10.8751453"><ele>127.0</ele><time>2026-04-26T07:53:06.073Z</time></trkpt><trkpt lat="43.9444486" lon="10.8750697"><ele>127.0</ele><time>2026-04-26T07:53:07.073Z</time></trkpt><trkpt lat="43.9444472" lon="10.8749079"><ele>129.66666666666669</ele><time>2026-04-26T07:53:08.072Z</time></trkpt><trkpt lat="43.9445682" lon="10.874754"><ele>132.33333333333334</ele><time>2026-04-26T07:53:09.072Z</time></trkpt><trkpt lat="43.9445592" lon="10.8746104"><ele>135.0</ele><time>2026-04-26T07:53:10.073Z</time></trkpt><trkpt lat="43.9447303" lon="10.8744543"><ele>135.0</ele><time>2026-04-26T07:53:11.074Z</time></trkpt><trkpt lat="43.9447708" lon="10.8743168"><ele>135.0</ele><time>2026-04-26T07:53:12.073Z</time></trkpt><trkpt lat="43.9448257" lon="10.874182"><ele>135.0</ele><time>2026-04-26T07:53:13.074Z</time></trkpt><trkpt lat="43.944872" lon="10.8740475"><ele>135.0</ele><time>2026-04-26T07:53:14.073Z</time></trkpt><trkpt lat="43.9449394" lon="10.8738863"><ele>135.5</ele><time>2026-04-26T07:53:15.072Z</time></trkpt><trkpt lat="43.9450237" lon="10.873694"><ele>136.0</ele><time>2026-04-26T07:53:16.074Z</time></trkpt><trkpt lat="43.9450911" lon="10.8735421"><ele>136.5</ele><time>2026-04-26T07:53:17.072Z</time></trkpt><trkpt lat="43.9451574" lon="10.8733988"><ele>137.0</ele><time>2026-04-26T07:53:18.073Z</time></trkpt><trkpt lat="43.9452171" lon="10.8732742"><ele>137.6</ele><time>2026-04-26T07:53:19.072Z</time></trkpt><trkpt lat="43.9452695" lon="10.8731638"><ele>138.2</ele><time>2026-04-26T07:53:20.073Z</time></trkpt><trkpt lat="43.9453249" lon="10.8730522"><ele>138.8</ele><time>2026-04-26T07:53:21.074Z</time></trkpt><trkpt lat="43.9453811" lon="10.872955"><ele>139.4</ele><time>2026-04-26T07:53:22.073Z</time></trkpt><trkpt lat="43.9455197" lon="10.8728986"><ele>140.0</ele><time>2026-04-26T07:53:23.073Z</time></trkpt><trkpt lat="43.9456123" lon="10.8728289"><ele>140.0</ele><time>2026-04-26T07:53:24.073Z</time></trkpt><trkpt lat="43.9457027" lon="10.8727741"><ele>140.0</ele><time>2026-04-26T07:53:25.073Z</time></trkpt><trkpt lat="43.9457841" lon="10.8727026"><ele>140.0</ele><time>2026-04-26T07:53:26.074Z</time></trkpt><trkpt lat="43.9458468" lon="10.8725781"><ele>140.0</ele><time>2026-04-26T07:53:27.073Z</time></trkpt><trkpt lat="43.9458848" lon="10.872428"><ele>140.0</ele><time>2026-04-26T07:53:28.073Z</time></trkpt><trkpt lat="43.9459229" lon="10.8722879"><ele>139.5</ele><time>2026-04-26T07:53:29.074Z</time></trkpt><trkpt lat="43.9459308" lon="10.8720527"><ele>139.0</ele><time>2026-04-26T07:53:31.073Z</time></trkpt><trkpt lat="43.9459282" lon="10.8718818"><ele>138.5</ele><time>2026-04-26T07:53:32.074Z</time></trkpt><trkpt lat="43.945881" lon="10.8717514"><ele>138.0</ele><time>2026-04-26T07:53:33.074Z</time></trkpt><trkpt lat="43.9458625" lon="10.871593"><ele>139.0</ele><time>2026-04-26T07:53:34.074Z</time></trkpt><trkpt lat="43.9458413" lon="10.8714271"><ele>140.0</ele><time>2026-04-26T07:53:35.073Z</time></trkpt><trkpt lat="43.9458422" lon="10.8712599"><ele>141.0</ele><time>2026-04-26T07:53:36.073Z</time></trkpt><trkpt lat="43.9459171" lon="10.8711366"><ele>142.0</ele><time>2026-04-26T07:53:37.073Z</time></trkpt><trkpt lat="43.9459681" lon="10.8710296"><ele>142.25</ele><time>2026-04-26T07:53:38.073Z</time></trkpt><trkpt lat="43.9459998" lon="10.8708921"><ele>142.5</ele><time>2026-04-26T07:53:39.073Z</time></trkpt><trkpt lat="43.946085" lon="10.8707502"><ele>142.75</ele><time>2026-04-26T07:53:40.073Z</time></trkpt><trkpt lat="43.9461491" lon="10.8705336"><ele>143.0</ele><time>2026-04-26T07:53:41.073Z</time></trkpt><trkpt lat="43.9462092" lon="10.87034"><ele>143.0</ele><time>2026-04-26T07:53:42.072Z</time></trkpt><trkpt lat="43.9462702" lon="10.8701543"><ele>143.0</ele><time>2026-04-26T07:53:43.074Z</time></trkpt><trkpt lat="43.9463291" lon="10.8699975"><ele>143.0</ele><time>2026-04-26T07:53:44.072Z</time></trkpt><trkpt lat="43.9463957" lon="10.8698658"><ele>143.0</ele><time>2026-04-26T07:53:45.073Z</time></trkpt><trkpt lat="43.9464659" lon="10.8697578"><ele>145.75</ele><time>2026-04-26T07:53:46.072Z</time></trkpt><trkpt lat="43.9465079" lon="10.8696572"><ele>148.5</ele><time>2026-04-26T07:53:47.073Z</time></trkpt><trkpt lat="43.946514" lon="10.8695339"><ele>151.25</ele><time>2026-04-26T07:53:48.074Z</time></trkpt><trkpt lat="43.9465229" lon="10.8692503"><ele>154.0</ele><time>2026-04-26T07:53:50.074Z</time></trkpt><trkpt lat="43.9465415" lon="10.8690994"><ele>158.25</ele><time>2026-04-26T07:53:51.072Z</time></trkpt><trkpt lat="43.9465855" lon="10.8689203"><ele>162.5</ele><time>2026-04-26T07:53:52.073Z</time></trkpt><trkpt lat="43.9466107" lon="10.8687467"><ele>166.75</ele><time>2026-04-26T07:53:53.072Z</time></trkpt><trkpt lat="43.9466414" lon="10.8685953"><ele>171.0</ele><time>2026-04-26T07:53:54.073Z</time></trkpt><trkpt lat="43.9466496" lon="10.8684317"><ele>174.0</ele><time>2026-04-26T07:53:55.072Z</time></trkpt><trkpt lat="43.9466692" lon="10.8682878"><ele>177.0</ele><time>2026-04-26T07:53:56.074Z</time></trkpt><trkpt lat="43.946674" lon="10.8681609"><ele>180.0</ele><time>2026-04-26T07:53:57.073Z</time></trkpt><trkpt lat="43.9466423" lon="10.8680239"><ele>183.0</ele><time>2026-04-26T07:53:58.072Z</time></trkpt><trkpt lat="43.9466132" lon="10.8679027"><ele>186.0</ele><time>2026-04-26T07:53:59.072Z</time></trkpt><trkpt lat="43.9465974" lon="10.8677897"><ele>186.0</ele><time>2026-04-26T07:54:00.073Z</time></trkpt><trkpt lat="43.946573" lon="10.8676573"><ele>186.0</ele><time>2026-04-26T07:54:01.073Z</time></trkpt><trkpt lat="43.9465852" lon="10.867482"><ele>186.0</ele><time>2026-04-26T07:54:02.073Z</time></trkpt><trkpt lat="43.9466557" lon="10.8672717"><ele>186.0</ele><time>2026-04-26T07:54:03.073Z</time></trkpt><trkpt lat="43.9466555" lon="10.867128"><ele>186.20000000000002</ele><time>2026-04-26T07:54:04.073Z</time></trkpt><trkpt lat="43.9466691" lon="10.8670046"><ele>186.4</ele><time>2026-04-26T07:54:05.074Z</time></trkpt><trkpt lat="43.9466844" lon="10.8668821"><ele>186.6</ele><time>2026-04-26T07:54:06.072Z</time></trkpt><trkpt lat="43.9466926" lon="10.8667468"><ele>186.8</ele><time>2026-04-26T07:54:07.073Z</time></trkpt><trkpt lat="43.9467151" lon="10.8666103"><ele>187.0</ele><time>2026-04-26T07:54:08.073Z</time></trkpt><trkpt lat="43.9467839" lon="10.8665483"><ele>187.0</ele><time>2026-04-26T07:54:09.073Z</time></trkpt><trkpt lat="43.9468432" lon="10.8664421"><ele>187.0</ele><time>2026-04-26T07:54:10.073Z</time></trkpt><trkpt lat="43.9469408" lon="10.8663018"><ele>187.0</ele><time>2026-04-26T07:54:12.073Z</time></trkpt><trkpt lat="43.9469764" lon="10.8661817"><ele>187.0</ele><time>2026-04-26T07:54:13.073Z</time></trkpt><trkpt lat="43.9469728" lon="10.8660724"><ele>187.0</ele><time>2026-04-26T07:54:14.073Z</time></trkpt><trkpt lat="43.9468837" lon="10.865873"><ele>187.8</ele><time>2026-04-26T07:54:15.072Z</time></trkpt><trkpt lat="43.9468803" lon="10.8657191"><ele>188.6</ele><time>2026-04-26T07:54:16.072Z</time></trkpt><trkpt lat="43.9468833" lon="10.865578"><ele>189.4</ele><time>2026-04-26T07:54:17.073Z</time></trkpt><trkpt lat="43.9469121" lon="10.8654476"><ele>190.20000000000002</ele><time>2026-04-26T07:54:18.073Z</time></trkpt><trkpt lat="43.9469346" lon="10.8653027"><ele>191.0</ele><time>2026-04-26T07:54:19.073Z</time></trkpt><trkpt lat="43.9469605" lon="10.8651958"><ele>192.0</ele><time>2026-04-26T07:54:20.073Z</time></trkpt><trkpt lat="43.9469677" lon="10.8650661"><ele>193.0</ele><time>2026-04-26T07:54:21.074Z</time></trkpt><trkpt lat="43.9469673" lon="10.864939"><ele>194.0</ele><time>2026-04-26T07:54:22.073Z</time></trkpt><trkpt lat="43.9469566" lon="10.8648224"><ele>195.0</ele><time>2026-04-26T07:54:23.073Z</time></trkpt><trkpt lat="43.9469144" lon="10.8647222"><ele>196.0</ele><time>2026-04-26T07:54:24.074Z</time></trkpt><trkpt lat="43.9469038" lon="10.8645863"><ele>196.0</ele><time>2026-04-26T07:54:25.073Z</time></trkpt><trkpt lat="43.946878" lon="10.864444"><ele>196.0</ele><time>2026-04-26T07:54:26.073Z</time></trkpt><trkpt lat="43.9468535" lon="10.8643071"><ele>196.0</ele><time>2026-04-26T07:54:27.072Z</time></trkpt><trkpt lat="43.9468401" lon="10.8641608"><ele>196.0</ele><time>2026-04-26T07:54:28.074Z</time></trkpt><trkpt lat="43.9468344" lon="10.8640234"><ele>196.0</ele><time>2026-04-26T07:54:29.072Z</time></trkpt><trkpt lat="43.9468208" lon="10.8638785"><ele>196.20000000000002</ele><time>2026-04-26T07:54:30.074Z</time></trkpt><trkpt lat="43.9468098" lon="10.8637324"><ele>196.4</ele><time>2026-04-26T07:54:31.073Z</time></trkpt><trkpt lat="43.9467971" lon="10.863594"><ele>196.6</ele><time>2026-04-26T07:54:32.073Z</time></trkpt><trkpt lat="43.9467936" lon="10.8634457"><ele>196.8</ele><time>2026-04-26T07:54:33.072Z</time></trkpt><trkpt lat="43.9467811" lon="10.8632959"><ele>197.0</ele><time>2026-04-26T07:54:34.074Z</time></trkpt><trkpt lat="43.946771" lon="10.863131"><ele>197.16666666666669</ele><time>2026-04-26T07:54:35.072Z</time></trkpt><trkpt lat="43.9467597" lon="10.8629914"><ele>197.33333333333334</ele><time>2026-04-26T07:54:36.073Z</time></trkpt><trkpt lat="43.9467441" lon="10.8629022"><ele>197.5</ele><time>2026-04-26T07:54:37.073Z</time></trkpt><trkpt lat="43.9467239" lon="10.8627979"><ele>197.66666666666669</ele><time>2026-04-26T07:54:38.074Z</time></trkpt><trkpt lat="43.9466927" lon="10.8627093"><ele>197.83333333333334</ele><time>2026-04-26T07:54:39.074Z</time></trkpt><trkpt lat="43.9466371" lon="10.8626488"><ele>198.0</ele><time>2026-04-26T07:54:40.072Z</time></trkpt><trkpt lat="43.9465737" lon="10.862583"><ele>200.4</ele><time>2026-04-26T07:54:41.073Z</time></trkpt><trkpt lat="43.9465115" lon="10.8625035"><ele>202.8</ele><time>2026-04-26T07:54:42.072Z</time></trkpt><trkpt lat="43.9464672" lon="10.8624217"><ele>205.2</ele><time>2026-04-26T07:54:43.072Z</time></trkpt><trkpt lat="43.9464226" lon="10.862353"><ele>207.6</ele><time>2026-04-26T07:54:44.073Z</time></trkpt><trkpt lat="43.9463804" lon="10.862278"><ele>210.0</ele><time>2026-04-26T07:54:45.074Z</time></trkpt><trkpt lat="43.9463368" lon="10.8619835"><ele>210.0</ele><time>2026-04-26T07:54:48.072Z</time></trkpt><trkpt lat="43.9463365" lon="10.8618541"><ele>210.0</ele><time>2026-04-26T07:54:49.073Z</time></trkpt><trkpt lat="43.9463332" lon="10.8617545"><ele>210.0</ele><time>2026-04-26T07:54:50.073Z</time></trkpt><trkpt lat="43.9463104" lon="10.8616429"><ele>210.0</ele><time>2026-04-26T07:54:51.074Z</time></trkpt><trkpt lat="43.9462703" lon="10.8615331"><ele>210.0</ele><time>2026-04-26T07:54:52.074Z</time></trkpt><trkpt lat="43.9462213" lon="10.8614106"><ele>210.0</ele><time>2026-04-26T07:54:53.074Z</time></trkpt><trkpt lat="43.9461584" lon="10.8613251"><ele>209.83333333333334</ele><time>2026-04-26T07:54:54.072Z</time></trkpt><trkpt lat="43.9461158" lon="10.8612151"><ele>209.66666666666669</ele><time>2026-04-26T07:54:55.074Z</time></trkpt><trkpt lat="43.9460756" lon="10.8611231"><ele>209.5</ele><time>2026-04-26T07:54:56.074Z</time></trkpt><trkpt lat="43.9460347" lon="10.861033"><ele>209.33333333333334</ele><time>2026-04-26T07:54:57.072Z</time></trkpt><trkpt lat="43.9460315" lon="10.8608964"><ele>209.16666666666669</ele><time>2026-04-26T07:54:58.074Z</time></trkpt><trkpt lat="43.9460186" lon="10.8607824"><ele>209.0</ele><time>2026-04-26T07:54:59.074Z</time></trkpt><trkpt lat="43.9460099" lon="10.860679"><ele>208.00000000000003</ele><time>2026-04-26T07:55:00.073Z</time></trkpt><trkpt lat="43.9460024" lon="10.8605258"><ele>207.0</ele><time>2026-04-26T07:55:01.073Z</time></trkpt><trkpt lat="43.9460014" lon="10.8604077"><ele>206.0</ele><time>2026-04-26T07:55:02.074Z</time></trkpt><trkpt lat="43.945986" lon="10.860287"><ele>205.0</ele><time>2026-04-26T07:55:03.073Z</time></trkpt><trkpt lat="43.9459708" lon="10.8601774"><ele>204.00000000000003</ele><time>2026-04-26T07:55:04.073Z</time></trkpt><trkpt lat="43.9459502" lon="10.8600798"><ele>203.0</ele><time>2026-04-26T07:55:05.073Z</time></trkpt><trkpt lat="43.9459315" lon="10.8599746"><ele>202.83333333333334</ele><time>2026-04-26T07:55:06.072Z</time></trkpt><trkpt lat="43.9459091" lon="10.8598721"><ele>202.66666666666669</ele><time>2026-04-26T07:55:07.074Z</time></trkpt><trkpt lat="43.9458871" lon="10.8597714"><ele>202.5</ele><time>2026-04-26T07:55:08.073Z</time></trkpt><trkpt lat="43.9458822" lon="10.8596657"><ele>202.33333333333331</ele><time>2026-04-26T07:55:09.072Z</time></trkpt><trkpt lat="43.9458604" lon="10.8595473"><ele>202.16666666666666</ele><time>2026-04-26T07:55:10.073Z</time></trkpt><trkpt lat="43.945856" lon="10.8594378"><ele>202.0</ele><time>2026-04-26T07:55:11.073Z</time></trkpt><trkpt lat="43.945876" lon="10.8593027"><ele>202.33333333333331</ele><time>2026-04-26T07:55:12.073Z</time></trkpt><trkpt lat="43.9458856" lon="10.8592157"><ele>202.66666666666666</ele><time>2026-04-26T07:55:13.072Z</time></trkpt><trkpt lat="43.9459031" lon="10.8591168"><ele>203.0</ele><time>2026-04-26T07:55:14.072Z</time></trkpt><trkpt lat="43.9459506" lon="10.8589648"><ele>203.33333333333331</ele><time>2026-04-26T07:55:16.073Z</time></trkpt><trkpt lat="43.9459849" lon="10.8588877"><ele>203.66666666666666</ele><time>2026-04-26T07:55:17.073Z</time></trkpt><trkpt lat="43.9460308" lon="10.8587799"><ele>204.0</ele><time>2026-04-26T07:55:19.073Z</time></trkpt><trkpt lat="43.9460062" lon="10.8586984"><ele>204.0</ele><time>2026-04-26T07:55:20.073Z</time></trkpt><trkpt lat="43.9459931" lon="10.8585382"><ele>204.0</ele><time>2026-04-26T07:55:22.072Z</time></trkpt><trkpt lat="43.9459567" lon="10.8584652"><ele>204.0</ele><time>2026-04-26T07:55:23.073Z</time></trkpt><trkpt lat="43.9459032" lon="10.8583785"><ele>204.0</ele><time>2026-04-26T07:55:24.074Z</time></trkpt><trkpt lat="43.9458435" lon="10.8583162"><ele>204.0</ele><time>2026-04-26T07:55:25.073Z</time></trkpt><trkpt lat="43.9457715" lon="10.8582619"><ele>204.0</ele><time>2026-04-26T07:55:26.072Z</time></trkpt><trkpt lat="43.9457266" lon="10.8581782"><ele>209.33333333333334</ele><time>2026-04-26T07:55:27.073Z</time></trkpt><trkpt lat="43.9456303" lon="10.8580396"><ele>214.66666666666669</ele><time>2026-04-26T07:55:29.074Z</time></trkpt><trkpt lat="43.9455932" lon="10.8579555"><ele>220.0</ele><time>2026-04-26T07:55:30.074Z</time></trkpt><trkpt lat="43.9455553" lon="10.857871"><ele>225.33333333333334</ele><time>2026-04-26T07:55:31.073Z</time></trkpt><trkpt lat="43.9455031" lon="10.8577889"><ele>230.66666666666669</ele><time>2026-04-26T07:55:32.073Z</time></trkpt><trkpt lat="43.9454499" lon="10.8577039"><ele>236.0</ele><time>2026-04-26T07:55:33.073Z</time></trkpt><trkpt lat="43.9453995" lon="10.8576171"><ele>236.0</ele><time>2026-04-26T07:55:34.073Z</time></trkpt><trkpt lat="43.9453235" lon="10.85746"><ele>236.00000000000003</ele><time>2026-04-26T07:55:36.073Z</time></trkpt><trkpt lat="43.9452654" lon="10.8574113"><ele>236.00000000000003</ele><time>2026-04-26T07:55:37.072Z</time></trkpt><trkpt lat="43.9452257" lon="10.8573434"><ele>236.0</ele><time>2026-04-26T07:55:38.073Z</time></trkpt><trkpt lat="43.9451503" lon="10.8572421"><ele>236.0</ele><time>2026-04-26T07:55:40.073Z</time></trkpt><trkpt lat="43.9450926" lon="10.8571576"><ele>237.66666666666669</ele><time>2026-04-26T07:55:41.073Z</time></trkpt><trkpt lat="43.9450418" lon="10.8570664"><ele>239.33333333333334</ele><time>2026-04-26T07:55:42.072Z</time></trkpt><trkpt lat="43.9449942" lon="10.8569764"><ele>241.0</ele><time>2026-04-26T07:55:43.073Z</time></trkpt><trkpt lat="43.9449488" lon="10.8569091"><ele>242.66666666666669</ele><time>2026-04-26T07:55:44.074Z</time></trkpt><trkpt lat="43.9448812" lon="10.8568235"><ele>244.33333333333334</ele><time>2026-04-26T07:55:45.073Z</time></trkpt><trkpt lat="43.9448324" lon="10.8567444"><ele>246.0</ele><time>2026-04-26T07:55:46.074Z</time></trkpt><trkpt lat="43.9447359" lon="10.8567409"><ele>250.0</ele><time>2026-04-26T07:55:47.074Z</time></trkpt><trkpt lat="43.9446529" lon="10.8566569"><ele>254.00000000000003</ele><time>2026-04-26T07:55:50.073Z</time></trkpt><trkpt lat="43.9445989" lon="10.8565342"><ele>258.0</ele><time>2026-04-26T07:55:52.073Z</time></trkpt><trkpt lat="43.9445247" lon="10.8565389"><ele>262.0</ele><time>2026-04-26T07:55:53.073Z</time></trkpt><trkpt lat="43.9444325" lon="10.8565642"><ele>266.0</ele><time>2026-04-26T07:55:55.074Z</time></trkpt><trkpt lat="43.9443335" lon="10.8565878"><ele>266.0</ele><time>2026-04-26T07:55:58.074Z</time></trkpt><trkpt lat="43.9442707" lon="10.8565696"><ele>266.0</ele><time>2026-04-26T07:55:59.073Z</time></trkpt><trkpt lat="43.9442128" lon="10.856521"><ele>266.0</ele><time>2026-04-26T07:56:01.074Z</time></trkpt><trkpt lat="43.9441039" lon="10.8564349"><ele>266.0</ele><time>2026-04-26T07:56:03.072Z</time></trkpt><trkpt lat="43.9440008" lon="10.8563571"><ele>266.0</ele><time>2026-04-26T07:56:05.072Z</time></trkpt><trkpt lat="43.9439028" lon="10.8563769"><ele>265.2</ele><time>2026-04-26T07:56:06.073Z</time></trkpt><trkpt lat="43.9437975" lon="10.8563094"><ele>264.40000000000003</ele><time>2026-04-26T07:56:08.074Z</time></trkpt><trkpt lat="43.9437028" lon="10.8562187"><ele>263.6</ele><time>2026-04-26T07:56:10.073Z</time></trkpt><trkpt lat="43.943632" lon="10.8561502"><ele>262.8</ele><time>2026-04-26T07:56:11.073Z</time></trkpt><trkpt lat="43.9435648" lon="10.8560728"><ele>262.0</ele><time>2026-04-26T07:56:14.074Z</time></trkpt><trkpt lat="43.943508" lon="10.8561595"><ele>262.0</ele><time>2026-04-26T07:56:17.073Z</time></trkpt><trkpt lat="43.9434202" lon="10.8562849"><ele>262.0</ele><time>2026-04-26T07:56:19.073Z</time></trkpt><trkpt lat="43.9433636" lon="10.8564577"><ele>262.0</ele><time>2026-04-26T07:56:20.072Z</time></trkpt><trkpt lat="43.9432523" lon="10.8565149"><ele>262.0</ele><time>2026-04-26T07:56:21.073Z</time></trkpt><trkpt lat="43.9431553" lon="10.8566083"><ele>262.8</ele><time>2026-04-26T07:56:23.072Z</time></trkpt><trkpt lat="43.9429863" lon="10.8565935"><ele>263.6</ele><time>2026-04-26T07:56:25.073Z</time></trkpt><trkpt lat="43.9429107" lon="10.8565818"><ele>264.40000000000003</ele><time>2026-04-26T07:56:26.073Z</time></trkpt><trkpt lat="43.9428358" lon="10.8565725"><ele>265.2</ele><time>2026-04-26T07:56:27.072Z</time></trkpt><trkpt lat="43.942755" lon="10.8565686"><ele>266.0</ele><time>2026-04-26T07:56:28.073Z</time></trkpt><trkpt lat="43.9426617" lon="10.8565923"><ele>266.0</ele><time>2026-04-26T07:56:29.072Z</time></trkpt><trkpt lat="43.9425995" lon="10.8565599"><ele>266.0</ele><time>2026-04-26T07:56:30.074Z</time></trkpt><trkpt lat="43.9425344" lon="10.8565669"><ele>266.0</ele><time>2026-04-26T07:56:33.074Z</time></trkpt><trkpt lat="43.9425582" lon="10.8566656"><ele>266.0</ele><time>2026-04-26T07:56:35.073Z</time></trkpt><trkpt lat="43.9426267" lon="10.8568155"><ele>266.0</ele><time>2026-04-26T07:56:37.073Z</time></trkpt><trkpt lat="43.942672" lon="10.8569233"><ele>266.0</ele><time>2026-04-26T07:56:39.072Z</time></trkpt><trkpt lat="43.9426709" lon="10.8570339"><ele>266.83333333333337</ele><time>2026-04-26T07:56:41.072Z</time></trkpt><trkpt lat="43.9426177" lon="10.8570893"><ele>267.6666666666667</ele><time>2026-04-26T07:56:42.073Z</time></trkpt><trkpt lat="43.942522" lon="10.8571968"><ele>268.5</ele><time>2026-04-26T07:56:44.073Z</time></trkpt><trkpt lat="43.9424377" lon="10.857278"><ele>269.3333333333333</ele><time>2026-04-26T07:56:46.072Z</time></trkpt><trkpt lat="43.9423863" lon="10.8573451"><ele>270.16666666666663</ele><time>2026-04-26T07:56:47.074Z</time></trkpt><trkpt lat="43.9424317" lon="10.8574266"><ele>271.0</ele><time>2026-04-26T07:56:48.073Z</time></trkpt><trkpt lat="43.9424684" lon="10.8575548"><ele>269.2</ele><time>2026-04-26T07:56:50.073Z</time></trkpt><trkpt lat="43.9424824" lon="10.8576693"><ele>267.40000000000003</ele><time>2026-04-26T07:56:52.072Z</time></trkpt><trkpt lat="43.9424186" lon="10.8578759"><ele>265.6</ele><time>2026-04-26T07:56:53.073Z</time></trkpt><trkpt lat="43.9423886" lon="10.8579766"><ele>263.8</ele><time>2026-04-26T07:56:54.072Z</time></trkpt><trkpt lat="43.9423296" lon="10.8581179"><ele>262.0</ele><time>2026-04-26T07:56:55.073Z</time></trkpt><trkpt lat="43.9423076" lon="10.8582027"><ele>262.0</ele><time>2026-04-26T07:56:57.073Z</time></trkpt><trkpt lat="43.9422588" lon="10.8582723"><ele>262.0</ele><time>2026-04-26T07:56:58.073Z</time></trkpt><trkpt lat="43.9421694" lon="10.858332"><ele>262.0</ele><time>2026-04-26T07:57:00.074Z</time></trkpt><trkpt lat="43.9420947" lon="10.8583618"><ele>262.0</ele><time>2026-04-26T07:57:01.072Z</time></trkpt><trkpt lat="43.9420322" lon="10.858396"><ele>262.0</ele><time>2026-04-26T07:57:02.073Z</time></trkpt><trkpt lat="43.941973" lon="10.8584278"><ele>262.0</ele><time>2026-04-26T07:57:03.073Z</time></trkpt><trkpt lat="43.941917" lon="10.8584703"><ele>262.0</ele><time>2026-04-26T07:57:05.074Z</time></trkpt><trkpt lat="43.9419586" lon="10.8585787"><ele>258.8</ele><time>2026-04-26T07:57:07.073Z</time></trkpt><trkpt lat="43.9419816" lon="10.8586644"><ele>255.6</ele><time>2026-04-26T07:57:08.073Z</time></trkpt><trkpt lat="43.942001" lon="10.8587633"><ele>252.40000000000003</ele><time>2026-04-26T07:57:09.074Z</time></trkpt><trkpt lat="43.9420105" lon="10.8589106"><ele>249.20000000000002</ele><time>2026-04-26T07:57:11.073Z</time></trkpt><trkpt lat="43.9419664" lon="10.8591003"><ele>246.0</ele><time>2026-04-26T07:57:13.073Z</time></trkpt><trkpt lat="43.9419576" lon="10.8591985"><ele>246.60000000000002</ele><time>2026-04-26T07:57:14.073Z</time></trkpt><trkpt lat="43.9419854" lon="10.8593465"><ele>247.20000000000002</ele><time>2026-04-26T07:57:16.073Z</time></trkpt><trkpt lat="43.9419976" lon="10.8594576"><ele>247.79999999999998</ele><time>2026-04-26T07:57:17.074Z</time></trkpt><trkpt lat="43.941938" lon="10.8595899"><ele>248.39999999999998</ele><time>2026-04-26T07:57:19.073Z</time></trkpt><trkpt lat="43.9419186" lon="10.8597471"><ele>249.0</ele><time>2026-04-26T07:57:21.073Z</time></trkpt><trkpt lat="43.9418891" lon="10.8598613"><ele>249.0</ele><time>2026-04-26T07:57:22.072Z</time></trkpt><trkpt lat="43.9418648" lon="10.8599584"><ele>249.0</ele><time>2026-04-26T07:57:23.074Z</time></trkpt><trkpt lat="43.9418335" lon="10.8600625"><ele>249.0</ele><time>2026-04-26T07:57:24.074Z</time></trkpt><trkpt lat="43.9418163" lon="10.8601691"><ele>249.0</ele><time>2026-04-26T07:57:25.073Z</time></trkpt><trkpt lat="43.9418235" lon="10.8602727"><ele>249.0</ele><time>2026-04-26T07:57:26.072Z</time></trkpt><trkpt lat="43.9418079" lon="10.8603664"><ele>249.0</ele><time>2026-04-26T07:57:27.073Z</time></trkpt><trkpt lat="43.9418278" lon="10.8605027"><ele>249.83333333333334</ele><time>2026-04-26T07:57:29.073Z</time></trkpt><trkpt lat="43.9418284" lon="10.8606194"><ele>250.66666666666669</ele><time>2026-04-26T07:57:31.074Z</time></trkpt><trkpt lat="43.9417538" lon="10.8606638"><ele>251.5</ele><time>2026-04-26T07:57:33.073Z</time></trkpt><trkpt lat="43.9416914" lon="10.8606347"><ele>252.33333333333334</ele><time>2026-04-26T07:57:35.074Z</time></trkpt><trkpt lat="43.941717" lon="10.8605427"><ele>253.16666666666669</ele><time>2026-04-26T07:57:49.074Z</time></trkpt><trkpt lat="43.9416633" lon="10.860468"><ele>254.0</ele><time>2026-04-26T07:57:52.074Z</time></trkpt><trkpt lat="43.9415896" lon="10.8603554"><ele>257.6666666666667</ele><time>2026-04-26T07:57:53.073Z</time></trkpt><trkpt lat="43.9415417" lon="10.8602953"><ele>261.33333333333337</ele><time>2026-04-26T07:57:54.074Z</time></trkpt><trkpt lat="43.9414904" lon="10.8601759"><ele>265.0</ele><time>2026-04-26T07:57:56.074Z</time></trkpt><trkpt lat="43.9414761" lon="10.8600768"><ele>268.6666666666667</ele><time>2026-04-26T07:57:57.074Z</time></trkpt><trkpt lat="43.9414701" lon="10.8599866"><ele>272.3333333333333</ele><time>2026-04-26T07:57:58.074Z</time></trkpt><trkpt lat="43.9414032" lon="10.8598845"><ele>276.0</ele><time>2026-04-26T07:58:00.073Z</time></trkpt><trkpt lat="43.9413342" lon="10.8597554"><ele>277.8</ele><time>2026-04-26T07:58:02.073Z</time></trkpt><trkpt lat="43.9412919" lon="10.8596409"><ele>279.6</ele><time>2026-04-26T07:58:04.074Z</time></trkpt><trkpt lat="43.9412301" lon="10.8595189"><ele>281.4</ele><time>2026-04-26T07:58:06.072Z</time></trkpt><trkpt lat="43.9411665" lon="10.859466"><ele>283.2</ele><time>2026-04-26T07:58:07.072Z</time></trkpt><trkpt lat="43.9411092" lon="10.8593738"><ele>285.0</ele><time>2026-04-26T07:58:09.072Z</time></trkpt><trkpt lat="43.9410836" lon="10.8592152"><ele>285.3333333333333</ele><time>2026-04-26T07:58:11.074Z</time></trkpt><trkpt lat="43.9410461" lon="10.8591218"><ele>285.6666666666667</ele><time>2026-04-26T07:58:12.074Z</time></trkpt><trkpt lat="43.9410062" lon="10.8589976"><ele>286.0</ele><time>2026-04-26T07:58:14.072Z</time></trkpt><trkpt lat="43.9409718" lon="10.8589183"><ele>286.33333333333337</ele><time>2026-04-26T07:58:15.072Z</time></trkpt><trkpt lat="43.9409439" lon="10.8588215"><ele>286.6666666666667</ele><time>2026-04-26T07:58:16.074Z</time></trkpt><trkpt lat="43.9408884" lon="10.8587236"><ele>287.0</ele><time>2026-04-26T07:58:17.074Z</time></trkpt><trkpt lat="43.9408232" lon="10.858578"><ele>293.0</ele><time>2026-04-26T07:58:18.072Z</time></trkpt><trkpt lat="43.940827" lon="10.8584595"><ele>299.0</ele><time>2026-04-26T07:58:21.073Z</time></trkpt><trkpt lat="43.9408003" lon="10.858287"><ele>305.0</ele><time>2026-04-26T07:58:23.074Z</time></trkpt><trkpt lat="43.9407886" lon="10.8581804"><ele>311.0</ele><time>2026-04-26T07:58:24.073Z</time></trkpt><trkpt lat="43.9407557" lon="10.8580807"><ele>317.0</ele><time>2026-04-26T07:58:25.072Z</time></trkpt><trkpt lat="43.9406926" lon="10.8579828"><ele>318.6</ele><time>2026-04-26T07:58:26.074Z</time></trkpt><trkpt lat="43.940651" lon="10.8578441"><ele>320.2</ele><time>2026-04-26T07:58:28.073Z</time></trkpt><trkpt lat="43.9406453" lon="10.8576383"><ele>321.8</ele><time>2026-04-26T07:58:30.072Z</time></trkpt><trkpt lat="43.9406538" lon="10.8575022"><ele>323.4</ele><time>2026-04-26T07:58:32.074Z</time></trkpt><trkpt lat="43.940667" lon="10.8574069"><ele>325.0</ele><time>2026-04-26T07:58:33.074Z</time></trkpt><trkpt lat="43.9405868" lon="10.8574369"><ele>327.75</ele><time>2026-04-26T07:58:36.073Z</time></trkpt><trkpt lat="43.9405036" lon="10.8574392"><ele>330.5</ele><time>2026-04-26T07:58:37.072Z</time></trkpt><trkpt lat="43.9404483" lon="10.8573669"><ele>333.25</ele><time>2026-04-26T07:58:40.073Z</time></trkpt><trkpt lat="43.9405791" lon="10.8571854"><ele>336.0</ele><time>2026-04-26T07:59:38.074Z</time></trkpt><trkpt lat="43.9405994" lon="10.8570366"><ele>336.0</ele><time>2026-04-26T07:59:39.072Z</time></trkpt><trkpt lat="43.9406218" lon="10.856902"><ele>336.0</ele><time>2026-04-26T07:59:40.073Z</time></trkpt><trkpt lat="43.9406073" lon="10.8567655"><ele>336.0</ele><time>2026-04-26T07:59:41.074Z</time></trkpt><trkpt lat="43.9406278" lon="10.8566489"><ele>336.0</ele><time>2026-04-26T07:59:42.073Z</time></trkpt><trkpt lat="43.9406612" lon="10.856526"><ele>336.0</ele><time>2026-04-26T07:59:43.073Z</time></trkpt><trkpt lat="43.9407116" lon="10.856371"><ele>338.0</ele><time>2026-04-26T07:59:44.073Z</time></trkpt><trkpt lat="43.9407443" lon="10.8562335"><ele>340.0</ele><time>2026-04-26T07:59:45.074Z</time></trkpt><trkpt lat="43.940837" lon="10.8559353"><ele>342.0</ele><time>2026-04-26T07:59:47.073Z</time></trkpt><trkpt lat="43.9409038" lon="10.855808"><ele>339.0</ele><time>2026-04-26T07:59:48.074Z</time></trkpt><trkpt lat="43.9409787" lon="10.8556938"><ele>336.0</ele><time>2026-04-26T07:59:49.074Z</time></trkpt><trkpt lat="43.9410461" lon="10.8555748"><ele>333.0</ele><time>2026-04-26T07:59:50.074Z</time></trkpt><trkpt lat="43.9411128" lon="10.8554361"><ele>330.0</ele><time>2026-04-26T07:59:51.072Z</time></trkpt><trkpt lat="43.9411862" lon="10.8553483"><ele>327.0</ele><time>2026-04-26T07:59:52.073Z</time></trkpt><trkpt lat="43.9412727" lon="10.8552332"><ele>327.0</ele><time>2026-04-26T07:59:53.073Z</time></trkpt><trkpt lat="43.9413417" lon="10.8551241"><ele>327.0</ele><time>2026-04-26T07:59:54.073Z</time></trkpt><trkpt lat="43.9414221" lon="10.8549988"><ele>327.0</ele><time>2026-04-26T07:59:55.074Z</time></trkpt><trkpt lat="43.9414818" lon="10.8549017"><ele>327.0</ele><time>2026-04-26T07:59:56.073Z</time></trkpt><trkpt lat="43.9415546" lon="10.8547708"><ele>327.0</ele><time>2026-04-26T07:59:58.074Z</time></trkpt><trkpt lat="43.9416189" lon="10.8547373"><ele>327.8</ele><time>2026-04-26T07:59:59.073Z</time></trkpt><trkpt lat="43.9416824" lon="10.8546886"><ele>328.6</ele><time>2026-04-26T08:00:00.074Z</time></trkpt><trkpt lat="43.9417792" lon="10.8546809"><ele>329.40000000000003</ele><time>2026-04-26T08:00:03.074Z</time></trkpt><trkpt lat="43.9418796" lon="10.8546557"><ele>330.20000000000005</ele><time>2026-04-26T08:00:06.072Z</time></trkpt><trkpt lat="43.9419815" lon="10.8545841"><ele>331.0</ele><time>2026-04-26T08:00:08.074Z</time></trkpt><trkpt lat="43.9420636" lon="10.8545068"><ele>331.0</ele><time>2026-04-26T08:00:10.073Z</time></trkpt><trkpt lat="43.9420923" lon="10.8544236"><ele>331.0</ele><time>2026-04-26T08:00:11.074Z</time></trkpt><trkpt lat="43.942148" lon="10.8543335"><ele>331.0</ele><time>2026-04-26T08:00:12.073Z</time></trkpt><trkpt lat="43.942207" lon="10.854238"><ele>331.0</ele><time>2026-04-26T08:00:13.073Z</time></trkpt><trkpt lat="43.9421901" lon="10.8541527"><ele>331.0</ele><time>2026-04-26T08:00:14.073Z</time></trkpt><trkpt lat="43.9422084" lon="10.8540492"><ele>331.0</ele><time>2026-04-26T08:00:15.073Z</time></trkpt><trkpt lat="43.942254" lon="10.8538932"><ele>336.25</ele><time>2026-04-26T08:00:16.074Z</time></trkpt><trkpt lat="43.9423052" lon="10.8537613"><ele>341.5</ele><time>2026-04-26T08:00:17.073Z</time></trkpt><trkpt lat="43.9423564" lon="10.8536272"><ele>346.75</ele><time>2026-04-26T08:00:18.074Z</time></trkpt><trkpt lat="43.9424784" lon="10.8534534"><ele>352.0</ele><time>2026-04-26T08:00:20.073Z</time></trkpt><trkpt lat="43.9425348" lon="10.8533999"><ele>348.6</ele><time>2026-04-26T08:00:21.072Z</time></trkpt><trkpt lat="43.9425952" lon="10.8532389"><ele>345.20000000000005</ele><time>2026-04-26T08:00:23.074Z</time></trkpt><trkpt lat="43.9425969" lon="10.8531207"><ele>341.8</ele><time>2026-04-26T08:00:24.074Z</time></trkpt><trkpt lat="43.9426119" lon="10.8529998"><ele>338.4</ele><time>2026-04-26T08:00:25.073Z</time></trkpt><trkpt lat="43.9426053" lon="10.8528789"><ele>335.0</ele><time>2026-04-26T08:00:26.072Z</time></trkpt><trkpt lat="43.9426066" lon="10.8527491"><ele>339.33333333333337</ele><time>2026-04-26T08:00:27.072Z</time></trkpt><trkpt lat="43.9425422" lon="10.8526168"><ele>343.6666666666667</ele><time>2026-04-26T08:00:28.073Z</time></trkpt><trkpt lat="43.9425079" lon="10.852535"><ele>348.0</ele><time>2026-04-26T08:00:29.072Z</time></trkpt><trkpt lat="43.9424411" lon="10.8524393"><ele>352.3333333333333</ele><time>2026-04-26T08:00:30.073Z</time></trkpt><trkpt lat="43.9423916" lon="10.8523662"><ele>356.66666666666663</ele><time>2026-04-26T08:00:31.073Z</time></trkpt><trkpt lat="43.9424352" lon="10.8523027"><ele>361.0</ele><time>2026-04-26T08:00:32.074Z</time></trkpt><trkpt lat="43.9424949" lon="10.8521606"><ele>361.0</ele><time>2026-04-26T08:00:34.073Z</time></trkpt><trkpt lat="43.9425465" lon="10.85207"><ele>361.0</ele><time>2026-04-26T08:00:35.073Z</time></trkpt><trkpt lat="43.9426395" lon="10.8518958"><ele>361.0</ele><time>2026-04-26T08:00:37.074Z</time></trkpt><trkpt lat="43.9426708" lon="10.8518049"><ele>361.0</ele><time>2026-04-26T08:00:38.074Z</time></trkpt><trkpt lat="43.9427164" lon="10.8516893"><ele>361.0</ele><time>2026-04-26T08:00:39.072Z</time></trkpt><trkpt lat="43.94274" lon="10.85159"><ele>360.66666666666663</ele><time>2026-04-26T08:00:40.073Z</time></trkpt><trkpt lat="43.9427708" lon="10.8514879"><ele>360.3333333333333</ele><time>2026-04-26T08:00:41.073Z</time></trkpt><trkpt lat="43.9428421" lon="10.851411"><ele>360.0</ele><time>2026-04-26T08:00:42.073Z</time></trkpt><trkpt lat="43.9429002" lon="10.851315"><ele>359.6666666666667</ele><time>2026-04-26T08:00:43.072Z</time></trkpt><trkpt lat="43.9429692" lon="10.8512408"><ele>359.33333333333337</ele><time>2026-04-26T08:00:44.072Z</time></trkpt><trkpt lat="43.9430331" lon="10.8511537"><ele>359.0</ele><time>2026-04-26T08:00:45.073Z</time></trkpt><trkpt lat="43.9431032" lon="10.8510644"><ele>359.0</ele><time>2026-04-26T08:00:46.073Z</time></trkpt><trkpt lat="43.9431751" lon="10.8509834"><ele>359.0</ele><time>2026-04-26T08:00:47.073Z</time></trkpt><trkpt lat="43.9432445" lon="10.8508821"><ele>359.0</ele><time>2026-04-26T08:00:48.073Z</time></trkpt><trkpt lat="43.943308" lon="10.8507754"><ele>359.0</ele><time>2026-04-26T08:00:49.073Z</time></trkpt><trkpt lat="43.9432833" lon="10.8506477"><ele>359.0</ele><time>2026-04-26T08:00:50.073Z</time></trkpt><trkpt lat="43.9433163" lon="10.8505035"><ele>359.6</ele><time>2026-04-26T08:00:51.073Z</time></trkpt><trkpt lat="43.9433451" lon="10.8503731"><ele>360.2</ele><time>2026-04-26T08:00:52.073Z</time></trkpt><trkpt lat="43.9433883" lon="10.8502556"><ele>360.8</ele><time>2026-04-26T08:00:53.073Z</time></trkpt><trkpt lat="43.9434564" lon="10.8501495"><ele>361.40000000000003</ele><time>2026-04-26T08:00:54.074Z</time></trkpt><trkpt lat="43.9435226" lon="10.8500306"><ele>362.0</ele><time>2026-04-26T08:00:55.074Z</time></trkpt><trkpt lat="43.9435797" lon="10.8499049"><ele>360.20000000000005</ele><time>2026-04-26T08:00:56.073Z</time></trkpt><trkpt lat="43.9436345" lon="10.8497872"><ele>358.4</ele><time>2026-04-26T08:00:57.074Z</time></trkpt><trkpt lat="43.9436994" lon="10.8496637"><ele>356.6</ele><time>2026-04-26T08:00:58.073Z</time></trkpt><trkpt lat="43.9437532" lon="10.8495404"><ele>354.79999999999995</ele><time>2026-04-26T08:00:59.072Z</time></trkpt><trkpt lat="43.9437992" lon="10.8494276"><ele>353.0</ele><time>2026-04-26T08:01:00.073Z</time></trkpt><trkpt lat="43.9438493" lon="10.849316"><ele>354.0</ele><time>2026-04-26T08:01:01.073Z</time></trkpt><trkpt lat="43.9439038" lon="10.8492057"><ele>355.0</ele><time>2026-04-26T08:01:02.074Z</time></trkpt><trkpt lat="43.9439562" lon="10.8490928"><ele>356.0</ele><time>2026-04-26T08:01:03.073Z</time></trkpt><trkpt lat="43.9440089" lon="10.8489839"><ele>357.0</ele><time>2026-04-26T08:01:04.073Z</time></trkpt><trkpt lat="43.9440603" lon="10.8488785"><ele>358.0</ele><time>2026-04-26T08:01:05.073Z</time></trkpt><trkpt lat="43.9441126" lon="10.8487746"><ele>358.0</ele><time>2026-04-26T08:01:06.073Z</time></trkpt><trkpt lat="43.9441554" lon="10.8486582"><ele>358.0</ele><time>2026-04-26T08:01:07.072Z</time></trkpt><trkpt lat="43.9441953" lon="10.8485476"><ele>358.0</ele><time>2026-04-26T08:01:08.072Z</time></trkpt><trkpt lat="43.9442411" lon="10.8484478"><ele>358.0</ele><time>2026-04-26T08:01:09.074Z</time></trkpt><trkpt lat="43.9442802" lon="10.8483558"><ele>358.0</ele><time>2026-04-26T08:01:10.073Z</time></trkpt><trkpt lat="43.9443182" lon="10.848285"><ele>358.0</ele><time>2026-04-26T08:01:11.072Z</time></trkpt><trkpt lat="43.9443745" lon="10.8481505"><ele>359.16666666666663</ele><time>2026-04-26T08:01:13.072Z</time></trkpt><trkpt lat="43.9443962" lon="10.8480293"><ele>360.3333333333333</ele><time>2026-04-26T08:01:15.073Z</time></trkpt><trkpt lat="43.9444624" lon="10.8479457"><ele>361.5</ele><time>2026-04-26T08:01:17.074Z</time></trkpt><trkpt lat="43.9445433" lon="10.8479352"><ele>362.6666666666667</ele><time>2026-04-26T08:01:19.073Z</time></trkpt><trkpt lat="43.9446377" lon="10.8479374"><ele>363.83333333333337</ele><time>2026-04-26T08:01:20.074Z</time></trkpt><trkpt lat="43.9447151" lon="10.8479216"><ele>365.0</ele><time>2026-04-26T08:01:21.074Z</time></trkpt><trkpt lat="43.944812" lon="10.8479625"><ele>365.0</ele><time>2026-04-26T08:01:22.073Z</time></trkpt><trkpt lat="43.9449016" lon="10.8480231"><ele>365.0</ele><time>2026-04-26T08:01:23.072Z</time></trkpt><trkpt lat="43.9449846" lon="10.8480905"><ele>365.0</ele><time>2026-04-26T08:01:24.074Z</time></trkpt><trkpt lat="43.9450905" lon="10.8481704"><ele>365.0</ele><time>2026-04-26T08:01:25.073Z</time></trkpt><trkpt lat="43.9451963" lon="10.8482608"><ele>365.0</ele><time>2026-04-26T08:01:26.073Z</time></trkpt><trkpt lat="43.9452657" lon="10.8483542"><ele>363.0</ele><time>2026-04-26T08:01:27.073Z</time></trkpt><trkpt lat="43.9453067" lon="10.8484216"><ele>361.0</ele><time>2026-04-26T08:01:28.073Z</time></trkpt><trkpt lat="43.9453556" lon="10.8484781"><ele>359.0</ele><time>2026-04-26T08:01:29.072Z</time></trkpt><trkpt lat="43.9454377" lon="10.8485388"><ele>357.0</ele><time>2026-04-26T08:01:30.074Z</time></trkpt><trkpt lat="43.9454966" lon="10.8485698"><ele>355.0</ele><time>2026-04-26T08:01:31.073Z</time></trkpt><trkpt lat="43.9456112" lon="10.8486354"><ele>353.0</ele><time>2026-04-26T08:01:32.072Z</time></trkpt><trkpt lat="43.9457021" lon="10.8486438"><ele>353.0</ele><time>2026-04-26T08:01:33.072Z</time></trkpt><trkpt lat="43.9458035" lon="10.8486098"><ele>353.0</ele><time>2026-04-26T08:01:34.073Z</time></trkpt><trkpt lat="43.9459244" lon="10.84854"><ele>353.0</ele><time>2026-04-26T08:01:35.072Z</time></trkpt><trkpt lat="43.9460391" lon="10.8484927"><ele>353.0</ele><time>2026-04-26T08:01:36.073Z</time></trkpt><trkpt lat="43.9461862" lon="10.8485128"><ele>353.4</ele><time>2026-04-26T08:01:37.074Z</time></trkpt><trkpt lat="43.9463051" lon="10.8485436"><ele>353.79999999999995</ele><time>2026-04-26T08:01:38.073Z</time></trkpt><trkpt lat="43.9464019" lon="10.8485623"><ele>354.2</ele><time>2026-04-26T08:01:39.072Z</time></trkpt><trkpt lat="43.9464989" lon="10.848551"><ele>354.6</ele><time>2026-04-26T08:01:40.072Z</time></trkpt><trkpt lat="43.9465927" lon="10.8485098"><ele>355.0</ele><time>2026-04-26T08:01:41.074Z</time></trkpt><trkpt lat="43.9466746" lon="10.8484224"><ele>355.25</ele><time>2026-04-26T08:01:42.073Z</time></trkpt><trkpt lat="43.9467455" lon="10.848288"><ele>355.5</ele><time>2026-04-26T08:01:43.074Z</time></trkpt><trkpt lat="43.9468018" lon="10.8481246"><ele>355.75</ele><time>2026-04-26T08:01:44.074Z</time></trkpt><trkpt lat="43.9468569" lon="10.8479881"><ele>356.0</ele><time>2026-04-26T08:01:45.073Z</time></trkpt><trkpt lat="43.9468903" lon="10.8478603"><ele>356.0</ele><time>2026-04-26T08:01:46.072Z</time></trkpt><trkpt lat="43.9469316" lon="10.8477158"><ele>356.0</ele><time>2026-04-26T08:01:47.073Z</time></trkpt><trkpt lat="43.9469676" lon="10.8475674"><ele>356.0</ele><time>2026-04-26T08:01:48.072Z</time></trkpt><trkpt lat="43.9470138" lon="10.847413"><ele>356.0</ele><time>2026-04-26T08:01:49.072Z</time></trkpt><trkpt lat="43.9470548" lon="10.8472623"><ele>361.0</ele><time>2026-04-26T08:01:50.073Z</time></trkpt><trkpt lat="43.9471263" lon="10.847168"><ele>366.0</ele><time>2026-04-26T08:01:51.074Z</time></trkpt><trkpt lat="43.9472281" lon="10.8469577"><ele>371.0</ele><time>2026-04-26T08:01:53.073Z</time></trkpt><trkpt lat="43.9472959" lon="10.8468495"><ele>376.0</ele><time>2026-04-26T08:01:54.073Z</time></trkpt><trkpt lat="43.947348" lon="10.8467547"><ele>377.3333333333333</ele><time>2026-04-26T08:01:55.073Z</time></trkpt><trkpt lat="43.9474056" lon="10.8466626"><ele>378.66666666666663</ele><time>2026-04-26T08:01:56.072Z</time></trkpt><trkpt lat="43.9474514" lon="10.8465993"><ele>380.0</ele><time>2026-04-26T08:01:57.073Z</time></trkpt><trkpt lat="43.947404" lon="10.8465199"><ele>381.3333333333333</ele><time>2026-04-26T08:01:58.073Z</time></trkpt><trkpt lat="43.9473717" lon="10.8464441"><ele>382.6666666666667</ele><time>2026-04-26T08:01:59.072Z</time></trkpt><trkpt lat="43.9473316" lon="10.8463001"><ele>384.0</ele><time>2026-04-26T08:02:01.073Z</time></trkpt><trkpt lat="43.9473071" lon="10.846169"><ele>386.66666666666663</ele><time>2026-04-26T08:02:03.074Z</time></trkpt><trkpt lat="43.9476308" lon="10.8463096"><ele>389.3333333333333</ele><time>2026-04-26T08:02:06.073Z</time></trkpt><trkpt lat="43.9477405" lon="10.8463221"><ele>392.0</ele><time>2026-04-26T08:02:07.073Z</time></trkpt><trkpt lat="43.9478451" lon="10.8463029"><ele>392.0</ele><time>2026-04-26T08:02:08.074Z</time></trkpt><trkpt lat="43.947932" lon="10.8462871"><ele>392.0</ele><time>2026-04-26T08:02:09.072Z</time></trkpt><trkpt lat="43.9480237" lon="10.8462989"><ele>392.0</ele><time>2026-04-26T08:02:10.072Z</time></trkpt><trkpt lat="43.948112" lon="10.8463375"><ele>392.0</ele><time>2026-04-26T08:02:11.074Z</time></trkpt><trkpt lat="43.94821" lon="10.8463743"><ele>392.0</ele><time>2026-04-26T08:02:12.074Z</time></trkpt><trkpt lat="43.9483012" lon="10.8464082"><ele>394.5</ele><time>2026-04-26T08:02:13.073Z</time></trkpt><trkpt lat="43.9483898" lon="10.8464523"><ele>397.0</ele><time>2026-04-26T08:02:14.073Z</time></trkpt><trkpt lat="43.9484795" lon="10.8465033"><ele>399.5</ele><time>2026-04-26T08:02:15.074Z</time></trkpt><trkpt lat="43.9486524" lon="10.8466061"><ele>402.0</ele><time>2026-04-26T08:02:17.074Z</time></trkpt><trkpt lat="43.9487456" lon="10.8466324"><ele>402.0</ele><time>2026-04-26T08:02:18.073Z</time></trkpt><trkpt lat="43.9488397" lon="10.8466441"><ele>402.0</ele><time>2026-04-26T08:02:19.072Z</time></trkpt><trkpt lat="43.9489173" lon="10.8466445"><ele>402.0</ele><time>2026-04-26T08:02:20.073Z</time></trkpt><trkpt lat="43.9490325" lon="10.8466123"><ele>402.0</ele><time>2026-04-26T08:02:22.074Z</time></trkpt><trkpt lat="43.9491312" lon="10.846536"><ele>402.0</ele><time>2026-04-26T08:02:24.073Z</time></trkpt><trkpt lat="43.9491946" lon="10.8463826"><ele>403.3333333333333</ele><time>2026-04-26T08:02:26.074Z</time></trkpt><trkpt lat="43.9492173" lon="10.8462864"><ele>404.66666666666663</ele><time>2026-04-26T08:02:27.073Z</time></trkpt><trkpt lat="43.9492176" lon="10.8461789"><ele>406.0</ele><time>2026-04-26T08:02:28.072Z</time></trkpt><trkpt lat="43.9492347" lon="10.8460815"><ele>407.3333333333333</ele><time>2026-04-26T08:02:29.073Z</time></trkpt><trkpt lat="43.949253" lon="10.8459774"><ele>408.66666666666663</ele><time>2026-04-26T08:02:30.073Z</time></trkpt><trkpt lat="43.9492892" lon="10.8458662"><ele>410.0</ele><time>2026-04-26T08:02:31.074Z</time></trkpt><trkpt lat="43.949327" lon="10.8457548"><ele>409.99999999999994</ele><time>2026-04-26T08:02:32.072Z</time></trkpt><trkpt lat="43.9493609" lon="10.8456459"><ele>410.0</ele><time>2026-04-26T08:02:33.073Z</time></trkpt><trkpt lat="43.9494058" lon="10.8455363"><ele>410.0</ele><time>2026-04-26T08:02:34.073Z</time></trkpt><trkpt lat="43.9494632" lon="10.8454355"><ele>410.0</ele><time>2026-04-26T08:02:35.073Z</time></trkpt><trkpt lat="43.9495119" lon="10.8453648"><ele>409.99999999999994</ele><time>2026-04-26T08:02:36.074Z</time></trkpt><trkpt lat="43.9495851" lon="10.8454064"><ele>410.0</ele><time>2026-04-26T08:02:37.074Z</time></trkpt><trkpt lat="43.9496742" lon="10.8453848"><ele>409.99999999999994</ele><time>2026-04-26T08:02:38.074Z</time></trkpt><trkpt lat="43.9497626" lon="10.8453805"><ele>410.0</ele><time>2026-04-26T08:02:39.073Z</time></trkpt><trkpt lat="43.9498661" lon="10.8453948"><ele>410.0</ele><time>2026-04-26T08:02:40.074Z</time></trkpt><trkpt lat="43.949945" lon="10.8453839"><ele>410.0</ele><time>2026-04-26T08:02:41.073Z</time></trkpt><trkpt lat="43.9500147" lon="10.845376"><ele>409.99999999999994</ele><time>2026-04-26T08:02:43.073Z</time></trkpt><trkpt lat="43.9500939" lon="10.8453405"><ele>410.0</ele><time>2026-04-26T08:02:46.073Z</time></trkpt><trkpt lat="43.9501493" lon="10.8452531"><ele>408.16666666666663</ele><time>2026-04-26T08:02:55.072Z</time></trkpt><trkpt lat="43.9501942" lon="10.8451595"><ele>406.3333333333333</ele><time>2026-04-26T08:02:57.074Z</time></trkpt><trkpt lat="43.9502485" lon="10.8450398"><ele>404.5</ele><time>2026-04-26T08:03:00.073Z</time></trkpt><trkpt lat="43.9503207" lon="10.8449433"><ele>402.66666666666663</ele><time>2026-04-26T08:03:03.072Z</time></trkpt><trkpt lat="43.9503502" lon="10.8448126"><ele>400.8333333333333</ele><time>2026-04-26T08:03:06.073Z</time></trkpt><trkpt lat="43.9503738" lon="10.8447303"><ele>399.0</ele><time>2026-04-26T08:03:07.072Z</time></trkpt><trkpt lat="43.9503886" lon="10.8445782"><ele>403.0</ele><time>2026-04-26T08:03:09.073Z</time></trkpt><trkpt lat="43.9504192" lon="10.8444857"><ele>407.0</ele><time>2026-04-26T08:03:11.072Z</time></trkpt><trkpt lat="43.9504393" lon="10.8443987"><ele>411.0</ele><time>2026-04-26T08:03:13.072Z</time></trkpt><trkpt lat="43.9505219" lon="10.8443288"><ele>415.0</ele><time>2026-04-26T08:04:24.072Z</time></trkpt><trkpt lat="43.9506309" lon="10.8442356"><ele>419.0</ele><time>2026-04-26T08:04:26.073Z</time></trkpt><trkpt lat="43.9506979" lon="10.8441769"><ele>423.0</ele><time>2026-04-26T08:04:27.073Z</time></trkpt><trkpt lat="43.9507854" lon="10.8441237"><ele>426.5</ele><time>2026-04-26T08:04:28.072Z</time></trkpt><trkpt lat="43.9508808" lon="10.8440604"><ele>430.0</ele><time>2026-04-26T08:04:29.073Z</time></trkpt><trkpt lat="43.950947" lon="10.8439976"><ele>433.5</ele><time>2026-04-26T08:04:30.074Z</time></trkpt><trkpt lat="43.951021" lon="10.8439228"><ele>437.0</ele><time>2026-04-26T08:04:31.074Z</time></trkpt><trkpt lat="43.9510629" lon="10.8438278"><ele>440.5</ele><time>2026-04-26T08:04:32.073Z</time></trkpt><trkpt lat="43.9511213" lon="10.8437589"><ele>444.0</ele><time>2026-04-26T08:04:33.073Z</time></trkpt><trkpt lat="43.9511574" lon="10.843662"><ele>444.0</ele><time>2026-04-26T08:04:34.073Z</time></trkpt><trkpt lat="43.9512164" lon="10.8435954"><ele>444.0</ele><time>2026-04-26T08:04:35.072Z</time></trkpt><trkpt lat="43.9512893" lon="10.8435535"><ele>444.0</ele><time>2026-04-26T08:04:36.072Z</time></trkpt><trkpt lat="43.9514146" lon="10.8435365"><ele>444.0</ele><time>2026-04-26T08:04:38.074Z</time></trkpt><trkpt lat="43.9515271" lon="10.8435408"><ele>444.0</ele><time>2026-04-26T08:04:40.072Z</time></trkpt><trkpt lat="43.9516133" lon="10.8435275"><ele>444.0</ele><time>2026-04-26T08:04:41.074Z</time></trkpt><trkpt lat="43.9516823" lon="10.8434787"><ele>444.0</ele><time>2026-04-26T08:04:42.074Z</time></trkpt><trkpt lat="43.9517561" lon="10.843468"><ele>444.0</ele><time>2026-04-26T08:04:43.073Z</time></trkpt><trkpt lat="43.9518912" lon="10.8434196"><ele>444.0</ele><time>2026-04-26T08:04:45.074Z</time></trkpt><trkpt lat="43.9519882" lon="10.8433953"><ele>444.0</ele><time>2026-04-26T08:04:46.073Z</time></trkpt><trkpt lat="43.9520575" lon="10.8433766"><ele>447.2</ele><time>2026-04-26T08:04:47.073Z</time></trkpt><trkpt lat="43.9521748" lon="10.8433661"><ele>450.4</ele><time>2026-04-26T08:04:48.074Z</time></trkpt><trkpt lat="43.952266" lon="10.8433461"><ele>453.6</ele><time>2026-04-26T08:04:49.074Z</time></trkpt><trkpt lat="43.9523372" lon="10.843326"><ele>456.8</ele><time>2026-04-26T08:04:50.073Z</time></trkpt><trkpt lat="43.9524038" lon="10.843301"><ele>460.0</ele><time>2026-04-26T08:04:51.072Z</time></trkpt><trkpt lat="43.9525001" lon="10.8432709"><ele>461.83333333333337</ele><time>2026-04-26T08:04:52.073Z</time></trkpt><trkpt lat="43.9526373" lon="10.8432174"><ele>463.6666666666667</ele><time>2026-04-26T08:04:54.074Z</time></trkpt><trkpt lat="43.9527095" lon="10.8432013"><ele>465.5</ele><time>2026-04-26T08:04:55.073Z</time></trkpt><trkpt lat="43.9527893" lon="10.8431738"><ele>467.33333333333337</ele><time>2026-04-26T08:04:56.072Z</time></trkpt><trkpt lat="43.9528552" lon="10.8431624"><ele>469.1666666666667</ele><time>2026-04-26T08:04:57.073Z</time></trkpt><trkpt lat="43.952926" lon="10.8431718"><ele>471.0</ele><time>2026-04-26T08:04:58.073Z</time></trkpt><trkpt lat="43.9530064" lon="10.8432064"><ele>471.0</ele><time>2026-04-26T08:04:59.072Z</time></trkpt><trkpt lat="43.9530907" lon="10.8432179"><ele>471.0</ele><time>2026-04-26T08:05:00.072Z</time></trkpt><trkpt lat="43.9531949" lon="10.8432987"><ele>471.0</ele><time>2026-04-26T08:05:02.072Z</time></trkpt><trkpt lat="43.9532951" lon="10.8433632"><ele>471.0</ele><time>2026-04-26T08:05:04.073Z</time></trkpt><trkpt lat="43.9533096" lon="10.8432223"><ele>471.0</ele><time>2026-04-26T08:05:06.074Z</time></trkpt><trkpt lat="43.953325" lon="10.8430787"><ele>471.0</ele><time>2026-04-26T08:05:08.074Z</time></trkpt><trkpt lat="43.9533385" lon="10.8429657"><ele>471.0</ele><time>2026-04-26T08:05:10.073Z</time></trkpt><trkpt lat="43.9533924" lon="10.8428079"><ele>471.0</ele><time>2026-04-26T08:05:12.072Z</time></trkpt><trkpt lat="43.9534082" lon="10.8427219"><ele>471.0</ele><time>2026-04-26T08:05:13.073Z</time></trkpt><trkpt lat="43.953435" lon="10.842635"><ele>471.0</ele><time>2026-04-26T08:05:14.074Z</time></trkpt><trkpt lat="43.9534976" lon="10.8424606"><ele>476.8</ele><time>2026-04-26T08:05:16.073Z</time></trkpt><trkpt lat="43.9535294" lon="10.8423054"><ele>482.6</ele><time>2026-04-26T08:05:18.072Z</time></trkpt><trkpt lat="43.9535943" lon="10.8421719"><ele>488.4</ele><time>2026-04-26T08:05:20.074Z</time></trkpt><trkpt lat="43.9536436" lon="10.8420948"><ele>494.2</ele><time>2026-04-26T08:05:22.073Z</time></trkpt><trkpt lat="43.9537131" lon="10.8421114"><ele>500.0</ele><time>2026-04-26T08:05:24.072Z</time></trkpt><trkpt lat="43.9537652" lon="10.8422005"><ele>499.99999999999994</ele><time>2026-04-26T08:05:25.074Z</time></trkpt><trkpt lat="43.9538156" lon="10.8422946"><ele>500.0</ele><time>2026-04-26T08:05:26.074Z</time></trkpt><trkpt lat="43.9538829" lon="10.8423718"><ele>500.0</ele><time>2026-04-26T08:05:27.072Z</time></trkpt><trkpt lat="43.95395" lon="10.8424573"><ele>500.0</ele><time>2026-04-26T08:05:28.073Z</time></trkpt><trkpt lat="43.9540241" lon="10.8425613"><ele>499.99999999999994</ele><time>2026-04-26T08:05:29.073Z</time></trkpt><trkpt lat="43.9540778" lon="10.842635"><ele>500.0</ele><time>2026-04-26T08:05:30.073Z</time></trkpt><trkpt lat="43.9541327" lon="10.8427151"><ele>500.25</ele><time>2026-04-26T08:05:31.073Z</time></trkpt><trkpt lat="43.954194" lon="10.8428109"><ele>500.5</ele><time>2026-04-26T08:05:33.072Z</time></trkpt><trkpt lat="43.9543125" lon="10.8428539"><ele>500.75</ele><time>2026-04-26T08:05:35.074Z</time></trkpt><trkpt lat="43.9544037" lon="10.8428619"><ele>501.0</ele><time>2026-04-26T08:05:36.073Z</time></trkpt><trkpt lat="43.954561" lon="10.8428577"><ele>501.0</ele><time>2026-04-26T08:05:37.072Z</time></trkpt><trkpt lat="43.9546827" lon="10.8428632"><ele>501.0</ele><time>2026-04-26T08:05:38.074Z</time></trkpt><trkpt lat="43.9547931" lon="10.8428691"><ele>501.0</ele><time>2026-04-26T08:05:39.073Z</time></trkpt><trkpt lat="43.9549134" lon="10.8428843"><ele>501.0</ele><time>2026-04-26T08:05:40.072Z</time></trkpt><trkpt lat="43.9550294" lon="10.8428856"><ele>502.0</ele><time>2026-04-26T08:05:41.073Z</time></trkpt><trkpt lat="43.9551553" lon="10.842889"><ele>503.0</ele><time>2026-04-26T08:05:42.072Z</time></trkpt><trkpt lat="43.9552567" lon="10.8428946"><ele>504.0</ele><time>2026-04-26T08:05:43.073Z</time></trkpt><trkpt lat="43.9553619" lon="10.8428903"><ele>505.0</ele><time>2026-04-26T08:05:44.073Z</time></trkpt><trkpt lat="43.9554835" lon="10.842866"><ele>505.0</ele><time>2026-04-26T08:05:45.073Z</time></trkpt><trkpt lat="43.9555685" lon="10.8428443"><ele>505.0</ele><time>2026-04-26T08:05:46.073Z</time></trkpt><trkpt lat="43.9556792" lon="10.8428365"><ele>505.0</ele><time>2026-04-26T08:05:47.074Z</time></trkpt><trkpt lat="43.9557731" lon="10.8428305"><ele>505.0</ele><time>2026-04-26T08:05:48.072Z</time></trkpt><trkpt lat="43.9558548" lon="10.842843"><ele>505.0</ele><time>2026-04-26T08:05:49.073Z</time></trkpt><trkpt lat="43.9559476" lon="10.8428548"><ele>506.00000000000006</ele><time>2026-04-26T08:05:50.072Z</time></trkpt><trkpt lat="43.9560262" lon="10.8428696"><ele>507.0</ele><time>2026-04-26T08:05:51.074Z</time></trkpt><trkpt lat="43.9560936" lon="10.8429016"><ele>508.0</ele><time>2026-04-26T08:05:52.073Z</time></trkpt><trkpt lat="43.956159" lon="10.8429137"><ele>509.0</ele><time>2026-04-26T08:05:53.074Z</time></trkpt><trkpt lat="43.9561737" lon="10.8428251"><ele>510.00000000000006</ele><time>2026-04-26T08:05:55.073Z</time></trkpt><trkpt lat="43.9560966" lon="10.8427342"><ele>511.0</ele><time>2026-04-26T08:05:57.073Z</time></trkpt><trkpt lat="43.9560344" lon="10.8426105"><ele>513.4</ele><time>2026-04-26T08:05:59.072Z</time></trkpt><trkpt lat="43.9559961" lon="10.8425166"><ele>515.8</ele><time>2026-04-26T08:06:00.073Z</time></trkpt><trkpt lat="43.9558652" lon="10.8424458"><ele>518.1999999999999</ele><time>2026-04-26T08:06:01.074Z</time></trkpt><trkpt lat="43.9557693" lon="10.8423522"><ele>520.6</ele><time>2026-04-26T08:06:03.072Z</time></trkpt><trkpt lat="43.9557101" lon="10.8423068"><ele>523.0</ele><time>2026-04-26T08:06:04.072Z</time></trkpt><trkpt lat="43.9555751" lon="10.8422955"><ele>523.0</ele><time>2026-04-26T08:06:06.074Z</time></trkpt><trkpt lat="43.9555052" lon="10.8422718"><ele>523.0</ele><time>2026-04-26T08:06:07.072Z</time></trkpt><trkpt lat="43.955426" lon="10.842246"><ele>523.0</ele><time>2026-04-26T08:06:08.074Z</time></trkpt><trkpt lat="43.955362" lon="10.8422208"><ele>523.0</ele><time>2026-04-26T08:06:09.073Z</time></trkpt><trkpt lat="43.9552654" lon="10.8422096"><ele>523.0</ele><time>2026-04-26T08:06:11.073Z</time></trkpt><trkpt lat="43.9551472" lon="10.8421765"><ele>523.0</ele><time>2026-04-26T08:06:13.074Z</time></trkpt><trkpt lat="43.9550922" lon="10.8421324"><ele>521.8</ele><time>2026-04-26T08:06:14.072Z</time></trkpt><trkpt lat="43.9550189" lon="10.8420658"><ele>520.5999999999999</ele><time>2026-04-26T08:06:16.072Z</time></trkpt><trkpt lat="43.9549608" lon="10.8419475"><ele>519.4000000000001</ele><time>2026-04-26T08:06:18.074Z</time></trkpt><trkpt lat="43.9549586" lon="10.8418356"><ele>518.2</ele><time>2026-04-26T08:06:19.074Z</time></trkpt><trkpt lat="43.9550457" lon="10.8417087"><ele>517.0</ele><time>2026-04-26T08:06:20.074Z</time></trkpt><trkpt lat="43.9550727" lon="10.8415931"><ele>521.0</ele><time>2026-04-26T08:06:21.072Z</time></trkpt><trkpt lat="43.9550766" lon="10.8414906"><ele>525.0</ele><time>2026-04-26T08:06:22.073Z</time></trkpt><trkpt lat="43.955092" lon="10.8414048"><ele>529.0</ele><time>2026-04-26T08:06:23.073Z</time></trkpt><trkpt lat="43.955103" lon="10.841307"><ele>533.0</ele><time>2026-04-26T08:06:24.074Z</time></trkpt><trkpt lat="43.9551838" lon="10.8412795"><ele>537.0</ele><time>2026-04-26T08:06:26.073Z</time></trkpt><trkpt lat="43.955278" lon="10.8412021"><ele>541.0</ele><time>2026-04-26T08:06:28.073Z</time></trkpt><trkpt lat="43.9553929" lon="10.8411095"><ele>541.0</ele><time>2026-04-26T08:06:30.074Z</time></trkpt><trkpt lat="43.9554886" lon="10.841114"><ele>541.0</ele><time>2026-04-26T08:06:32.073Z</time></trkpt><trkpt lat="43.955604" lon="10.8411501"><ele>541.0</ele><time>2026-04-26T08:06:34.073Z</time></trkpt><trkpt lat="43.9556784" lon="10.8412209"><ele>541.0</ele><time>2026-04-26T08:06:36.074Z</time></trkpt><trkpt lat="43.9557728" lon="10.8413283"><ele>541.0</ele><time>2026-04-26T08:06:38.073Z</time></trkpt><trkpt lat="43.9558479" lon="10.8413328"><ele>541.4</ele><time>2026-04-26T08:06:39.074Z</time></trkpt><trkpt lat="43.9559132" lon="10.8413269"><ele>541.8</ele><time>2026-04-26T08:06:40.073Z</time></trkpt><trkpt lat="43.9560576" lon="10.8413146"><ele>542.1999999999999</ele><time>2026-04-26T08:06:41.073Z</time></trkpt><trkpt lat="43.9561458" lon="10.8413089"><ele>542.6</ele><time>2026-04-26T08:06:42.073Z</time></trkpt><trkpt lat="43.9562638" lon="10.8413022"><ele>543.0</ele><time>2026-04-26T08:06:43.073Z</time></trkpt><trkpt lat="43.9563636" lon="10.8412862"><ele>543.0</ele><time>2026-04-26T08:06:44.073Z</time></trkpt><trkpt lat="43.9564358" lon="10.8412519"><ele>543.0</ele><time>2026-04-26T08:06:45.073Z</time></trkpt><trkpt lat="43.9565698" lon="10.8411733"><ele>543.0</ele><time>2026-04-26T08:06:47.073Z</time></trkpt><trkpt lat="43.9566449" lon="10.8411225"><ele>543.0</ele><time>2026-04-26T08:06:48.072Z</time></trkpt><trkpt lat="43.9567134" lon="10.841038"><ele>543.0</ele><time>2026-04-26T08:06:49.073Z</time></trkpt><trkpt lat="43.9567907" lon="10.840991"><ele>545.1666666666666</ele><time>2026-04-26T08:06:50.073Z</time></trkpt><trkpt lat="43.9568613" lon="10.8409343"><ele>547.3333333333334</ele><time>2026-04-26T08:06:51.073Z</time></trkpt><trkpt lat="43.9569108" lon="10.8408631"><ele>549.5</ele><time>2026-04-26T08:06:52.072Z</time></trkpt><trkpt lat="43.9569867" lon="10.8408006"><ele>551.6666666666667</ele><time>2026-04-26T08:06:53.072Z</time></trkpt><trkpt lat="43.9570698" lon="10.8407249"><ele>553.8333333333334</ele><time>2026-04-26T08:06:54.074Z</time></trkpt><trkpt lat="43.9571348" lon="10.8406526"><ele>556.0</ele><time>2026-04-26T08:06:55.073Z</time></trkpt><trkpt lat="43.9571987" lon="10.8405797"><ele>556.0</ele><time>2026-04-26T08:06:56.073Z</time></trkpt><trkpt lat="43.9572643" lon="10.84048"><ele>556.0</ele><time>2026-04-26T08:06:57.072Z</time></trkpt><trkpt lat="43.9573251" lon="10.8403896"><ele>556.0</ele><time>2026-04-26T08:06:58.073Z</time></trkpt><trkpt lat="43.9573907" lon="10.8403261"><ele>556.0</ele><time>2026-04-26T08:06:59.073Z</time></trkpt><trkpt lat="43.9574733" lon="10.8402154"><ele>556.0</ele><time>2026-04-26T08:07:01.074Z</time></trkpt><trkpt lat="43.9575425" lon="10.8401308"><ele>557.8</ele><time>2026-04-26T08:07:02.073Z</time></trkpt><trkpt lat="43.9576117" lon="10.8400581"><ele>559.6</ele><time>2026-04-26T08:07:03.073Z</time></trkpt><trkpt lat="43.9576762" lon="10.8399824"><ele>561.4</ele><time>2026-04-26T08:07:04.072Z</time></trkpt><trkpt lat="43.95774" lon="10.839889"><ele>563.2</ele><time>2026-04-26T08:07:05.073Z</time></trkpt><trkpt lat="43.957806" lon="10.8397824"><ele>565.0</ele><time>2026-04-26T08:07:06.074Z</time></trkpt><trkpt lat="43.9578667" lon="10.8396755"><ele>565.0</ele><time>2026-04-26T08:07:07.072Z</time></trkpt><trkpt lat="43.9579063" lon="10.8395877"><ele>565.0</ele><time>2026-04-26T08:07:08.072Z</time></trkpt><trkpt lat="43.957966" lon="10.8394959"><ele>565.0</ele><time>2026-04-26T08:07:09.074Z</time></trkpt><trkpt lat="43.9580354" lon="10.8394039"><ele>565.0</ele><time>2026-04-26T08:07:10.072Z</time></trkpt><trkpt lat="43.9581067" lon="10.8393245"><ele>565.0</ele><time>2026-04-26T08:07:11.074Z</time></trkpt><trkpt lat="43.9581871" lon="10.8392327"><ele>567.8</ele><time>2026-04-26T08:07:13.073Z</time></trkpt><trkpt lat="43.9582403" lon="10.8391704"><ele>570.6</ele><time>2026-04-26T08:07:14.074Z</time></trkpt><trkpt lat="43.9583216" lon="10.8390799"><ele>573.4</ele><time>2026-04-26T08:07:16.072Z</time></trkpt><trkpt lat="43.9583835" lon="10.8389804"><ele>576.2</ele><time>2026-04-26T08:07:18.073Z</time></trkpt><trkpt lat="43.9584687" lon="10.838889"><ele>579.0</ele><time>2026-04-26T08:07:20.073Z</time></trkpt><trkpt lat="43.9585441" lon="10.8387907"><ele>581.8</ele><time>2026-04-26T08:07:22.073Z</time></trkpt><trkpt lat="43.9586131" lon="10.8386927"><ele>584.5999999999999</ele><time>2026-04-26T08:07:24.073Z</time></trkpt><trkpt lat="43.9586671" lon="10.8386385"><ele>587.4</ele><time>2026-04-26T08:07:25.074Z</time></trkpt><trkpt lat="43.9587302" lon="10.8386276"><ele>590.1999999999999</ele><time>2026-04-26T08:07:26.073Z</time></trkpt><trkpt lat="43.9588453" lon="10.8385667"><ele>593.0</ele><time>2026-04-26T08:07:28.074Z</time></trkpt><trkpt lat="43.9589578" lon="10.8385007"><ele>593.0</ele><time>2026-04-26T08:07:30.074Z</time></trkpt><trkpt lat="43.9590202" lon="10.8384701"><ele>593.0</ele><time>2026-04-26T08:07:31.074Z</time></trkpt><trkpt lat="43.9590799" lon="10.8384231"><ele>593.0</ele><time>2026-04-26T08:07:32.073Z</time></trkpt><trkpt lat="43.9591371" lon="10.8383769"><ele>593.0</ele><time>2026-04-26T08:07:33.073Z</time></trkpt><trkpt lat="43.959291" lon="10.8383658"><ele>593.0</ele><time>2026-04-26T08:07:35.074Z</time></trkpt><trkpt lat="43.959367" lon="10.8383598"><ele>593.0</ele><time>2026-04-26T08:07:36.074Z</time></trkpt><trkpt lat="43.9594387" lon="10.838392"><ele>596.8</ele><time>2026-04-26T08:07:37.074Z</time></trkpt><trkpt lat="43.9595149" lon="10.8383563"><ele>600.5999999999999</ele><time>2026-04-26T08:07:38.073Z</time></trkpt><trkpt lat="43.9596325" lon="10.8383507"><ele>604.4000000000001</ele><time>2026-04-26T08:07:40.073Z</time></trkpt><trkpt lat="43.9597212" lon="10.8383243"><ele>608.2</ele><time>2026-04-26T08:07:41.074Z</time></trkpt><trkpt lat="43.9597867" lon="10.8383018"><ele>612.0</ele><time>2026-04-26T08:07:42.073Z</time></trkpt><trkpt lat="43.9598882" lon="10.8382003"><ele>612.0</ele><time>2026-04-26T08:07:44.073Z</time></trkpt><trkpt lat="43.9600095" lon="10.8380911"><ele>612.0</ele><time>2026-04-26T08:07:46.073Z</time></trkpt><trkpt lat="43.960084" lon="10.8380179"><ele>612.0</ele><time>2026-04-26T08:07:47.073Z</time></trkpt><trkpt lat="43.9601457" lon="10.8379504"><ele>612.0</ele><time>2026-04-26T08:07:48.073Z</time></trkpt><trkpt lat="43.9602146" lon="10.8378698"><ele>612.0</ele><time>2026-04-26T08:07:49.074Z</time></trkpt><trkpt lat="43.9602695" lon="10.8377908"><ele>612.6</ele><time>2026-04-26T08:07:50.073Z</time></trkpt><trkpt lat="43.9603201" lon="10.8377087"><ele>613.2</ele><time>2026-04-26T08:07:51.073Z</time></trkpt><trkpt lat="43.9603568" lon="10.8375766"><ele>613.8</ele><time>2026-04-26T08:07:53.074Z</time></trkpt><trkpt lat="43.9604635" lon="10.8374612"><ele>614.4</ele><time>2026-04-26T08:07:55.072Z</time></trkpt><trkpt lat="43.9605277" lon="10.8373327"><ele>615.0</ele><time>2026-04-26T08:07:57.073Z</time></trkpt><trkpt lat="43.9605206" lon="10.8371723"><ele>619.2</ele><time>2026-04-26T08:07:58.073Z</time></trkpt><trkpt lat="43.9605635" lon="10.8370579"><ele>623.4</ele><time>2026-04-26T08:08:01.073Z</time></trkpt><trkpt lat="43.9606713" lon="10.8370413"><ele>627.6</ele><time>2026-04-26T08:08:03.074Z</time></trkpt><trkpt lat="43.9607506" lon="10.8371244"><ele>631.8</ele><time>2026-04-26T08:08:05.074Z</time></trkpt><trkpt lat="43.9607952" lon="10.8372188"><ele>636.0</ele><time>2026-04-26T08:08:06.073Z</time></trkpt><trkpt lat="43.9608995" lon="10.8372891"><ele>637.1666666666666</ele><time>2026-04-26T08:08:08.072Z</time></trkpt><trkpt lat="43.9609729" lon="10.8372935"><ele>638.3333333333334</ele><time>2026-04-26T08:08:09.072Z</time></trkpt><trkpt lat="43.9610438" lon="10.8372898"><ele>639.5</ele><time>2026-04-26T08:08:10.074Z</time></trkpt><trkpt lat="43.9611228" lon="10.8372789"><ele>640.6666666666667</ele><time>2026-04-26T08:08:11.073Z</time></trkpt><trkpt lat="43.9611843" lon="10.8372404"><ele>641.8333333333334</ele><time>2026-04-26T08:08:12.072Z</time></trkpt><trkpt lat="43.9612602" lon="10.8371937"><ele>643.0</ele><time>2026-04-26T08:08:13.073Z</time></trkpt><trkpt lat="43.9613325" lon="10.8371579"><ele>643.0</ele><time>2026-04-26T08:08:14.073Z</time></trkpt><trkpt lat="43.9614367" lon="10.8370809"><ele>643.0</ele><time>2026-04-26T08:08:16.074Z</time></trkpt><trkpt lat="43.961545" lon="10.8370266"><ele>643.0</ele><time>2026-04-26T08:08:18.072Z</time></trkpt><trkpt lat="43.9616189" lon="10.8369686"><ele>643.0</ele><time>2026-04-26T08:08:19.072Z</time></trkpt><trkpt lat="43.9616794" lon="10.8369402"><ele>643.0</ele><time>2026-04-26T08:08:20.072Z</time></trkpt><trkpt lat="43.9617977" lon="10.8368741"><ele>644.75</ele><time>2026-04-26T08:08:22.074Z</time></trkpt><trkpt lat="43.9619441" lon="10.836903"><ele>646.5</ele><time>2026-04-26T08:08:24.074Z</time></trkpt><trkpt lat="43.9620915" lon="10.8369671"><ele>648.25</ele><time>2026-04-26T08:08:26.073Z</time></trkpt><trkpt lat="43.9621758" lon="10.8370036"><ele>650.0</ele><time>2026-04-26T08:08:27.074Z</time></trkpt><trkpt lat="43.9622618" lon="10.8370375"><ele>650.0</ele><time>2026-04-26T08:08:28.073Z</time></trkpt><trkpt lat="43.9623421" lon="10.8370721"><ele>650.0</ele><time>2026-04-26T08:08:29.072Z</time></trkpt><trkpt lat="43.9624376" lon="10.8371064"><ele>650.0</ele><time>2026-04-26T08:08:30.072Z</time></trkpt><trkpt lat="43.9625118" lon="10.8371407"><ele>650.0</ele><time>2026-04-26T08:08:31.074Z</time></trkpt><trkpt lat="43.9625866" lon="10.8371763"><ele>650.0</ele><time>2026-04-26T08:08:32.072Z</time></trkpt><trkpt lat="43.9627274" lon="10.8372619"><ele>650.6666666666666</ele><time>2026-04-26T08:08:35.072Z</time></trkpt><trkpt lat="43.9627806" lon="10.8373506"><ele>651.3333333333333</ele><time>2026-04-26T08:08:37.072Z</time></trkpt><trkpt lat="43.9628807" lon="10.8373916"><ele>652.0</ele><time>2026-04-26T08:11:54.073Z</time></trkpt><trkpt lat="43.9629145" lon="10.8374994"><ele>652.6666666666666</ele><time>2026-04-26T08:12:20.074Z</time></trkpt><trkpt lat="43.9629681" lon="10.8376042"><ele>653.3333333333334</ele><time>2026-04-26T08:12:22.074Z</time></trkpt><trkpt lat="43.9629995" lon="10.8376813"><ele>654.0</ele><time>2026-04-26T08:12:23.074Z</time></trkpt><trkpt lat="43.9630473" lon="10.837754"><ele>654.0</ele><time>2026-04-26T08:12:24.074Z</time></trkpt><trkpt lat="43.9631246" lon="10.8378141"><ele>654.0</ele><time>2026-04-26T08:12:25.073Z</time></trkpt><trkpt lat="43.963208" lon="10.8378624"><ele>654.0</ele><time>2026-04-26T08:12:26.074Z</time></trkpt><trkpt lat="43.9633045" lon="10.8379353"><ele>654.0</ele><time>2026-04-26T08:12:27.074Z</time></trkpt><trkpt lat="43.963398" lon="10.8379958"><ele>654.0</ele><time>2026-04-26T08:12:28.075Z</time></trkpt><trkpt lat="43.9634829" lon="10.8380693"><ele>657.1666666666666</ele><time>2026-04-26T08:12:29.074Z</time></trkpt><trkpt lat="43.9635774" lon="10.8381309"><ele>660.3333333333334</ele><time>2026-04-26T08:12:30.074Z</time></trkpt><trkpt lat="43.9636323" lon="10.8381811"><ele>663.5</ele><time>2026-04-26T08:12:31.074Z</time></trkpt><trkpt lat="43.9637074" lon="10.8382188"><ele>666.6666666666667</ele><time>2026-04-26T08:12:32.075Z</time></trkpt><trkpt lat="43.9637663" lon="10.8382779"><ele>669.8333333333334</ele><time>2026-04-26T08:12:33.075Z</time></trkpt><trkpt lat="43.963824" lon="10.8383138"><ele>673.0</ele><time>2026-04-26T08:12:34.074Z</time></trkpt><trkpt lat="43.963877" lon="10.838388"><ele>673.0</ele><time>2026-04-26T08:12:35.073Z</time></trkpt><trkpt lat="43.9639474" lon="10.8384572"><ele>673.0</ele><time>2026-04-26T08:12:37.074Z</time></trkpt><trkpt lat="43.964001" lon="10.8385131"><ele>673.0</ele><time>2026-04-26T08:12:45.074Z</time></trkpt><trkpt lat="43.9640797" lon="10.8384222"><ele>673.0</ele><time>2026-04-26T08:12:48.074Z</time></trkpt><trkpt lat="43.9641297" lon="10.8383265"><ele>673.0</ele><time>2026-04-26T08:12:49.074Z</time></trkpt><trkpt lat="43.9641845" lon="10.8382765"><ele>673.0</ele><time>2026-04-26T08:12:50.074Z</time></trkpt><trkpt lat="43.9642652" lon="10.8382398"><ele>675.0</ele><time>2026-04-26T08:12:52.074Z</time></trkpt><trkpt lat="43.9643331" lon="10.8382298"><ele>677.0</ele><time>2026-04-26T08:12:53.074Z</time></trkpt><trkpt lat="43.9643999" lon="10.8382371"><ele>679.0</ele><time>2026-04-26T08:12:54.074Z</time></trkpt><trkpt lat="43.9644636" lon="10.8382577"><ele>681.0</ele><time>2026-04-26T08:12:55.073Z</time></trkpt><trkpt lat="43.964544" lon="10.8383416"><ele>683.0</ele><time>2026-04-26T08:12:57.074Z</time></trkpt><trkpt lat="43.9646317" lon="10.8384196"><ele>685.0</ele><time>2026-04-26T08:12:59.073Z</time></trkpt><trkpt lat="43.9647442" lon="10.8384706"><ele>685.0</ele><time>2026-04-26T08:13:01.074Z</time></trkpt><trkpt lat="43.9648193" lon="10.8384999"><ele>685.0</ele><time>2026-04-26T08:13:02.074Z</time></trkpt><trkpt lat="43.9648821" lon="10.8385411"><ele>685.0</ele><time>2026-04-26T08:13:03.075Z</time></trkpt><trkpt lat="43.9649707" lon="10.8385535"><ele>685.0</ele><time>2026-04-26T08:13:04.073Z</time></trkpt><trkpt lat="43.9650356" lon="10.8385962"><ele>685.0</ele><time>2026-04-26T08:13:05.075Z</time></trkpt><trkpt lat="43.965111" lon="10.8385919"><ele>685.0</ele><time>2026-04-26T08:13:07.074Z</time></trkpt><trkpt lat="43.965224" lon="10.8385752"><ele>688.2</ele><time>2026-04-26T08:13:09.074Z</time></trkpt><trkpt lat="43.9652885" lon="10.838541"><ele>691.4</ele><time>2026-04-26T08:13:10.074Z</time></trkpt><trkpt lat="43.9654243" lon="10.838484"><ele>694.5999999999999</ele><time>2026-04-26T08:13:12.073Z</time></trkpt><trkpt lat="43.9655093" lon="10.8384831"><ele>697.8</ele><time>2026-04-26T08:13:13.075Z</time></trkpt><trkpt lat="43.9656072" lon="10.8385057"><ele>701.0</ele><time>2026-04-26T08:13:14.073Z</time></trkpt><trkpt lat="43.9656987" lon="10.8385408"><ele>701.0</ele><time>2026-04-26T08:13:15.074Z</time></trkpt><trkpt lat="43.9657771" lon="10.8385727"><ele>701.0</ele><time>2026-04-26T08:13:16.073Z</time></trkpt><trkpt lat="43.9658994" lon="10.8385688"><ele>701.0</ele><time>2026-04-26T08:13:18.074Z</time></trkpt><trkpt lat="43.9660128" lon="10.8385034"><ele>701.0</ele><time>2026-04-26T08:13:20.074Z</time></trkpt><trkpt lat="43.9661044" lon="10.8384333"><ele>701.0</ele><time>2026-04-26T08:13:22.073Z</time></trkpt><trkpt lat="43.9662295" lon="10.838381"><ele>704.4</ele><time>2026-04-26T08:13:24.075Z</time></trkpt><trkpt lat="43.9663177" lon="10.8383813"><ele>707.8</ele><time>2026-04-26T08:13:26.074Z</time></trkpt><trkpt lat="43.9664288" lon="10.8384036"><ele>711.1999999999999</ele><time>2026-04-26T08:13:28.073Z</time></trkpt><trkpt lat="43.9665059" lon="10.8384066"><ele>714.5999999999999</ele><time>2026-04-26T08:13:29.074Z</time></trkpt><trkpt lat="43.9666099" lon="10.8383771"><ele>718.0</ele><time>2026-04-26T08:13:31.074Z</time></trkpt><trkpt lat="43.9666886" lon="10.8382677"><ele>722.8</ele><time>2026-04-26T08:13:33.074Z</time></trkpt><trkpt lat="43.9667526" lon="10.8381699"><ele>727.5999999999999</ele><time>2026-04-26T08:13:35.074Z</time></trkpt><trkpt lat="43.9668255" lon="10.8381183"><ele>732.4000000000001</ele><time>2026-04-26T08:13:38.074Z</time></trkpt><trkpt lat="43.9669144" lon="10.838081"><ele>737.2</ele><time>2026-04-26T08:13:40.073Z</time></trkpt><trkpt lat="43.9670304" lon="10.8380398"><ele>742.0</ele><time>2026-04-26T08:13:42.073Z</time></trkpt><trkpt lat="43.9671374" lon="10.8380045"><ele>742.0</ele><time>2026-04-26T08:13:44.075Z</time></trkpt><trkpt lat="43.9672477" lon="10.8380137"><ele>742.0</ele><time>2026-04-26T08:13:46.074Z</time></trkpt><trkpt lat="43.9673078" lon="10.8381068"><ele>742.0</ele><time>2026-04-26T08:13:47.074Z</time></trkpt><trkpt lat="43.9673703" lon="10.8381552"><ele>742.0</ele><time>2026-04-26T08:13:48.074Z</time></trkpt><trkpt lat="43.9674565" lon="10.8382218"><ele>742.0</ele><time>2026-04-26T08:13:49.074Z</time></trkpt><trkpt lat="43.9675308" lon="10.8383368"><ele>743.0</ele><time>2026-04-26T08:13:50.074Z</time></trkpt><trkpt lat="43.9675971" lon="10.8383915"><ele>744.0</ele><time>2026-04-26T08:13:51.074Z</time></trkpt><trkpt lat="43.9676729" lon="10.8384407"><ele>745.0</ele><time>2026-04-26T08:13:52.074Z</time></trkpt><trkpt lat="43.9677376" lon="10.8384607"><ele>746.0</ele><time>2026-04-26T08:13:53.073Z</time></trkpt><trkpt lat="43.9678671" lon="10.8384981"><ele>747.0</ele><time>2026-04-26T08:13:55.075Z</time></trkpt><trkpt lat="43.9679372" lon="10.8385085"><ele>748.0</ele><time>2026-04-26T08:13:56.074Z</time></trkpt><trkpt lat="43.9680323" lon="10.8384874"><ele>748.0</ele><time>2026-04-26T08:13:59.073Z</time></trkpt><trkpt lat="43.968083" lon="10.8383655"><ele>748.0</ele><time>2026-04-26T08:14:01.073Z</time></trkpt><trkpt lat="43.9681433" lon="10.8382994"><ele>748.0</ele><time>2026-04-26T08:14:02.073Z</time></trkpt><trkpt lat="43.9682241" lon="10.8381622"><ele>748.0</ele><time>2026-04-26T08:14:04.074Z</time></trkpt><trkpt lat="43.9683302" lon="10.8380263"><ele>748.2</ele><time>2026-04-26T08:14:06.074Z</time></trkpt><trkpt lat="43.9683814" lon="10.8379409"><ele>748.4</ele><time>2026-04-26T08:14:07.074Z</time></trkpt><trkpt lat="43.9684362" lon="10.8378601"><ele>748.6</ele><time>2026-04-26T08:14:08.073Z</time></trkpt><trkpt lat="43.9684757" lon="10.8377551"><ele>748.8000000000001</ele><time>2026-04-26T08:14:09.074Z</time></trkpt><trkpt lat="43.968538" lon="10.8376427"><ele>749.0</ele><time>2026-04-26T08:14:10.075Z</time></trkpt><trkpt lat="43.9686048" lon="10.8375336"><ele>749.0</ele><time>2026-04-26T08:14:11.074Z</time></trkpt><trkpt lat="43.9686799" lon="10.8374223"><ele>749.0</ele><time>2026-04-26T08:14:12.074Z</time></trkpt><trkpt lat="43.9687361" lon="10.8373415"><ele>749.0</ele><time>2026-04-26T08:14:13.074Z</time></trkpt><trkpt lat="43.9687984" lon="10.837269"><ele>749.0</ele><time>2026-04-26T08:14:14.074Z</time></trkpt><trkpt lat="43.9688746" lon="10.8372068"><ele>749.0</ele><time>2026-04-26T08:14:15.074Z</time></trkpt><trkpt lat="43.9689499" lon="10.8371611"><ele>749.0</ele><time>2026-04-26T08:14:16.074Z</time></trkpt><trkpt lat="43.9690185" lon="10.8371096"><ele>749.0</ele><time>2026-04-26T08:14:17.074Z</time></trkpt><trkpt lat="43.9691174" lon="10.8370274"><ele>749.0</ele><time>2026-04-26T08:14:19.073Z</time></trkpt><trkpt lat="43.9691751" lon="10.8369632"><ele>749.0</ele><time>2026-04-26T08:14:20.075Z</time></trkpt><trkpt lat="43.9692353" lon="10.8368919"><ele>749.0</ele><time>2026-04-26T08:14:21.074Z</time></trkpt><trkpt lat="43.9692957" lon="10.8368152"><ele>749.0</ele><time>2026-04-26T08:14:22.074Z</time></trkpt><trkpt lat="43.9693536" lon="10.836735"><ele>749.0</ele><time>2026-04-26T08:14:23.075Z</time></trkpt><trkpt lat="43.9694071" lon="10.8366548"><ele>752.5</ele><time>2026-04-26T08:14:24.074Z</time></trkpt><trkpt lat="43.9694682" lon="10.8365957"><ele>756.0</ele><time>2026-04-26T08:14:25.074Z</time></trkpt><trkpt lat="43.9695247" lon="10.8365378"><ele>759.5</ele><time>2026-04-26T08:14:26.074Z</time></trkpt><trkpt lat="43.96958" lon="10.836481"><ele>763.0</ele><time>2026-04-26T08:14:27.075Z</time></trkpt><trkpt lat="43.9696418" lon="10.8364033"><ele>766.5000000000001</ele><time>2026-04-26T08:14:29.074Z</time></trkpt><trkpt lat="43.9697489" lon="10.8364189"><ele>770.0</ele><time>2026-04-26T08:14:31.073Z</time></trkpt><trkpt lat="43.969825" lon="10.8364568"><ele>770.0000000000001</ele><time>2026-04-26T08:14:32.075Z</time></trkpt><trkpt lat="43.9699111" lon="10.8365101"><ele>770.0</ele><time>2026-04-26T08:14:33.075Z</time></trkpt><trkpt lat="43.9700056" lon="10.8365401"><ele>770.0</ele><time>2026-04-26T08:14:34.075Z</time></trkpt><trkpt lat="43.9700816" lon="10.8365818"><ele>770.0</ele><time>2026-04-26T08:14:35.073Z</time></trkpt><trkpt lat="43.970163" lon="10.8366042"><ele>770.0000000000001</ele><time>2026-04-26T08:14:36.075Z</time></trkpt><trkpt lat="43.9702172" lon="10.8366611"><ele>770.0</ele><time>2026-04-26T08:14:37.075Z</time></trkpt><trkpt lat="43.9702817" lon="10.8367097"><ele>770.4</ele><time>2026-04-26T08:14:38.075Z</time></trkpt><trkpt lat="43.9703919" lon="10.8367489"><ele>770.8</ele><time>2026-04-26T08:14:40.074Z</time></trkpt><trkpt lat="43.9705129" lon="10.8367399"><ele>771.2</ele><time>2026-04-26T08:14:42.074Z</time></trkpt><trkpt lat="43.970579" lon="10.8367412"><ele>771.6</ele><time>2026-04-26T08:14:43.074Z</time></trkpt><trkpt lat="43.9706605" lon="10.8367298"><ele>772.0</ele><time>2026-04-26T08:14:44.075Z</time></trkpt><trkpt lat="43.9707558" lon="10.8367222"><ele>772.0</ele><time>2026-04-26T08:14:45.075Z</time></trkpt><trkpt lat="43.9708497" lon="10.8367029"><ele>772.0</ele><time>2026-04-26T08:14:46.074Z</time></trkpt><trkpt lat="43.9709336" lon="10.8366697"><ele>772.0</ele><time>2026-04-26T08:14:47.075Z</time></trkpt><trkpt lat="43.9710146" lon="10.8366175"><ele>772.0</ele><time>2026-04-26T08:14:48.074Z</time></trkpt><trkpt lat="43.9711147" lon="10.8365623"><ele>772.0</ele><time>2026-04-26T08:14:49.075Z</time></trkpt><trkpt lat="43.9711986" lon="10.8365102"><ele>768.6</ele><time>2026-04-26T08:14:50.075Z</time></trkpt><trkpt lat="43.9712733" lon="10.8364503"><ele>765.2</ele><time>2026-04-26T08:14:51.074Z</time></trkpt><trkpt lat="43.9713884" lon="10.8363656"><ele>761.8</ele><time>2026-04-26T08:14:53.074Z</time></trkpt><trkpt lat="43.9714451" lon="10.8363104"><ele>758.4</ele><time>2026-04-26T08:14:54.075Z</time></trkpt><trkpt lat="43.9715316" lon="10.836251"><ele>755.0</ele><time>2026-04-26T08:14:55.074Z</time></trkpt><trkpt lat="43.9715829" lon="10.8361719"><ele>755.0</ele><time>2026-04-26T08:14:56.073Z</time></trkpt><trkpt lat="43.9716478" lon="10.8360899"><ele>755.0</ele><time>2026-04-26T08:14:57.074Z</time></trkpt><trkpt lat="43.971723" lon="10.8360232"><ele>755.0</ele><time>2026-04-26T08:14:58.074Z</time></trkpt><trkpt lat="43.9718087" lon="10.8359824"><ele>755.0</ele><time>2026-04-26T08:14:59.075Z</time></trkpt><trkpt lat="43.9719132" lon="10.835946"><ele>755.0</ele><time>2026-04-26T08:15:00.074Z</time></trkpt><trkpt lat="43.9719954" lon="10.8358985"><ele>754.3333333333333</ele><time>2026-04-26T08:15:01.073Z</time></trkpt><trkpt lat="43.9720854" lon="10.8358654"><ele>753.6666666666666</ele><time>2026-04-26T08:15:03.074Z</time></trkpt><trkpt lat="43.9721511" lon="10.8358554"><ele>753.0</ele><time>2026-04-26T08:15:04.073Z</time></trkpt><trkpt lat="43.972252" lon="10.8358831"><ele>752.3333333333334</ele><time>2026-04-26T08:15:06.074Z</time></trkpt><trkpt lat="43.9723467" lon="10.8358816"><ele>751.6666666666667</ele><time>2026-04-26T08:15:08.075Z</time></trkpt><trkpt lat="43.9724089" lon="10.8358602"><ele>751.0</ele><time>2026-04-26T08:15:10.074Z</time></trkpt><trkpt lat="43.9724835" lon="10.8358613"><ele>748.4</ele><time>2026-04-26T08:15:12.074Z</time></trkpt><trkpt lat="43.9725754" lon="10.8357581"><ele>745.8</ele><time>2026-04-26T08:15:14.074Z</time></trkpt><trkpt lat="43.9726398" lon="10.8356327"><ele>743.1999999999999</ele><time>2026-04-26T08:15:16.073Z</time></trkpt><trkpt lat="43.9726701" lon="10.8355145"><ele>740.5999999999999</ele><time>2026-04-26T08:15:17.074Z</time></trkpt><trkpt lat="43.9726829" lon="10.8354179"><ele>738.0</ele><time>2026-04-26T08:15:18.074Z</time></trkpt><trkpt lat="43.9726873" lon="10.8352974"><ele>740.3333333333334</ele><time>2026-04-26T08:15:19.074Z</time></trkpt><trkpt lat="43.9727307" lon="10.8351242"><ele>742.6666666666667</ele><time>2026-04-26T08:15:20.075Z</time></trkpt><trkpt lat="43.9728391" lon="10.8348513"><ele>745.0</ele><time>2026-04-26T08:15:22.073Z</time></trkpt><trkpt lat="43.9728976" lon="10.8347454"><ele>745.0</ele><time>2026-04-26T08:15:23.074Z</time></trkpt><trkpt lat="43.9729355" lon="10.8346602"><ele>745.0</ele><time>2026-04-26T08:15:24.074Z</time></trkpt><trkpt lat="43.9729629" lon="10.8345678"><ele>745.0</ele><time>2026-04-26T08:15:25.075Z</time></trkpt><trkpt lat="43.9729941" lon="10.8344834"><ele>745.0</ele><time>2026-04-26T08:15:26.074Z</time></trkpt><trkpt lat="43.9730302" lon="10.8343991"><ele>745.0</ele><time>2026-04-26T08:15:27.075Z</time></trkpt><trkpt lat="43.9730883" lon="10.8342821"><ele>745.0</ele><time>2026-04-26T08:15:29.074Z</time></trkpt><trkpt lat="43.973118" lon="10.8341881"><ele>745.5</ele><time>2026-04-26T08:15:31.074Z</time></trkpt><trkpt lat="43.9731737" lon="10.8341096"><ele>746.0</ele><time>2026-04-26T08:15:42.073Z</time></trkpt><trkpt lat="43.9732469" lon="10.8340148"><ele>746.5</ele><time>2026-04-26T08:15:44.074Z</time></trkpt><trkpt lat="43.973304" lon="10.8339518"><ele>747.0</ele><time>2026-04-26T08:15:45.074Z</time></trkpt><trkpt lat="43.9733679" lon="10.8338936"><ele>747.5</ele><time>2026-04-26T08:15:46.074Z</time></trkpt><trkpt lat="43.9734389" lon="10.8338397"><ele>748.0</ele><time>2026-04-26T08:15:47.074Z</time></trkpt><trkpt lat="43.973509" lon="10.8337764"><ele>748.0</ele><time>2026-04-26T08:15:48.074Z</time></trkpt><trkpt lat="43.9735851" lon="10.8337107"><ele>748.0</ele><time>2026-04-26T08:15:49.074Z</time></trkpt><trkpt lat="43.9736623" lon="10.8336518"><ele>748.0</ele><time>2026-04-26T08:15:50.074Z</time></trkpt><trkpt lat="43.9737244" lon="10.8336009"><ele>748.0</ele><time>2026-04-26T08:15:51.074Z</time></trkpt><trkpt lat="43.9738045" lon="10.8335368"><ele>748.0</ele><time>2026-04-26T08:15:52.074Z</time></trkpt><trkpt lat="43.9738861" lon="10.8334691"><ele>748.0</ele><time>2026-04-26T08:15:53.074Z</time></trkpt><trkpt lat="43.9739806" lon="10.8334077"><ele>749.5</ele><time>2026-04-26T08:15:54.075Z</time></trkpt><trkpt lat="43.9740825" lon="10.833339"><ele>751.0</ele><time>2026-04-26T08:15:55.075Z</time></trkpt><trkpt lat="43.9741807" lon="10.8332596"><ele>752.5</ele><time>2026-04-26T08:15:56.073Z</time></trkpt><trkpt lat="43.9742828" lon="10.8331664"><ele>754.0</ele><time>2026-04-26T08:15:57.074Z</time></trkpt><trkpt lat="43.9743873" lon="10.8330652"><ele>754.0</ele><time>2026-04-26T08:15:58.074Z</time></trkpt><trkpt lat="43.9745003" lon="10.8329534"><ele>754.0</ele><time>2026-04-26T08:15:59.074Z</time></trkpt><trkpt lat="43.9746203" lon="10.8328356"><ele>754.0</ele><time>2026-04-26T08:16:00.074Z</time></trkpt><trkpt lat="43.9747365" lon="10.8327128"><ele>754.0</ele><time>2026-04-26T08:16:01.073Z</time></trkpt><trkpt lat="43.9748851" lon="10.8325644"><ele>757.3333333333334</ele><time>2026-04-26T08:16:02.075Z</time></trkpt><trkpt lat="43.9750506" lon="10.8323933"><ele>760.6666666666666</ele><time>2026-04-26T08:16:03.075Z</time></trkpt><trkpt lat="43.9752153" lon="10.83224"><ele>764.0</ele><time>2026-04-26T08:16:04.074Z</time></trkpt><trkpt lat="43.975372" lon="10.8320763"><ele>764.0</ele><time>2026-04-26T08:16:05.074Z</time></trkpt><trkpt lat="43.9755157" lon="10.8319074"><ele>764.0</ele><time>2026-04-26T08:16:06.074Z</time></trkpt><trkpt lat="43.9756416" lon="10.8317579"><ele>764.0</ele><time>2026-04-26T08:16:07.075Z</time></trkpt><trkpt lat="43.9757598" lon="10.8316209"><ele>766.0</ele><time>2026-04-26T08:16:08.073Z</time></trkpt><trkpt lat="43.9758642" lon="10.8314944"><ele>768.0</ele><time>2026-04-26T08:16:09.075Z</time></trkpt><trkpt lat="43.9759603" lon="10.8313637"><ele>770.0</ele><time>2026-04-26T08:16:10.074Z</time></trkpt><trkpt lat="43.9760488" lon="10.8312438"><ele>772.0</ele><time>2026-04-26T08:16:11.075Z</time></trkpt><trkpt lat="43.9761316" lon="10.8311051"><ele>773.25</ele><time>2026-04-26T08:16:12.074Z</time></trkpt><trkpt lat="43.9762113" lon="10.8309561"><ele>774.5</ele><time>2026-04-26T08:16:13.075Z</time></trkpt><trkpt lat="43.9762923" lon="10.8308022"><ele>775.75</ele><time>2026-04-26T08:16:14.075Z</time></trkpt><trkpt lat="43.9763853" lon="10.8306636"><ele>777.0</ele><time>2026-04-26T08:16:15.073Z</time></trkpt><trkpt lat="43.9765065" lon="10.8305167"><ele>777.0</ele><time>2026-04-26T08:16:16.074Z</time></trkpt><trkpt lat="43.9766309" lon="10.8303686"><ele>777.0</ele><time>2026-04-26T08:16:17.074Z</time></trkpt><trkpt lat="43.9767344" lon="10.8302224"><ele>777.0</ele><time>2026-04-26T08:16:18.074Z</time></trkpt><trkpt lat="43.9768546" lon="10.8300637"><ele>773.0</ele><time>2026-04-26T08:16:19.075Z</time></trkpt><trkpt lat="43.9769771" lon="10.8299057"><ele>769.0</ele><time>2026-04-26T08:16:20.073Z</time></trkpt><trkpt lat="43.9770907" lon="10.8297559"><ele>765.0</ele><time>2026-04-26T08:16:21.075Z</time></trkpt><trkpt lat="43.9772096" lon="10.8296114"><ele>765.0</ele><time>2026-04-26T08:16:22.074Z</time></trkpt><trkpt lat="43.9773242" lon="10.8294761"><ele>765.0</ele><time>2026-04-26T08:16:23.074Z</time></trkpt><trkpt lat="43.9774371" lon="10.8293422"><ele>765.0</ele><time>2026-04-26T08:16:24.075Z</time></trkpt><trkpt lat="43.9776735" lon="10.8290654"><ele>763.0</ele><time>2026-04-26T08:16:26.074Z</time></trkpt><trkpt lat="43.9777884" lon="10.8289359"><ele>761.0</ele><time>2026-04-26T08:16:27.074Z</time></trkpt><trkpt lat="43.9778877" lon="10.8288043"><ele>759.0</ele><time>2026-04-26T08:16:28.074Z</time></trkpt><trkpt lat="43.9779785" lon="10.8286783"><ele>757.0</ele><time>2026-04-26T08:16:29.073Z</time></trkpt><trkpt lat="43.9780729" lon="10.8285445"><ele>757.0</ele><time>2026-04-26T08:16:30.074Z</time></trkpt><trkpt lat="43.9781651" lon="10.8284176"><ele>757.0</ele><time>2026-04-26T08:16:31.073Z</time></trkpt><trkpt lat="43.9782849" lon="10.8282967"><ele>757.0</ele><time>2026-04-26T08:16:32.075Z</time></trkpt><trkpt lat="43.9783879" lon="10.8281681"><ele>757.0</ele><time>2026-04-26T08:16:33.074Z</time></trkpt><trkpt lat="43.9784896" lon="10.8280502"><ele>757.0</ele><time>2026-04-26T08:16:34.074Z</time></trkpt><trkpt lat="43.9785774" lon="10.8279462"><ele>757.0</ele><time>2026-04-26T08:16:35.075Z</time></trkpt><trkpt lat="43.97868" lon="10.827834"><ele>757.0</ele><time>2026-04-26T08:16:36.075Z</time></trkpt><trkpt lat="43.9787888" lon="10.8277093"><ele>757.0</ele><time>2026-04-26T08:16:37.074Z</time></trkpt><trkpt lat="43.9788911" lon="10.8275835"><ele>759.0</ele><time>2026-04-26T08:16:38.073Z</time></trkpt><trkpt lat="43.9790004" lon="10.8274672"><ele>761.0</ele><time>2026-04-26T08:16:39.074Z</time></trkpt><trkpt lat="43.9791002" lon="10.8273666"><ele>763.0</ele><time>2026-04-26T08:16:40.074Z</time></trkpt><trkpt lat="43.9791852" lon="10.8272881"><ele>765.0</ele><time>2026-04-26T08:16:41.073Z</time></trkpt><trkpt lat="43.9792641" lon="10.8271961"><ele>765.0</ele><time>2026-04-26T08:16:42.074Z</time></trkpt><trkpt lat="43.9793237" lon="10.8271495"><ele>765.0</ele><time>2026-04-26T08:16:43.074Z</time></trkpt><trkpt lat="43.9793823" lon="10.8270875"><ele>765.0</ele><time>2026-04-26T08:16:44.073Z</time></trkpt><trkpt lat="43.9794392" lon="10.827036"><ele>765.0</ele><time>2026-04-26T08:16:45.075Z</time></trkpt><trkpt lat="43.9795422" lon="10.8269729"><ele>765.0</ele><time>2026-04-26T08:16:47.073Z</time></trkpt><trkpt lat="43.9796608" lon="10.8269557"><ele>765.0</ele><time>2026-04-26T08:16:49.075Z</time></trkpt><trkpt lat="43.9797213" lon="10.8269097"><ele>765.0</ele><time>2026-04-26T08:16:50.074Z</time></trkpt><trkpt lat="43.9797956" lon="10.8268981"><ele>765.0</ele><time>2026-04-26T08:16:51.074Z</time></trkpt><trkpt lat="43.9799012" lon="10.8267906"><ele>765.0</ele><time>2026-04-26T08:16:53.075Z</time></trkpt><trkpt lat="43.980001" lon="10.8267139"><ele>765.0</ele><time>2026-04-26T08:16:54.075Z</time></trkpt><trkpt lat="43.9800737" lon="10.8266546"><ele>765.0</ele><time>2026-04-26T08:16:55.074Z</time></trkpt><trkpt lat="43.9801499" lon="10.8265741"><ele>767.8333333333334</ele><time>2026-04-26T08:16:56.075Z</time></trkpt><trkpt lat="43.9802228" lon="10.8264982"><ele>770.6666666666667</ele><time>2026-04-26T08:16:57.074Z</time></trkpt><trkpt lat="43.9802869" lon="10.8264334"><ele>773.5</ele><time>2026-04-26T08:16:58.075Z</time></trkpt><trkpt lat="43.9803627" lon="10.8263679"><ele>776.3333333333334</ele><time>2026-04-26T08:16:59.074Z</time></trkpt><trkpt lat="43.9804278" lon="10.826301"><ele>779.1666666666667</ele><time>2026-04-26T08:17:00.074Z</time></trkpt><trkpt lat="43.9805119" lon="10.8262227"><ele>782.0</ele><time>2026-04-26T08:17:01.074Z</time></trkpt><trkpt lat="43.9805751" lon="10.8261378"><ele>782.0</ele><time>2026-04-26T08:17:02.074Z</time></trkpt><trkpt lat="43.9806596" lon="10.8260622"><ele>782.0</ele><time>2026-04-26T08:17:03.074Z</time></trkpt><trkpt lat="43.980742" lon="10.8259824"><ele>782.0</ele><time>2026-04-26T08:17:04.074Z</time></trkpt><trkpt lat="43.9808246" lon="10.8259186"><ele>782.0</ele><time>2026-04-26T08:17:05.075Z</time></trkpt><trkpt lat="43.9809091" lon="10.8258465"><ele>782.0</ele><time>2026-04-26T08:17:06.074Z</time></trkpt><trkpt lat="43.9809958" lon="10.825803"><ele>785.0</ele><time>2026-04-26T08:17:07.074Z</time></trkpt><trkpt lat="43.981087" lon="10.8257527"><ele>788.0</ele><time>2026-04-26T08:17:08.074Z</time></trkpt><trkpt lat="43.9811744" lon="10.8256953"><ele>791.0</ele><time>2026-04-26T08:17:09.074Z</time></trkpt><trkpt lat="43.9812115" lon="10.8256025"><ele>794.0</ele><time>2026-04-26T08:17:10.074Z</time></trkpt><trkpt lat="43.9812888" lon="10.825518"><ele>797.0</ele><time>2026-04-26T08:17:11.074Z</time></trkpt><trkpt lat="43.9813604" lon="10.825431"><ele>797.0</ele><time>2026-04-26T08:17:12.075Z</time></trkpt><trkpt lat="43.9814456" lon="10.8253467"><ele>797.0</ele><time>2026-04-26T08:17:13.075Z</time></trkpt><trkpt lat="43.9815352" lon="10.8252726"><ele>797.0</ele><time>2026-04-26T08:17:14.074Z</time></trkpt><trkpt lat="43.9816256" lon="10.825191"><ele>797.0</ele><time>2026-04-26T08:17:15.074Z</time></trkpt><trkpt lat="43.9817147" lon="10.8250987"><ele>797.0</ele><time>2026-04-26T08:17:16.074Z</time></trkpt><trkpt lat="43.9818066" lon="10.8250037"><ele>800.5</ele><time>2026-04-26T08:17:17.075Z</time></trkpt><trkpt lat="43.9819223" lon="10.8249245"><ele>804.0</ele><time>2026-04-26T08:17:18.073Z</time></trkpt><trkpt lat="43.9820382" lon="10.8248463"><ele>807.5</ele><time>2026-04-26T08:17:19.075Z</time></trkpt><trkpt lat="43.9821462" lon="10.8247418"><ele>811.0</ele><time>2026-04-26T08:17:20.073Z</time></trkpt><trkpt lat="43.9822174" lon="10.824678"><ele>811.0</ele><time>2026-04-26T08:17:21.074Z</time></trkpt><trkpt lat="43.9823027" lon="10.824627"><ele>811.0</ele><time>2026-04-26T08:17:22.074Z</time></trkpt><trkpt lat="43.9823903" lon="10.8245718"><ele>811.0</ele><time>2026-04-26T08:17:23.075Z</time></trkpt><trkpt lat="43.9825658" lon="10.8244393"><ele>811.0</ele><time>2026-04-26T08:17:25.074Z</time></trkpt><trkpt lat="43.9826459" lon="10.8243741"><ele>813.8</ele><time>2026-04-26T08:17:26.075Z</time></trkpt><trkpt lat="43.982736" lon="10.8242792"><ele>816.5999999999999</ele><time>2026-04-26T08:17:27.074Z</time></trkpt><trkpt lat="43.9827894" lon="10.8241828"><ele>819.4</ele><time>2026-04-26T08:17:28.073Z</time></trkpt><trkpt lat="43.9828419" lon="10.8240895"><ele>822.2</ele><time>2026-04-26T08:17:29.074Z</time></trkpt><trkpt lat="43.9829176" lon="10.8239663"><ele>825.0</ele><time>2026-04-26T08:17:31.073Z</time></trkpt><trkpt lat="43.9829509" lon="10.8238914"><ele>825.0</ele><time>2026-04-26T08:17:33.074Z</time></trkpt><trkpt lat="43.9830026" lon="10.8238215"><ele>825.0</ele><time>2026-04-26T08:17:48.074Z</time></trkpt><trkpt lat="43.9830754" lon="10.823701"><ele>825.0</ele><time>2026-04-26T08:17:50.074Z</time></trkpt><trkpt lat="43.9831435" lon="10.823536"><ele>825.0</ele><time>2026-04-26T08:17:52.074Z</time></trkpt><trkpt lat="43.9831724" lon="10.8234207"><ele>825.0</ele><time>2026-04-26T08:17:53.075Z</time></trkpt><trkpt lat="43.9832059" lon="10.8233034"><ele>825.4</ele><time>2026-04-26T08:17:54.074Z</time></trkpt><trkpt lat="43.9832559" lon="10.8231993"><ele>825.8</ele><time>2026-04-26T08:17:55.073Z</time></trkpt><trkpt lat="43.9833132" lon="10.8230891"><ele>826.2</ele><time>2026-04-26T08:17:56.073Z</time></trkpt><trkpt lat="43.9833678" lon="10.822973"><ele>826.6</ele><time>2026-04-26T08:17:57.074Z</time></trkpt><trkpt lat="43.9834401" lon="10.8228632"><ele>827.0</ele><time>2026-04-26T08:17:58.073Z</time></trkpt><trkpt lat="43.9834967" lon="10.8227504"><ele>833.0</ele><time>2026-04-26T08:17:59.074Z</time></trkpt><trkpt lat="43.9835651" lon="10.8226487"><ele>839.0</ele><time>2026-04-26T08:18:00.075Z</time></trkpt><trkpt lat="43.9836814" lon="10.8224198"><ele>845.0</ele><time>2026-04-26T08:18:02.074Z</time></trkpt><trkpt lat="43.9837131" lon="10.8223232"><ele>851.0</ele><time>2026-04-26T08:18:03.073Z</time></trkpt><trkpt lat="43.9837574" lon="10.822228"><ele>851.0</ele><time>2026-04-26T08:18:04.074Z</time></trkpt><trkpt lat="43.9838066" lon="10.822135"><ele>851.0</ele><time>2026-04-26T08:18:05.074Z</time></trkpt><trkpt lat="43.9838986" lon="10.8220416"><ele>851.0</ele><time>2026-04-26T08:18:06.074Z</time></trkpt><trkpt lat="43.9839711" lon="10.8219391"><ele>851.0</ele><time>2026-04-26T08:18:07.075Z</time></trkpt><trkpt lat="43.9840667" lon="10.8218284"><ele>851.0</ele><time>2026-04-26T08:18:08.074Z</time></trkpt><trkpt lat="43.9841442" lon="10.8217211"><ele>854.1999999999999</ele><time>2026-04-26T08:18:09.074Z</time></trkpt><trkpt lat="43.9842106" lon="10.8216095"><ele>857.4</ele><time>2026-04-26T08:18:10.074Z</time></trkpt><trkpt lat="43.9842946" lon="10.8215209"><ele>860.6</ele><time>2026-04-26T08:18:11.074Z</time></trkpt><trkpt lat="43.984353" lon="10.8214433"><ele>863.8</ele><time>2026-04-26T08:18:12.074Z</time></trkpt><trkpt lat="43.9844253" lon="10.8213832"><ele>867.0</ele><time>2026-04-26T08:18:13.074Z</time></trkpt><trkpt lat="43.9844923" lon="10.8212872"><ele>867.0</ele><time>2026-04-26T08:18:14.074Z</time></trkpt><trkpt lat="43.9845774" lon="10.8212412"><ele>867.0</ele><time>2026-04-26T08:18:15.074Z</time></trkpt><trkpt lat="43.9846338" lon="10.821155"><ele>867.0</ele><time>2026-04-26T08:18:16.074Z</time></trkpt><trkpt lat="43.9846895" lon="10.8210854"><ele>867.0</ele><time>2026-04-26T08:18:17.074Z</time></trkpt><trkpt lat="43.9848167" lon="10.8210087"><ele>867.0</ele><time>2026-04-26T08:18:19.074Z</time></trkpt><trkpt lat="43.9849226" lon="10.8210108"><ele>869.8333333333334</ele><time>2026-04-26T08:18:20.073Z</time></trkpt><trkpt lat="43.9850355" lon="10.8210358"><ele>872.6666666666667</ele><time>2026-04-26T08:18:21.073Z</time></trkpt><trkpt lat="43.9851384" lon="10.8210484"><ele>875.5</ele><time>2026-04-26T08:18:22.074Z</time></trkpt><trkpt lat="43.9852182" lon="10.8210815"><ele>878.3333333333334</ele><time>2026-04-26T08:18:23.075Z</time></trkpt><trkpt lat="43.9852904" lon="10.8210842"><ele>881.1666666666667</ele><time>2026-04-26T08:18:24.074Z</time></trkpt><trkpt lat="43.985366" lon="10.8210947"><ele>884.0</ele><time>2026-04-26T08:18:25.075Z</time></trkpt><trkpt lat="43.9854253" lon="10.8210647"><ele>881.6</ele><time>2026-04-26T08:18:26.073Z</time></trkpt><trkpt lat="43.9854861" lon="10.8209459"><ele>879.2</ele><time>2026-04-26T08:18:28.075Z</time></trkpt><trkpt lat="43.9855029" lon="10.8208561"><ele>876.8000000000001</ele><time>2026-04-26T08:18:29.074Z</time></trkpt><trkpt lat="43.985491" lon="10.820719"><ele>874.4000000000001</ele><time>2026-04-26T08:18:30.075Z</time></trkpt><trkpt lat="43.9855037" lon="10.8205948"><ele>872.0</ele><time>2026-04-26T08:18:31.075Z</time></trkpt><trkpt lat="43.9855451" lon="10.8204772"><ele>872.0</ele><time>2026-04-26T08:18:32.075Z</time></trkpt><trkpt lat="43.9855949" lon="10.8203396"><ele>872.0</ele><time>2026-04-26T08:18:33.074Z</time></trkpt><trkpt lat="43.9856638" lon="10.8202874"><ele>872.0</ele><time>2026-04-26T08:18:34.075Z</time></trkpt><trkpt lat="43.9857478" lon="10.8202469"><ele>872.0</ele><time>2026-04-26T08:18:35.075Z</time></trkpt><trkpt lat="43.9858656" lon="10.8201779"><ele>872.0</ele><time>2026-04-26T08:18:37.074Z</time></trkpt><trkpt lat="43.9858679" lon="10.8199745"><ele>875.8333333333334</ele><time>2026-04-26T08:18:39.074Z</time></trkpt><trkpt lat="43.9858884" lon="10.81987"><ele>879.6666666666667</ele><time>2026-04-26T08:18:40.074Z</time></trkpt><trkpt lat="43.9859211" lon="10.8197855"><ele>883.5</ele><time>2026-04-26T08:18:41.075Z</time></trkpt><trkpt lat="43.9859702" lon="10.8196127"><ele>887.3333333333333</ele><time>2026-04-26T08:18:43.073Z</time></trkpt><trkpt lat="43.9860347" lon="10.8195929"><ele>891.1666666666666</ele><time>2026-04-26T08:18:44.074Z</time></trkpt><trkpt lat="43.98609" lon="10.819499"><ele>895.0</ele><time>2026-04-26T08:18:45.073Z</time></trkpt><trkpt lat="43.9861753" lon="10.8194567"><ele>895.0</ele><time>2026-04-26T08:18:46.075Z</time></trkpt><trkpt lat="43.9862415" lon="10.819391"><ele>895.0</ele><time>2026-04-26T08:18:47.074Z</time></trkpt><trkpt lat="43.986314" lon="10.8193247"><ele>895.0</ele><time>2026-04-26T08:18:49.075Z</time></trkpt><trkpt lat="43.9863806" lon="10.8194014"><ele>895.0</ele><time>2026-04-26T08:18:52.073Z</time></trkpt><trkpt lat="43.9863867" lon="10.8195187"><ele>895.0</ele><time>2026-04-26T08:18:54.074Z</time></trkpt><trkpt lat="43.9863566" lon="10.8196881"><ele>894.9999999999999</ele><time>2026-04-26T08:18:56.074Z</time></trkpt><trkpt lat="43.9863099" lon="10.8197726"><ele>895.0</ele><time>2026-04-26T08:18:57.074Z</time></trkpt><trkpt lat="43.9862699" lon="10.8198708"><ele>895.0</ele><time>2026-04-26T08:18:58.074Z</time></trkpt><trkpt lat="43.9862982" lon="10.8200073"><ele>895.0</ele><time>2026-04-26T08:19:00.075Z</time></trkpt><trkpt lat="43.9863651" lon="10.8201"><ele>894.9999999999999</ele><time>2026-04-26T08:19:01.074Z</time></trkpt><trkpt lat="43.9864351" lon="10.8201636"><ele>895.0</ele><time>2026-04-26T08:19:02.074Z</time></trkpt><trkpt lat="43.9864834" lon="10.8202644"><ele>895.1666666666666</ele><time>2026-04-26T08:19:03.073Z</time></trkpt><trkpt lat="43.9865066" lon="10.8203711"><ele>895.3333333333333</ele><time>2026-04-26T08:19:04.074Z</time></trkpt><trkpt lat="43.9865416" lon="10.8204589"><ele>895.5</ele><time>2026-04-26T08:19:05.074Z</time></trkpt><trkpt lat="43.9865781" lon="10.8205618"><ele>895.6666666666667</ele><time>2026-04-26T08:19:06.074Z</time></trkpt><trkpt lat="43.9865984" lon="10.8206692"><ele>895.8333333333334</ele><time>2026-04-26T08:19:07.074Z</time></trkpt><trkpt lat="43.986607" lon="10.8207647"><ele>896.0</ele><time>2026-04-26T08:19:08.075Z</time></trkpt><trkpt lat="43.9866406" lon="10.82094"><ele>900.0</ele><time>2026-04-26T08:19:10.073Z</time></trkpt><trkpt lat="43.9867359" lon="10.8210724"><ele>903.9999999999999</ele><time>2026-04-26T08:19:12.074Z</time></trkpt><trkpt lat="43.9868096" lon="10.8211143"><ele>907.9999999999999</ele><time>2026-04-26T08:19:13.074Z</time></trkpt><trkpt lat="43.9868746" lon="10.8211846"><ele>912.0</ele><time>2026-04-26T08:19:15.073Z</time></trkpt><trkpt lat="43.9869528" lon="10.8212436"><ele>916.0</ele><time>2026-04-26T08:19:17.074Z</time></trkpt><trkpt lat="43.9870465" lon="10.8213417"><ele>916.0</ele><time>2026-04-26T08:19:19.074Z</time></trkpt><trkpt lat="43.9870707" lon="10.8215055"><ele>915.9999999999999</ele><time>2026-04-26T08:19:20.074Z</time></trkpt><trkpt lat="43.9870714" lon="10.8216157"><ele>915.9999999999999</ele><time>2026-04-26T08:19:21.074Z</time></trkpt><trkpt lat="43.9870603" lon="10.82176"><ele>916.0</ele><time>2026-04-26T08:19:23.075Z</time></trkpt><trkpt lat="43.986988" lon="10.8218975"><ele>916.0</ele><time>2026-04-26T08:19:25.074Z</time></trkpt><trkpt lat="43.9868857" lon="10.8219547"><ele>916.1999999999999</ele><time>2026-04-26T08:19:27.074Z</time></trkpt><trkpt lat="43.9868157" lon="10.8220737"><ele>916.3999999999999</ele><time>2026-04-26T08:19:29.075Z</time></trkpt><trkpt lat="43.9868739" lon="10.8221285"><ele>916.6</ele><time>2026-04-26T08:19:31.075Z</time></trkpt><trkpt lat="43.9869995" lon="10.8221631"><ele>916.8</ele><time>2026-04-26T08:19:34.074Z</time></trkpt><trkpt lat="43.9871348" lon="10.8221591"><ele>917.0</ele><time>2026-04-26T08:19:36.073Z</time></trkpt><trkpt lat="43.9872065" lon="10.8221593"><ele>917.0</ele><time>2026-04-26T08:19:37.073Z</time></trkpt><trkpt lat="43.9873126" lon="10.8220422"><ele>917.0</ele><time>2026-04-26T08:19:39.075Z</time></trkpt><trkpt lat="43.987369" lon="10.8219197"><ele>917.0</ele><time>2026-04-26T08:19:40.074Z</time></trkpt><trkpt lat="43.9874167" lon="10.8218476"><ele>917.0</ele><time>2026-04-26T08:19:41.074Z</time></trkpt><trkpt lat="43.9874455" lon="10.8217676"><ele>917.0</ele><time>2026-04-26T08:19:42.075Z</time></trkpt><trkpt lat="43.9874334" lon="10.8216499"><ele>916.6666666666667</ele><time>2026-04-26T08:19:43.073Z</time></trkpt><trkpt lat="43.9874312" lon="10.8215211"><ele>916.3333333333333</ele><time>2026-04-26T08:19:44.073Z</time></trkpt><trkpt lat="43.9873633" lon="10.8212427"><ele>916.0</ele><time>2026-04-26T08:19:46.073Z</time></trkpt><trkpt lat="43.9873076" lon="10.820979"><ele>917.6666666666666</ele><time>2026-04-26T08:19:48.074Z</time></trkpt><trkpt lat="43.9872773" lon="10.8209018"><ele>919.3333333333333</ele><time>2026-04-26T08:19:49.073Z</time></trkpt><trkpt lat="43.9872588" lon="10.8208129"><ele>921.0</ele><time>2026-04-26T08:19:50.074Z</time></trkpt><trkpt lat="43.9873549" lon="10.8208394"><ele>922.6666666666667</ele><time>2026-04-26T08:19:54.074Z</time></trkpt><trkpt lat="43.9874387" lon="10.8209034"><ele>924.3333333333334</ele><time>2026-04-26T08:19:56.075Z</time></trkpt><trkpt lat="43.9874843" lon="10.8209698"><ele>926.0</ele><time>2026-04-26T08:19:57.074Z</time></trkpt><trkpt lat="43.9875303" lon="10.821042"><ele>926.4</ele><time>2026-04-26T08:19:58.074Z</time></trkpt><trkpt lat="43.9876111" lon="10.8211468"><ele>926.8</ele><time>2026-04-26T08:19:59.074Z</time></trkpt><trkpt lat="43.9877001" lon="10.8212307"><ele>927.1999999999999</ele><time>2026-04-26T08:20:00.074Z</time></trkpt><trkpt lat="43.9877732" lon="10.8213396"><ele>927.5999999999999</ele><time>2026-04-26T08:20:01.074Z</time></trkpt><trkpt lat="43.9878172" lon="10.8214245"><ele>928.0</ele><time>2026-04-26T08:20:02.075Z</time></trkpt><trkpt lat="43.9878811" lon="10.8215027"><ele>928.0</ele><time>2026-04-26T08:20:03.073Z</time></trkpt><trkpt lat="43.9879871" lon="10.8215396"><ele>928.0</ele><time>2026-04-26T08:20:05.074Z</time></trkpt><trkpt lat="43.9881089" lon="10.8215162"><ele>928.0</ele><time>2026-04-26T08:20:07.075Z</time></trkpt><trkpt lat="43.9882503" lon="10.8214436"><ele>928.0</ele><time>2026-04-26T08:20:09.074Z</time></trkpt><trkpt lat="43.988311" lon="10.8213924"><ele>924.5999999999999</ele><time>2026-04-26T08:20:10.075Z</time></trkpt><trkpt lat="43.9883638" lon="10.8213372"><ele>921.1999999999999</ele><time>2026-04-26T08:20:11.074Z</time></trkpt><trkpt lat="43.9884427" lon="10.8212344"><ele>917.8</ele><time>2026-04-26T08:20:13.074Z</time></trkpt><trkpt lat="43.9884614" lon="10.8210972"><ele>914.4</ele><time>2026-04-26T08:20:15.074Z</time></trkpt><trkpt lat="43.9884431" lon="10.82101"><ele>911.0</ele><time>2026-04-26T08:20:16.074Z</time></trkpt><trkpt lat="43.9884719" lon="10.8208011"><ele>911.0000000000001</ele><time>2026-04-26T08:20:18.075Z</time></trkpt><trkpt lat="43.9884876" lon="10.8207081"><ele>911.0</ele><time>2026-04-26T08:20:19.075Z</time></trkpt><trkpt lat="43.9884945" lon="10.8206043"><ele>911.0</ele><time>2026-04-26T08:20:20.075Z</time></trkpt><trkpt lat="43.9884928" lon="10.820497"><ele>911.0</ele><time>2026-04-26T08:20:21.073Z</time></trkpt><trkpt lat="43.9884467" lon="10.8202977"><ele>911.0000000000001</ele><time>2026-04-26T08:20:23.075Z</time></trkpt><trkpt lat="43.9884021" lon="10.8202093"><ele>911.0</ele><time>2026-04-26T08:20:24.074Z</time></trkpt><trkpt lat="43.9883785" lon="10.820114"><ele>913.6666666666667</ele><time>2026-04-26T08:20:25.073Z</time></trkpt><trkpt lat="43.988361" lon="10.8200289"><ele>916.3333333333334</ele><time>2026-04-26T08:20:26.074Z</time></trkpt><trkpt lat="43.988367" lon="10.8199265"><ele>919.0</ele><time>2026-04-26T08:20:27.075Z</time></trkpt><trkpt lat="43.9883764" lon="10.8198294"><ele>921.6666666666667</ele><time>2026-04-26T08:20:28.074Z</time></trkpt><trkpt lat="43.9883903" lon="10.8197439"><ele>924.3333333333334</ele><time>2026-04-26T08:20:29.075Z</time></trkpt><trkpt lat="43.9883977" lon="10.8195983"><ele>927.0</ele><time>2026-04-26T08:20:31.074Z</time></trkpt><trkpt lat="43.9884165" lon="10.8193871"><ele>930.0</ele><time>2026-04-26T08:20:33.074Z</time></trkpt><trkpt lat="43.9884046" lon="10.819266"><ele>933.0</ele><time>2026-04-26T08:20:34.074Z</time></trkpt><trkpt lat="43.9884179" lon="10.8191439"><ele>936.0</ele><time>2026-04-26T08:20:35.074Z</time></trkpt><trkpt lat="43.9884179" lon="10.8190224"><ele>939.0</ele><time>2026-04-26T08:20:36.075Z</time></trkpt><trkpt lat="43.988426" lon="10.8188971"><ele>942.0</ele><time>2026-04-26T08:20:37.074Z</time></trkpt><trkpt lat="43.9884635" lon="10.8187959"><ele>945.0</ele><time>2026-04-26T08:20:38.074Z</time></trkpt><trkpt lat="43.9885261" lon="10.8186857"><ele>945.0</ele><time>2026-04-26T08:20:40.074Z</time></trkpt><trkpt lat="43.9886936" lon="10.8185547"><ele>945.0</ele><time>2026-04-26T08:20:42.074Z</time></trkpt><trkpt lat="43.988801" lon="10.818478"><ele>945.0</ele><time>2026-04-26T08:20:43.075Z</time></trkpt><trkpt lat="43.9889086" lon="10.818435"><ele>945.0</ele><time>2026-04-26T08:20:44.075Z</time></trkpt><trkpt lat="43.9889757" lon="10.8183918"><ele>948.2</ele><time>2026-04-26T08:20:45.073Z</time></trkpt><trkpt lat="43.9890794" lon="10.8183603"><ele>951.4</ele><time>2026-04-26T08:20:46.074Z</time></trkpt><trkpt lat="43.9891742" lon="10.8183191"><ele>954.5999999999999</ele><time>2026-04-26T08:20:47.074Z</time></trkpt><trkpt lat="43.9892505" lon="10.8182671"><ele>957.8</ele><time>2026-04-26T08:20:48.075Z</time></trkpt><trkpt lat="43.9893362" lon="10.8182223"><ele>961.0</ele><time>2026-04-26T08:20:49.073Z</time></trkpt><trkpt lat="43.9894153" lon="10.8181882"><ele>961.9999999999999</ele><time>2026-04-26T08:20:50.073Z</time></trkpt><trkpt lat="43.9894775" lon="10.8181443"><ele>963.0</ele><time>2026-04-26T08:20:51.073Z</time></trkpt><trkpt lat="43.9895591" lon="10.8181016"><ele>964.0</ele><time>2026-04-26T08:20:52.074Z</time></trkpt><trkpt lat="43.9896366" lon="10.8180807"><ele>965.0</ele><time>2026-04-26T08:20:53.074Z</time></trkpt><trkpt lat="43.9897166" lon="10.8180514"><ele>965.9999999999999</ele><time>2026-04-26T08:20:54.074Z</time></trkpt><trkpt lat="43.9898118" lon="10.8180483"><ele>967.0</ele><time>2026-04-26T08:20:55.075Z</time></trkpt><trkpt lat="43.989897" lon="10.8180319"><ele>967.0</ele><time>2026-04-26T08:20:56.075Z</time></trkpt><trkpt lat="43.9899788" lon="10.8180164"><ele>967.0</ele><time>2026-04-26T08:20:57.073Z</time></trkpt><trkpt lat="43.9900826" lon="10.8180221"><ele>967.0</ele><time>2026-04-26T08:20:58.074Z</time></trkpt><trkpt lat="43.9901688" lon="10.8180348"><ele>967.0</ele><time>2026-04-26T08:20:59.074Z</time></trkpt><trkpt lat="43.9902758" lon="10.8180092"><ele>967.0</ele><time>2026-04-26T08:21:00.073Z</time></trkpt><trkpt lat="43.9903548" lon="10.8180034"><ele>970.2</ele><time>2026-04-26T08:21:01.074Z</time></trkpt><trkpt lat="43.9904969" lon="10.8179845"><ele>973.4000000000001</ele><time>2026-04-26T08:21:03.074Z</time></trkpt><trkpt lat="43.9905789" lon="10.8179811"><ele>976.5999999999999</ele><time>2026-04-26T08:21:04.074Z</time></trkpt><trkpt lat="43.9906687" lon="10.8179638"><ele>979.8</ele><time>2026-04-26T08:21:05.073Z</time></trkpt><trkpt lat="43.9907456" lon="10.8179283"><ele>983.0</ele><time>2026-04-26T08:21:06.075Z</time></trkpt><trkpt lat="43.9908345" lon="10.8179102"><ele>982.0000000000001</ele><time>2026-04-26T08:21:07.074Z</time></trkpt><trkpt lat="43.9909128" lon="10.8178654"><ele>981.0</ele><time>2026-04-26T08:21:08.075Z</time></trkpt><trkpt lat="43.9910028" lon="10.8178236"><ele>980.0</ele><time>2026-04-26T08:21:09.074Z</time></trkpt><trkpt lat="43.9910724" lon="10.8178034"><ele>979.0</ele><time>2026-04-26T08:21:10.073Z</time></trkpt><trkpt lat="43.9911344" lon="10.8177828"><ele>978.0000000000001</ele><time>2026-04-26T08:21:11.074Z</time></trkpt><trkpt lat="43.9912038" lon="10.8177602"><ele>977.0</ele><time>2026-04-26T08:21:13.075Z</time></trkpt><trkpt lat="43.9912659" lon="10.8177217"><ele>978.4000000000001</ele><time>2026-04-26T08:23:34.146Z</time></trkpt><trkpt lat="43.9913019" lon="10.8176349"><ele>979.8000000000001</ele><time>2026-04-26T08:23:35.075Z</time></trkpt><trkpt lat="43.9913693" lon="10.8174847"><ele>981.2</ele><time>2026-04-26T08:23:37.074Z</time></trkpt><trkpt lat="43.9914188" lon="10.8174133"><ele>982.6</ele><time>2026-04-26T08:23:38.073Z</time></trkpt><trkpt lat="43.9914655" lon="10.8173537"><ele>984.0</ele><time>2026-04-26T08:23:39.074Z</time></trkpt><trkpt lat="43.991524" lon="10.8172088"><ele>984.0</ele><time>2026-04-26T08:23:41.073Z</time></trkpt><trkpt lat="43.9915454" lon="10.8171018"><ele>984.0000000000001</ele><time>2026-04-26T08:23:42.074Z</time></trkpt><trkpt lat="43.9916029" lon="10.8169766"><ele>984.0000000000001</ele><time>2026-04-26T08:23:44.074Z</time></trkpt><trkpt lat="43.9916596" lon="10.816838"><ele>984.0</ele><time>2026-04-26T08:23:46.073Z</time></trkpt><trkpt lat="43.9917106" lon="10.816683"><ele>984.0</ele><time>2026-04-26T08:23:48.074Z</time></trkpt><trkpt lat="43.9917761" lon="10.8165145"><ele>984.2</ele><time>2026-04-26T08:23:50.074Z</time></trkpt><trkpt lat="43.9918363" lon="10.8163818"><ele>984.4000000000001</ele><time>2026-04-26T08:23:52.074Z</time></trkpt><trkpt lat="43.9918919" lon="10.8162491"><ele>984.6</ele><time>2026-04-26T08:23:54.073Z</time></trkpt><trkpt lat="43.9919527" lon="10.8161515"><ele>984.8</ele><time>2026-04-26T08:23:56.074Z</time></trkpt><trkpt lat="43.9920195" lon="10.8160617"><ele>985.0</ele><time>2026-04-26T08:23:58.074Z</time></trkpt><trkpt lat="43.9920878" lon="10.8159558"><ele>988.6</ele><time>2026-04-26T08:24:00.074Z</time></trkpt><trkpt lat="43.9921436" lon="10.8158113"><ele>992.2</ele><time>2026-04-26T08:24:02.073Z</time></trkpt><trkpt lat="43.9921746" lon="10.8156869"><ele>995.8</ele><time>2026-04-26T08:24:04.074Z</time></trkpt><trkpt lat="43.9922305" lon="10.8155366"><ele>999.4</ele><time>2026-04-26T08:24:44.075Z</time></trkpt><trkpt lat="43.9922246" lon="10.8153998"><ele>1003.0</ele><time>2026-04-26T08:24:47.073Z</time></trkpt><trkpt lat="43.9922148" lon="10.8152704"><ele>1008.5</ele><time>2026-04-26T08:24:49.073Z</time></trkpt><trkpt lat="43.9921861" lon="10.8151113"><ele>1014.0</ele><time>2026-04-26T08:24:51.074Z</time></trkpt><trkpt lat="43.9921799" lon="10.8149636"><ele>1019.5</ele><time>2026-04-26T08:24:53.073Z</time></trkpt><trkpt lat="43.9921966" lon="10.8148245"><ele>1025.0</ele><time>2026-04-26T08:24:55.074Z</time></trkpt><trkpt lat="43.9922316" lon="10.8146497"><ele>1025.0</ele><time>2026-04-26T08:24:57.075Z</time></trkpt><trkpt lat="43.9922514" lon="10.8145556"><ele>1025.0</ele><time>2026-04-26T08:24:58.074Z</time></trkpt><trkpt lat="43.9922802" lon="10.8143836"><ele>1025.0</ele><time>2026-04-26T08:25:00.074Z</time></trkpt><trkpt lat="43.9923079" lon="10.8142307"><ele>1025.0</ele><time>2026-04-26T08:25:02.075Z</time></trkpt><trkpt lat="43.9923373" lon="10.8141252"><ele>1025.0</ele><time>2026-04-26T08:25:03.075Z</time></trkpt><trkpt lat="43.9923511" lon="10.8140339"><ele>1026.3333333333335</ele><time>2026-04-26T08:25:04.075Z</time></trkpt><trkpt lat="43.9923701" lon="10.8139403"><ele>1027.6666666666667</ele><time>2026-04-26T08:25:05.076Z</time></trkpt><trkpt lat="43.9924028" lon="10.8138451"><ele>1029.0</ele><time>2026-04-26T08:25:06.074Z</time></trkpt><trkpt lat="43.9924192" lon="10.8137359"><ele>1030.3333333333333</ele><time>2026-04-26T08:25:07.075Z</time></trkpt><trkpt lat="43.9924404" lon="10.8136318"><ele>1031.6666666666665</ele><time>2026-04-26T08:25:08.075Z</time></trkpt><trkpt lat="43.9924825" lon="10.8135424"><ele>1033.0</ele><time>2026-04-26T08:25:09.074Z</time></trkpt><trkpt lat="43.9925145" lon="10.8134478"><ele>1033.0</ele><time>2026-04-26T08:25:10.076Z</time></trkpt><trkpt lat="43.9925294" lon="10.8132964"><ele>1033.0</ele><time>2026-04-26T08:25:12.076Z</time></trkpt><trkpt lat="43.9925249" lon="10.813197"><ele>1033.0</ele><time>2026-04-26T08:25:14.074Z</time></trkpt><trkpt lat="43.9925245" lon="10.8130787"><ele>1033.0</ele><time>2026-04-26T08:25:16.076Z</time></trkpt><trkpt lat="43.9925199" lon="10.8128565"><ele>1033.0</ele><time>2026-04-26T08:25:19.076Z</time></trkpt><trkpt lat="43.9925705" lon="10.8126917"><ele>1036.8</ele><time>2026-04-26T08:25:21.076Z</time></trkpt><trkpt lat="43.9925965" lon="10.8125147"><ele>1040.6</ele><time>2026-04-26T08:25:23.076Z</time></trkpt><trkpt lat="43.9926179" lon="10.8123895"><ele>1044.4</ele><time>2026-04-26T08:25:24.075Z</time></trkpt><trkpt lat="43.9926557" lon="10.8122575"><ele>1048.2</ele><time>2026-04-26T08:25:25.075Z</time></trkpt><trkpt lat="43.9927026" lon="10.8121369"><ele>1052.0</ele><time>2026-04-26T08:25:26.074Z</time></trkpt><trkpt lat="43.9927773" lon="10.8119165"><ele>1052.6666666666667</ele><time>2026-04-26T08:25:28.074Z</time></trkpt><trkpt lat="43.9928172" lon="10.8118143"><ele>1053.3333333333335</ele><time>2026-04-26T08:25:29.075Z</time></trkpt><trkpt lat="43.9928592" lon="10.8117234"><ele>1054.0</ele><time>2026-04-26T08:25:30.074Z</time></trkpt><trkpt lat="43.9928968" lon="10.8116496"><ele>1054.6666666666667</ele><time>2026-04-26T08:25:31.075Z</time></trkpt><trkpt lat="43.9929434" lon="10.811581"><ele>1055.3333333333333</ele><time>2026-04-26T08:25:32.076Z</time></trkpt><trkpt lat="43.9929566" lon="10.8114939"><ele>1056.0</ele><time>2026-04-26T08:25:33.075Z</time></trkpt><trkpt lat="43.9928776" lon="10.8113758"><ele>1056.0</ele><time>2026-04-26T08:25:35.074Z</time></trkpt><trkpt lat="43.99277" lon="10.8112738"><ele>1056.0</ele><time>2026-04-26T08:25:37.075Z</time></trkpt><trkpt lat="43.9926752" lon="10.8112141"><ele>1056.0</ele><time>2026-04-26T08:25:38.076Z</time></trkpt><trkpt lat="43.9926094" lon="10.8111356"><ele>1056.0</ele><time>2026-04-26T08:25:39.075Z</time></trkpt><trkpt lat="43.9925382" lon="10.8110675"><ele>1056.0</ele><time>2026-04-26T08:25:40.076Z</time></trkpt><trkpt lat="43.9924543" lon="10.8109889"><ele>1056.0</ele><time>2026-04-26T08:25:41.075Z</time></trkpt><trkpt lat="43.9923543" lon="10.8109097"><ele>1056.0</ele><time>2026-04-26T08:25:42.075Z</time></trkpt><trkpt lat="43.9922917" lon="10.8107965"><ele>1056.0</ele><time>2026-04-26T08:25:43.076Z</time></trkpt><trkpt lat="43.9922422" lon="10.8106978"><ele>1056.0</ele><time>2026-04-26T08:25:44.076Z</time></trkpt><trkpt lat="43.9922042" lon="10.8106062"><ele>1056.0</ele><time>2026-04-26T08:25:45.075Z</time></trkpt><trkpt lat="43.9921797" lon="10.8104351"><ele>1056.0</ele><time>2026-04-26T08:25:47.076Z</time></trkpt><trkpt lat="43.9921941" lon="10.8102623"><ele>1056.0</ele><time>2026-04-26T08:25:49.075Z</time></trkpt><trkpt lat="43.9922249" lon="10.8100931"><ele>1056.0</ele><time>2026-04-26T08:25:51.074Z</time></trkpt><trkpt lat="43.9922563" lon="10.8100102"><ele>1056.0</ele><time>2026-04-26T08:25:52.074Z</time></trkpt><trkpt lat="43.9923145" lon="10.8098532"><ele>1056.0</ele><time>2026-04-26T08:25:54.076Z</time></trkpt><trkpt lat="43.9923489" lon="10.8097742"><ele>1054.8</ele><time>2026-04-26T08:25:55.074Z</time></trkpt><trkpt lat="43.9923967" lon="10.8096724"><ele>1053.6</ele><time>2026-04-26T08:25:56.076Z</time></trkpt><trkpt lat="43.9924442" lon="10.8095472"><ele>1052.4</ele><time>2026-04-26T08:25:58.074Z</time></trkpt><trkpt lat="43.992484" lon="10.8094067"><ele>1051.2</ele><time>2026-04-26T08:26:00.076Z</time></trkpt><trkpt lat="43.9925481" lon="10.8092477"><ele>1050.0</ele><time>2026-04-26T08:26:02.074Z</time></trkpt><trkpt lat="43.992577" lon="10.809159"><ele>1048.6666666666667</ele><time>2026-04-26T08:26:03.075Z</time></trkpt><trkpt lat="43.9926223" lon="10.8090523"><ele>1047.3333333333333</ele><time>2026-04-26T08:26:04.075Z</time></trkpt><trkpt lat="43.9926559" lon="10.8089312"><ele>1046.0</ele><time>2026-04-26T08:26:05.076Z</time></trkpt><trkpt lat="43.9926502" lon="10.8088237"><ele>1044.6666666666665</ele><time>2026-04-26T08:26:06.075Z</time></trkpt><trkpt lat="43.9926472" lon="10.8087079"><ele>1043.3333333333333</ele><time>2026-04-26T08:26:07.075Z</time></trkpt><trkpt lat="43.9926499" lon="10.8085953"><ele>1042.0</ele><time>2026-04-26T08:26:08.075Z</time></trkpt><trkpt lat="43.9926301" lon="10.8084614"><ele>1040.0</ele><time>2026-04-26T08:26:10.075Z</time></trkpt><trkpt lat="43.9927279" lon="10.8083354"><ele>1038.0</ele><time>2026-04-26T08:26:51.076Z</time></trkpt><trkpt lat="43.9927913" lon="10.8083392"><ele>1036.0</ele><time>2026-04-26T08:26:52.074Z</time></trkpt><trkpt lat="43.992899" lon="10.8083946"><ele>1034.0</ele><time>2026-04-26T08:26:54.076Z</time></trkpt><trkpt lat="43.9929756" lon="10.8084272"><ele>1032.0</ele><time>2026-04-26T08:26:55.075Z</time></trkpt><trkpt lat="43.9930995" lon="10.808455"><ele>1032.0</ele><time>2026-04-26T08:26:56.074Z</time></trkpt><trkpt lat="43.9931787" lon="10.8084691"><ele>1032.0</ele><time>2026-04-26T08:26:57.074Z</time></trkpt><trkpt lat="43.9932721" lon="10.808487"><ele>1032.0</ele><time>2026-04-26T08:26:58.074Z</time></trkpt><trkpt lat="43.9933599" lon="10.8084728"><ele>1032.0</ele><time>2026-04-26T08:26:59.075Z</time></trkpt><trkpt lat="43.9934484" lon="10.8084996"><ele>1032.0</ele><time>2026-04-26T08:27:00.076Z</time></trkpt><trkpt lat="43.9935588" lon="10.808452"><ele>1033.0</ele><time>2026-04-26T08:27:01.076Z</time></trkpt><trkpt lat="43.9936496" lon="10.8084344"><ele>1034.0</ele><time>2026-04-26T08:27:02.076Z</time></trkpt><trkpt lat="43.9938431" lon="10.8083634"><ele>1035.0</ele><time>2026-04-26T08:27:04.075Z</time></trkpt><trkpt lat="43.9939256" lon="10.8083001"><ele>1036.0</ele><time>2026-04-26T08:27:05.076Z</time></trkpt><trkpt lat="43.9939874" lon="10.8082475"><ele>1036.0</ele><time>2026-04-26T08:27:06.075Z</time></trkpt><trkpt lat="43.9940896" lon="10.8081895"><ele>1036.0</ele><time>2026-04-26T08:27:08.074Z</time></trkpt><trkpt lat="43.9941668" lon="10.8081721"><ele>1036.0</ele><time>2026-04-26T08:27:10.076Z</time></trkpt><trkpt lat="43.9942606" lon="10.8081289"><ele>1036.0</ele><time>2026-04-26T08:27:12.076Z</time></trkpt><trkpt lat="43.9943419" lon="10.8080882"><ele>1036.0</ele><time>2026-04-26T08:27:13.074Z</time></trkpt><trkpt lat="43.9944282" lon="10.8080734"><ele>1037.3999999999999</ele><time>2026-04-26T08:27:14.076Z</time></trkpt><trkpt lat="43.9945025" lon="10.8080684"><ele>1038.8</ele><time>2026-04-26T08:27:15.076Z</time></trkpt><trkpt lat="43.9945861" lon="10.808079"><ele>1040.1999999999998</ele><time>2026-04-26T08:27:16.074Z</time></trkpt><trkpt lat="43.994677" lon="10.808076"><ele>1041.6</ele><time>2026-04-26T08:27:17.076Z</time></trkpt><trkpt lat="43.9947818" lon="10.8080589"><ele>1043.0</ele><time>2026-04-26T08:27:18.075Z</time></trkpt><trkpt lat="43.9948951" lon="10.8080571"><ele>1043.0</ele><time>2026-04-26T08:27:19.075Z</time></trkpt><trkpt lat="43.9949838" lon="10.8080744"><ele>1043.0</ele><time>2026-04-26T08:27:20.075Z</time></trkpt><trkpt lat="43.9950905" lon="10.8080617"><ele>1043.0</ele><time>2026-04-26T08:27:21.076Z</time></trkpt><trkpt lat="43.9951988" lon="10.8080813"><ele>1043.0</ele><time>2026-04-26T08:27:22.075Z</time></trkpt><trkpt lat="43.9952787" lon="10.8081132"><ele>1043.0</ele><time>2026-04-26T08:27:23.074Z</time></trkpt><trkpt lat="43.9953675" lon="10.8081368"><ele>1042.6</ele><time>2026-04-26T08:27:24.075Z</time></trkpt><trkpt lat="43.9954695" lon="10.808158"><ele>1042.1999999999998</ele><time>2026-04-26T08:27:25.076Z</time></trkpt><trkpt lat="43.9955594" lon="10.8081996"><ele>1041.8</ele><time>2026-04-26T08:27:26.074Z</time></trkpt><trkpt lat="43.9956463" lon="10.8082267"><ele>1041.3999999999999</ele><time>2026-04-26T08:27:27.074Z</time></trkpt><trkpt lat="43.9957368" lon="10.8082463"><ele>1041.0</ele><time>2026-04-26T08:27:28.075Z</time></trkpt><trkpt lat="43.9958076" lon="10.8082534"><ele>1039.8</ele><time>2026-04-26T08:27:29.075Z</time></trkpt><trkpt lat="43.9959724" lon="10.8082875"><ele>1038.6</ele><time>2026-04-26T08:27:31.075Z</time></trkpt><trkpt lat="43.9960465" lon="10.8082974"><ele>1037.4</ele><time>2026-04-26T08:27:32.075Z</time></trkpt><trkpt lat="43.9961282" lon="10.8083668"><ele>1036.2</ele><time>2026-04-26T08:27:34.076Z</time></trkpt><trkpt lat="43.9961771" lon="10.808422"><ele>1035.0</ele><time>2026-04-26T08:27:35.075Z</time></trkpt><trkpt lat="43.9962309" lon="10.8085054"><ele>1035.0</ele><time>2026-04-26T08:27:36.075Z</time></trkpt><trkpt lat="43.9963334" lon="10.8086183"><ele>1035.0</ele><time>2026-04-26T08:27:38.076Z</time></trkpt><trkpt lat="43.996375" lon="10.8086865"><ele>1035.0</ele><time>2026-04-26T08:27:39.075Z</time></trkpt><trkpt lat="43.9964727" lon="10.8087681"><ele>1035.0</ele><time>2026-04-26T08:27:41.076Z</time></trkpt><trkpt lat="43.9965423" lon="10.8088206"><ele>1035.0</ele><time>2026-04-26T08:27:43.074Z</time></trkpt><trkpt lat="43.9965992" lon="10.8088731"><ele>1035.0</ele><time>2026-04-26T08:27:45.074Z</time></trkpt><trkpt lat="43.9966382" lon="10.8089447"><ele>1035.0</ele><time>2026-04-26T08:27:47.076Z</time></trkpt><trkpt lat="43.9966805" lon="10.8090534"><ele>1035.0</ele><time>2026-04-26T08:27:49.075Z</time></trkpt><trkpt lat="43.9967365" lon="10.8091479"><ele>1035.0</ele><time>2026-04-26T08:27:51.076Z</time></trkpt><trkpt lat="43.9968787" lon="10.8092235"><ele>1035.0</ele><time>2026-04-26T08:27:53.075Z</time></trkpt><trkpt lat="43.996959" lon="10.8092317"><ele>1033.4</ele><time>2026-04-26T08:27:54.076Z</time></trkpt><trkpt lat="43.9970726" lon="10.8092628"><ele>1031.8</ele><time>2026-04-26T08:27:56.075Z</time></trkpt><trkpt lat="43.9971707" lon="10.8093098"><ele>1030.2</ele><time>2026-04-26T08:27:58.076Z</time></trkpt><trkpt lat="43.9972525" lon="10.8093766"><ele>1028.6</ele><time>2026-04-26T08:28:00.076Z</time></trkpt><trkpt lat="43.9973076" lon="10.80943"><ele>1027.0</ele><time>2026-04-26T08:28:01.075Z</time></trkpt><trkpt lat="43.997383" lon="10.8095196"><ele>1027.0</ele><time>2026-04-26T08:28:03.075Z</time></trkpt><trkpt lat="43.9974568" lon="10.8095799"><ele>1027.0</ele><time>2026-04-26T08:28:04.075Z</time></trkpt><trkpt lat="43.9975386" lon="10.8096151"><ele>1027.0</ele><time>2026-04-26T08:28:05.075Z</time></trkpt><trkpt lat="43.9976717" lon="10.8097001"><ele>1027.0</ele><time>2026-04-26T08:28:07.075Z</time></trkpt><trkpt lat="43.9977283" lon="10.8097392"><ele>1027.0</ele><time>2026-04-26T08:28:08.076Z</time></trkpt><trkpt lat="43.9977843" lon="10.8097954"><ele>1023.6</ele><time>2026-04-26T08:28:09.075Z</time></trkpt><trkpt lat="43.9978824" lon="10.8098664"><ele>1020.2</ele><time>2026-04-26T08:28:11.075Z</time></trkpt><trkpt lat="43.9979321" lon="10.8099289"><ele>1016.8</ele><time>2026-04-26T08:28:13.076Z</time></trkpt><trkpt lat="43.9979861" lon="10.8100231"><ele>1013.4</ele><time>2026-04-26T08:28:16.074Z</time></trkpt><trkpt lat="43.9979906" lon="10.8101223"><ele>1010.0</ele><time>2026-04-26T08:28:20.075Z</time></trkpt><trkpt lat="43.9980954" lon="10.8102348"><ele>1010.0000000000001</ele><time>2026-04-26T08:28:23.075Z</time></trkpt><trkpt lat="43.9981914" lon="10.8102424"><ele>1010.0</ele><time>2026-04-26T08:28:24.075Z</time></trkpt><trkpt lat="43.9982713" lon="10.8102545"><ele>1010.0</ele><time>2026-04-26T08:28:25.075Z</time></trkpt><trkpt lat="43.9983733" lon="10.8102488"><ele>1010.0</ele><time>2026-04-26T08:28:26.075Z</time></trkpt><trkpt lat="43.9984546" lon="10.8102454"><ele>1010.0000000000001</ele><time>2026-04-26T08:28:27.075Z</time></trkpt><trkpt lat="43.9985344" lon="10.8102561"><ele>1010.0</ele><time>2026-04-26T08:28:28.075Z</time></trkpt><trkpt lat="43.998613" lon="10.8102562"><ele>1007.6</ele><time>2026-04-26T08:28:29.075Z</time></trkpt><trkpt lat="43.9986918" lon="10.8102794"><ele>1005.2</ele><time>2026-04-26T08:28:30.076Z</time></trkpt><trkpt lat="43.9987929" lon="10.8103076"><ele>1002.8</ele><time>2026-04-26T08:28:32.075Z</time></trkpt><trkpt lat="43.9989278" lon="10.8103133"><ele>1000.4</ele><time>2026-04-26T08:28:34.075Z</time></trkpt><trkpt lat="43.9990304" lon="10.8103598"><ele>998.0</ele><time>2026-04-26T08:28:36.076Z</time></trkpt><trkpt lat="43.9990963" lon="10.8103745"><ele>996.5000000000001</ele><time>2026-04-26T08:28:37.075Z</time></trkpt><trkpt lat="43.9991922" lon="10.8104115"><ele>995.0</ele><time>2026-04-26T08:28:38.075Z</time></trkpt><trkpt lat="43.9992603" lon="10.8104315"><ele>993.5</ele><time>2026-04-26T08:28:39.074Z</time></trkpt><trkpt lat="43.999355" lon="10.8104672"><ele>992.0</ele><time>2026-04-26T08:28:40.075Z</time></trkpt><trkpt lat="43.9994291" lon="10.8105071"><ele>990.5000000000001</ele><time>2026-04-26T08:28:41.076Z</time></trkpt><trkpt lat="43.9995008" lon="10.8105468"><ele>989.0</ele><time>2026-04-26T08:28:42.075Z</time></trkpt><trkpt lat="43.999569" lon="10.8106093"><ele>989.0</ele><time>2026-04-26T08:28:43.075Z</time></trkpt><trkpt lat="43.9996414" lon="10.8106561"><ele>989.0000000000001</ele><time>2026-04-26T08:28:44.074Z</time></trkpt><trkpt lat="43.9997745" lon="10.810675"><ele>989.0000000000001</ele><time>2026-04-26T08:28:46.075Z</time></trkpt><trkpt lat="43.9998459" lon="10.810706"><ele>989.0</ele><time>2026-04-26T08:28:47.075Z</time></trkpt><trkpt lat="43.9999412" lon="10.8107879"><ele>989.0</ele><time>2026-04-26T08:28:49.075Z</time></trkpt><trkpt lat="43.9999976" lon="10.8108479"><ele>989.0000000000001</ele><time>2026-04-26T08:28:50.074Z</time></trkpt><trkpt lat="44.0000548" lon="10.8109097"><ele>989.0</ele><time>2026-04-26T08:28:51.075Z</time></trkpt><trkpt lat="44.0001139" lon="10.8109476"><ele>989.0</ele><time>2026-04-26T08:28:52.076Z</time></trkpt><trkpt lat="44.0002131" lon="10.8109134"><ele>989.0</ele><time>2026-04-26T08:28:54.076Z</time></trkpt><trkpt lat="44.0003127" lon="10.810884"><ele>989.0000000000001</ele><time>2026-04-26T08:28:56.075Z</time></trkpt><trkpt lat="44.0003857" lon="10.8108481"><ele>989.0</ele><time>2026-04-26T08:28:57.075Z</time></trkpt><trkpt lat="44.0004526" lon="10.8108181"><ele>989.0</ele><time>2026-04-26T08:28:58.074Z</time></trkpt><trkpt lat="44.0005487" lon="10.8107696"><ele>989.0000000000001</ele><time>2026-04-26T08:29:00.075Z</time></trkpt><trkpt lat="44.0006374" lon="10.8107762"><ele>989.0000000000001</ele><time>2026-04-26T08:29:02.075Z</time></trkpt><trkpt lat="44.000709" lon="10.8108161"><ele>989.0</ele><time>2026-04-26T08:29:04.075Z</time></trkpt><trkpt lat="44.0008088" lon="10.8107459"><ele>989.0</ele><time>2026-04-26T08:29:06.076Z</time></trkpt><trkpt lat="44.0009011" lon="10.8106456"><ele>987.3333333333334</ele><time>2026-04-26T08:29:08.075Z</time></trkpt><trkpt lat="44.0009411" lon="10.8105185"><ele>985.6666666666667</ele><time>2026-04-26T08:29:10.075Z</time></trkpt><trkpt lat="44.0010418" lon="10.8104641"><ele>984.0</ele><time>2026-04-26T08:29:12.076Z</time></trkpt><trkpt lat="44.0011437" lon="10.8104107"><ele>982.3333333333333</ele><time>2026-04-26T08:29:14.074Z</time></trkpt><trkpt lat="44.0011934" lon="10.8103568"><ele>980.6666666666666</ele><time>2026-04-26T08:29:15.074Z</time></trkpt><trkpt lat="44.0012593" lon="10.8103313"><ele>979.0</ele><time>2026-04-26T08:29:17.076Z</time></trkpt><trkpt lat="44.0013362" lon="10.8103553"><ele>978.9999999999999</ele><time>2026-04-26T08:29:19.074Z</time></trkpt><trkpt lat="44.0014372" lon="10.810391"><ele>979.0</ele><time>2026-04-26T08:29:21.075Z</time></trkpt><trkpt lat="44.0015086" lon="10.810392"><ele>979.0</ele><time>2026-04-26T08:29:22.075Z</time></trkpt><trkpt lat="44.0015789" lon="10.8104018"><ele>979.0</ele><time>2026-04-26T08:29:23.074Z</time></trkpt><trkpt lat="44.0016635" lon="10.8104042"><ele>978.9999999999999</ele><time>2026-04-26T08:29:24.075Z</time></trkpt><trkpt lat="44.0017634" lon="10.8104628"><ele>979.0</ele><time>2026-04-26T08:29:25.075Z</time></trkpt><trkpt lat="44.0018421" lon="10.8104981"><ele>977.1666666666666</ele><time>2026-04-26T08:29:26.075Z</time></trkpt><trkpt lat="44.0019125" lon="10.8105303"><ele>975.3333333333333</ele><time>2026-04-26T08:29:27.074Z</time></trkpt><trkpt lat="44.0019908" lon="10.8105707"><ele>973.5</ele><time>2026-04-26T08:29:28.074Z</time></trkpt><trkpt lat="44.0020657" lon="10.8105701"><ele>971.6666666666667</ele><time>2026-04-26T08:29:29.075Z</time></trkpt><trkpt lat="44.0021333" lon="10.8105984"><ele>969.8333333333334</ele><time>2026-04-26T08:29:30.075Z</time></trkpt><trkpt lat="44.0022139" lon="10.810605"><ele>968.0</ele><time>2026-04-26T08:29:31.075Z</time></trkpt><trkpt lat="44.0022979" lon="10.8106251"><ele>968.0000000000001</ele><time>2026-04-26T08:29:32.076Z</time></trkpt><trkpt lat="44.0023694" lon="10.8106251"><ele>968.0</ele><time>2026-04-26T08:29:33.076Z</time></trkpt><trkpt lat="44.0024489" lon="10.8106324"><ele>968.0</ele><time>2026-04-26T08:29:34.075Z</time></trkpt><trkpt lat="44.0025118" lon="10.8105923"><ele>968.0</ele><time>2026-04-26T08:29:35.075Z</time></trkpt><trkpt lat="44.0025823" lon="10.8105875"><ele>968.0000000000001</ele><time>2026-04-26T08:29:36.075Z</time></trkpt><trkpt lat="44.0026614" lon="10.8105686"><ele>968.0</ele><time>2026-04-26T08:29:37.076Z</time></trkpt><trkpt lat="44.002743" lon="10.8105288"><ele>968.1666666666667</ele><time>2026-04-26T08:29:38.075Z</time></trkpt><trkpt lat="44.0028224" lon="10.8104691"><ele>968.3333333333334</ele><time>2026-04-26T08:29:39.075Z</time></trkpt><trkpt lat="44.0028979" lon="10.8104108"><ele>968.5</ele><time>2026-04-26T08:29:40.075Z</time></trkpt><trkpt lat="44.0029703" lon="10.8103392"><ele>968.6666666666667</ele><time>2026-04-26T08:29:41.076Z</time></trkpt><trkpt lat="44.0030375" lon="10.8102696"><ele>968.8333333333334</ele><time>2026-04-26T08:29:42.076Z</time></trkpt><trkpt lat="44.0030993" lon="10.8101934"><ele>969.0</ele><time>2026-04-26T08:29:43.075Z</time></trkpt><trkpt lat="44.0031988" lon="10.8100768"><ele>969.0</ele><time>2026-04-26T08:29:45.075Z</time></trkpt><trkpt lat="44.0032648" lon="10.8100238"><ele>969.0000000000001</ele><time>2026-04-26T08:29:46.075Z</time></trkpt><trkpt lat="44.0033638" lon="10.8099298"><ele>969.0000000000001</ele><time>2026-04-26T08:29:47.075Z</time></trkpt><trkpt lat="44.0034762" lon="10.8098471"><ele>969.0</ele><time>2026-04-26T08:29:48.075Z</time></trkpt><trkpt lat="44.003562" lon="10.8097617"><ele>969.0</ele><time>2026-04-26T08:29:49.076Z</time></trkpt><trkpt lat="44.003654" lon="10.8096267"><ele>971.25</ele><time>2026-04-26T08:29:50.076Z</time></trkpt><trkpt lat="44.0037342" lon="10.8094259"><ele>973.5</ele><time>2026-04-26T08:29:51.075Z</time></trkpt><trkpt lat="44.0038135" lon="10.8092869"><ele>975.75</ele><time>2026-04-26T08:29:52.075Z</time></trkpt><trkpt lat="44.0038838" lon="10.8091653"><ele>978.0</ele><time>2026-04-26T08:29:53.074Z</time></trkpt><trkpt lat="44.0039566" lon="10.809029"><ele>978.0</ele><time>2026-04-26T08:29:54.075Z</time></trkpt><trkpt lat="44.0040335" lon="10.8088953"><ele>978.0</ele><time>2026-04-26T08:29:55.074Z</time></trkpt><trkpt lat="44.004106" lon="10.8087587"><ele>978.0</ele><time>2026-04-26T08:29:56.075Z</time></trkpt><trkpt lat="44.004188" lon="10.8086191"><ele>978.0</ele><time>2026-04-26T08:29:57.075Z</time></trkpt><trkpt lat="44.0042752" lon="10.8084857"><ele>977.75</ele><time>2026-04-26T08:29:58.075Z</time></trkpt><trkpt lat="44.0043676" lon="10.808372"><ele>977.5</ele><time>2026-04-26T08:29:59.074Z</time></trkpt><trkpt lat="44.0044642" lon="10.8082519"><ele>977.25</ele><time>2026-04-26T08:30:00.075Z</time></trkpt><trkpt lat="44.0045671" lon="10.8081617"><ele>977.0</ele><time>2026-04-26T08:30:01.076Z</time></trkpt><trkpt lat="44.0046572" lon="10.8080604"><ele>977.0</ele><time>2026-04-26T08:30:02.074Z</time></trkpt><trkpt lat="44.0047538" lon="10.8079475"><ele>977.0</ele><time>2026-04-26T08:30:03.076Z</time></trkpt><trkpt lat="44.0048505" lon="10.8078302"><ele>977.0</ele><time>2026-04-26T08:30:04.074Z</time></trkpt><trkpt lat="44.0049452" lon="10.8077244"><ele>977.0</ele><time>2026-04-26T08:30:05.074Z</time></trkpt><trkpt lat="44.0050505" lon="10.8076174"><ele>977.25</ele><time>2026-04-26T08:30:06.075Z</time></trkpt><trkpt lat="44.0051585" lon="10.807504"><ele>977.5</ele><time>2026-04-26T08:30:07.075Z</time></trkpt><trkpt lat="44.0052659" lon="10.8074052"><ele>977.75</ele><time>2026-04-26T08:30:08.076Z</time></trkpt><trkpt lat="44.0053597" lon="10.8072919"><ele>978.0</ele><time>2026-04-26T08:30:09.075Z</time></trkpt><trkpt lat="44.0054663" lon="10.807218"><ele>978.0</ele><time>2026-04-26T08:30:10.074Z</time></trkpt><trkpt lat="44.0055613" lon="10.8071242"><ele>978.0</ele><time>2026-04-26T08:30:11.075Z</time></trkpt><trkpt lat="44.0056608" lon="10.8070294"><ele>978.0</ele><time>2026-04-26T08:30:12.075Z</time></trkpt><trkpt lat="44.005739" lon="10.8069302"><ele>978.0</ele><time>2026-04-26T08:30:13.074Z</time></trkpt><trkpt lat="44.0058183" lon="10.8068222"><ele>978.25</ele><time>2026-04-26T08:30:14.075Z</time></trkpt><trkpt lat="44.0058899" lon="10.8067168"><ele>978.5</ele><time>2026-04-26T08:30:15.076Z</time></trkpt><trkpt lat="44.0059583" lon="10.8065815"><ele>978.75</ele><time>2026-04-26T08:30:16.075Z</time></trkpt><trkpt lat="44.0060182" lon="10.8064197"><ele>979.0</ele><time>2026-04-26T08:30:17.074Z</time></trkpt><trkpt lat="44.0060582" lon="10.8062495"><ele>979.0</ele><time>2026-04-26T08:30:18.074Z</time></trkpt><trkpt lat="44.0061077" lon="10.8060777"><ele>979.0</ele><time>2026-04-26T08:30:19.075Z</time></trkpt><trkpt lat="44.0061544" lon="10.8059124"><ele>979.0</ele><time>2026-04-26T08:30:20.075Z</time></trkpt><trkpt lat="44.0062026" lon="10.8057518"><ele>979.0</ele><time>2026-04-26T08:30:21.075Z</time></trkpt><trkpt lat="44.0062524" lon="10.8056089"><ele>978.4999999999999</ele><time>2026-04-26T08:30:22.076Z</time></trkpt><trkpt lat="44.0063084" lon="10.8054795"><ele>978.0</ele><time>2026-04-26T08:30:23.075Z</time></trkpt><trkpt lat="44.0063651" lon="10.8053643"><ele>977.5</ele><time>2026-04-26T08:30:24.076Z</time></trkpt><trkpt lat="44.0064192" lon="10.8052693"><ele>977.0</ele><time>2026-04-26T08:30:25.074Z</time></trkpt><trkpt lat="44.0064753" lon="10.8052026"><ele>976.4999999999999</ele><time>2026-04-26T08:30:26.076Z</time></trkpt><trkpt lat="44.006526" lon="10.805145"><ele>976.0</ele><time>2026-04-26T08:30:27.075Z</time></trkpt><trkpt lat="44.0065995" lon="10.8050443"><ele>976.0</ele><time>2026-04-26T08:30:29.076Z</time></trkpt><trkpt lat="44.0066709" lon="10.8050183"><ele>976.0</ele><time>2026-04-26T08:30:31.075Z</time></trkpt><trkpt lat="44.0066182" lon="10.805271"><ele>976.0</ele><time>2026-04-26T08:30:34.074Z</time></trkpt><trkpt lat="44.0065934" lon="10.8053825"><ele>976.0</ele><time>2026-04-26T08:30:35.076Z</time></trkpt><trkpt lat="44.0066087" lon="10.8056066"><ele>976.0</ele><time>2026-04-26T08:30:36.075Z</time></trkpt><trkpt lat="44.0066445" lon="10.8058297"><ele>976.0</ele><time>2026-04-26T08:30:37.075Z</time></trkpt><trkpt lat="44.0066664" lon="10.8060141"><ele>976.0</ele><time>2026-04-26T08:30:38.075Z</time></trkpt><trkpt lat="44.0066805" lon="10.8061718"><ele>976.0</ele><time>2026-04-26T08:30:39.076Z</time></trkpt><trkpt lat="44.0066899" lon="10.8063125"><ele>976.5999999999999</ele><time>2026-04-26T08:30:40.075Z</time></trkpt><trkpt lat="44.0066461" lon="10.8064574"><ele>977.1999999999999</ele><time>2026-04-26T08:30:41.075Z</time></trkpt><trkpt lat="44.0066431" lon="10.8065843"><ele>977.8000000000001</ele><time>2026-04-26T08:30:42.076Z</time></trkpt><trkpt lat="44.0066582" lon="10.8067044"><ele>978.4000000000001</ele><time>2026-04-26T08:30:43.075Z</time></trkpt><trkpt lat="44.0066513" lon="10.8068676"><ele>979.0</ele><time>2026-04-26T08:30:45.074Z</time></trkpt><trkpt lat="44.0065952" lon="10.8069761"><ele>976.75</ele><time>2026-04-26T08:30:46.075Z</time></trkpt><trkpt lat="44.0065692" lon="10.8070787"><ele>974.5</ele><time>2026-04-26T08:30:47.076Z</time></trkpt><trkpt lat="44.0064953" lon="10.8072828"><ele>972.25</ele><time>2026-04-26T08:30:48.074Z</time></trkpt><trkpt lat="44.0064539" lon="10.8074359"><ele>970.0</ele><time>2026-04-26T08:30:49.075Z</time></trkpt><trkpt lat="44.0064372" lon="10.8075849"><ele>967.75</ele><time>2026-04-26T08:30:50.075Z</time></trkpt><trkpt lat="44.0064373" lon="10.8077415"><ele>965.5</ele><time>2026-04-26T08:30:51.075Z</time></trkpt><trkpt lat="44.0064397" lon="10.8079246"><ele>963.25</ele><time>2026-04-26T08:30:52.075Z</time></trkpt><trkpt lat="44.0064725" lon="10.8080881"><ele>961.0</ele><time>2026-04-26T08:30:53.075Z</time></trkpt><trkpt lat="44.0064869" lon="10.8082475"><ele>961.0</ele><time>2026-04-26T08:30:54.076Z</time></trkpt><trkpt lat="44.0065131" lon="10.8083625"><ele>960.9999999999999</ele><time>2026-04-26T08:30:55.075Z</time></trkpt><trkpt lat="44.00648" lon="10.8084848"><ele>960.9999999999999</ele><time>2026-04-26T08:30:56.074Z</time></trkpt><trkpt lat="44.0064612" lon="10.8086358"><ele>961.0</ele><time>2026-04-26T08:30:57.076Z</time></trkpt><trkpt lat="44.0063931" lon="10.8088301"><ele>961.0</ele><time>2026-04-26T08:30:58.075Z</time></trkpt><trkpt lat="44.0063212" lon="10.8091494"><ele>958.0</ele><time>2026-04-26T08:31:00.076Z</time></trkpt><trkpt lat="44.006288" lon="10.8092762"><ele>955.0</ele><time>2026-04-26T08:31:01.075Z</time></trkpt><trkpt lat="44.0062486" lon="10.8094325"><ele>952.0</ele><time>2026-04-26T08:31:02.075Z</time></trkpt><trkpt lat="44.0061928" lon="10.8095877"><ele>949.0</ele><time>2026-04-26T08:31:03.074Z</time></trkpt><trkpt lat="44.0061374" lon="10.809728"><ele>946.2</ele><time>2026-04-26T08:31:04.076Z</time></trkpt><trkpt lat="44.0060734" lon="10.8098498"><ele>943.4000000000001</ele><time>2026-04-26T08:31:05.075Z</time></trkpt><trkpt lat="44.0060095" lon="10.8099578"><ele>940.6</ele><time>2026-04-26T08:31:06.076Z</time></trkpt><trkpt lat="44.0059628" lon="10.8100802"><ele>937.8</ele><time>2026-04-26T08:31:07.076Z</time></trkpt><trkpt lat="44.0059573" lon="10.8102306"><ele>935.0</ele><time>2026-04-26T08:31:08.076Z</time></trkpt><trkpt lat="44.0059432" lon="10.8103701"><ele>933.8</ele><time>2026-04-26T08:31:09.076Z</time></trkpt><trkpt lat="44.0059582" lon="10.8105123"><ele>932.6</ele><time>2026-04-26T08:31:10.075Z</time></trkpt><trkpt lat="44.0059773" lon="10.8106473"><ele>931.4000000000001</ele><time>2026-04-26T08:31:11.075Z</time></trkpt><trkpt lat="44.0059631" lon="10.8107566"><ele>930.2</ele><time>2026-04-26T08:31:12.075Z</time></trkpt><trkpt lat="44.0059695" lon="10.8109436"><ele>929.0</ele><time>2026-04-26T08:31:14.075Z</time></trkpt><trkpt lat="44.0059451" lon="10.8110583"><ele>927.6</ele><time>2026-04-26T08:31:15.075Z</time></trkpt><trkpt lat="44.0058887" lon="10.8111544"><ele>926.2</ele><time>2026-04-26T08:31:16.076Z</time></trkpt><trkpt lat="44.0058357" lon="10.8112316"><ele>924.8000000000001</ele><time>2026-04-26T08:31:17.075Z</time></trkpt><trkpt lat="44.0057824" lon="10.811342"><ele>923.4000000000001</ele><time>2026-04-26T08:31:18.076Z</time></trkpt><trkpt lat="44.0057444" lon="10.8114743"><ele>922.0</ele><time>2026-04-26T08:31:19.076Z</time></trkpt><trkpt lat="44.0057224" lon="10.8116216"><ele>925.0</ele><time>2026-04-26T08:31:20.076Z</time></trkpt><trkpt lat="44.0057058" lon="10.8117547"><ele>928.0</ele><time>2026-04-26T08:31:21.074Z</time></trkpt><trkpt lat="44.0056724" lon="10.8118926"><ele>931.0</ele><time>2026-04-26T08:31:22.074Z</time></trkpt><trkpt lat="44.0056639" lon="10.8120262"><ele>934.0</ele><time>2026-04-26T08:31:23.074Z</time></trkpt><trkpt lat="44.0056252" lon="10.8121514"><ele>937.0</ele><time>2026-04-26T08:31:24.075Z</time></trkpt><trkpt lat="44.0055862" lon="10.8122856"><ele>937.0</ele><time>2026-04-26T08:31:25.075Z</time></trkpt><trkpt lat="44.0055304" lon="10.8124053"><ele>937.0</ele><time>2026-04-26T08:31:26.075Z</time></trkpt><trkpt lat="44.0054551" lon="10.812528"><ele>937.0</ele><time>2026-04-26T08:31:27.075Z</time></trkpt><trkpt lat="44.0053638" lon="10.8126464"><ele>937.0</ele><time>2026-04-26T08:31:28.075Z</time></trkpt><trkpt lat="44.0052953" lon="10.8127352"><ele>937.0</ele><time>2026-04-26T08:31:29.074Z</time></trkpt><trkpt lat="44.0052462" lon="10.8128039"><ele>935.4000000000001</ele><time>2026-04-26T08:31:30.076Z</time></trkpt><trkpt lat="44.0051898" lon="10.8128811"><ele>933.8000000000001</ele><time>2026-04-26T08:31:31.075Z</time></trkpt><trkpt lat="44.0052054" lon="10.8129892"><ele>932.2</ele><time>2026-04-26T08:31:32.076Z</time></trkpt><trkpt lat="44.0051928" lon="10.8130968"><ele>930.6</ele><time>2026-04-26T08:31:33.075Z</time></trkpt><trkpt lat="44.0052023" lon="10.8132195"><ele>929.0</ele><time>2026-04-26T08:31:34.075Z</time></trkpt><trkpt lat="44.0052736" lon="10.8134371"><ele>928.5000000000001</ele><time>2026-04-26T08:31:35.075Z</time></trkpt><trkpt lat="44.0053009" lon="10.8135667"><ele>928.0</ele><time>2026-04-26T08:31:36.075Z</time></trkpt><trkpt lat="44.0053279" lon="10.8136984"><ele>927.5</ele><time>2026-04-26T08:31:37.075Z</time></trkpt><trkpt lat="44.0053655" lon="10.8138209"><ele>927.0</ele><time>2026-04-26T08:31:38.074Z</time></trkpt><trkpt lat="44.0053766" lon="10.8139104"><ele>926.5000000000001</ele><time>2026-04-26T08:31:39.075Z</time></trkpt><trkpt lat="44.0053896" lon="10.8140139"><ele>926.0</ele><time>2026-04-26T08:31:40.075Z</time></trkpt><trkpt lat="44.0053753" lon="10.8141481"><ele>924.0</ele><time>2026-04-26T08:31:41.075Z</time></trkpt><trkpt lat="44.0053015" lon="10.8143375"><ele>922.0</ele><time>2026-04-26T08:31:42.075Z</time></trkpt><trkpt lat="44.0052633" lon="10.8144941"><ele>920.0</ele><time>2026-04-26T08:31:43.075Z</time></trkpt><trkpt lat="44.0052213" lon="10.8146627"><ele>918.0</ele><time>2026-04-26T08:31:44.076Z</time></trkpt><trkpt lat="44.0051818" lon="10.8147971"><ele>918.0</ele><time>2026-04-26T08:31:45.076Z</time></trkpt><trkpt lat="44.0051319" lon="10.8149345"><ele>918.0</ele><time>2026-04-26T08:31:47.076Z</time></trkpt><trkpt lat="44.0051013" lon="10.8150543"><ele>918.0</ele><time>2026-04-26T08:31:48.076Z</time></trkpt><trkpt lat="44.0050659" lon="10.815175"><ele>918.0</ele><time>2026-04-26T08:31:49.076Z</time></trkpt><trkpt lat="44.0050455" lon="10.8153048"><ele>918.0</ele><time>2026-04-26T08:31:50.074Z</time></trkpt><trkpt lat="44.0050436" lon="10.8154638"><ele>916.0</ele><time>2026-04-26T08:31:51.075Z</time></trkpt><trkpt lat="44.0050441" lon="10.8156064"><ele>914.0</ele><time>2026-04-26T08:31:52.076Z</time></trkpt><trkpt lat="44.0050221" lon="10.8157296"><ele>912.0</ele><time>2026-04-26T08:31:53.075Z</time></trkpt><trkpt lat="44.0049954" lon="10.8158609"><ele>910.0</ele><time>2026-04-26T08:31:54.076Z</time></trkpt><trkpt lat="44.0049662" lon="10.8160014"><ele>908.0</ele><time>2026-04-26T08:31:55.075Z</time></trkpt><trkpt lat="44.0049311" lon="10.8161639"><ele>914.0</ele><time>2026-04-26T08:31:56.076Z</time></trkpt><trkpt lat="44.0048254" lon="10.8163078"><ele>920.0</ele><time>2026-04-26T08:31:57.074Z</time></trkpt><trkpt lat="44.0047668" lon="10.8164503"><ele>926.0</ele><time>2026-04-26T08:31:58.076Z</time></trkpt><trkpt lat="44.004717" lon="10.8165783"><ele>932.0</ele><time>2026-04-26T08:31:59.074Z</time></trkpt><trkpt lat="44.0046667" lon="10.8166923"><ele>932.0000000000001</ele><time>2026-04-26T08:32:00.076Z</time></trkpt><trkpt lat="44.004617" lon="10.8167976"><ele>932.0</ele><time>2026-04-26T08:32:01.075Z</time></trkpt><trkpt lat="44.004563" lon="10.8168909"><ele>932.0</ele><time>2026-04-26T08:32:02.075Z</time></trkpt><trkpt lat="44.0044907" lon="10.8169625"><ele>932.0</ele><time>2026-04-26T08:32:03.075Z</time></trkpt><trkpt lat="44.004407" lon="10.8169766"><ele>932.0000000000001</ele><time>2026-04-26T08:32:04.076Z</time></trkpt><trkpt lat="44.0043384" lon="10.8170467"><ele>932.0</ele><time>2026-04-26T08:32:05.075Z</time></trkpt><trkpt lat="44.0043182" lon="10.8171511"><ele>929.0</ele><time>2026-04-26T08:32:06.076Z</time></trkpt><trkpt lat="44.0042802" lon="10.8172524"><ele>926.0</ele><time>2026-04-26T08:32:07.075Z</time></trkpt><trkpt lat="44.0042627" lon="10.817354"><ele>923.0</ele><time>2026-04-26T08:32:08.074Z</time></trkpt><trkpt lat="44.0042252" lon="10.8174861"><ele>920.0</ele><time>2026-04-26T08:32:09.075Z</time></trkpt><trkpt lat="44.004234" lon="10.8176525"><ele>917.0</ele><time>2026-04-26T08:32:10.075Z</time></trkpt><trkpt lat="44.0042258" lon="10.8177855"><ele>916.2</ele><time>2026-04-26T08:32:11.075Z</time></trkpt><trkpt lat="44.0042521" lon="10.8178838"><ele>915.4000000000001</ele><time>2026-04-26T08:32:12.075Z</time></trkpt><trkpt lat="44.0043375" lon="10.818022"><ele>914.5999999999999</ele><time>2026-04-26T08:32:13.075Z</time></trkpt><trkpt lat="44.004386" lon="10.8181739"><ele>913.8</ele><time>2026-04-26T08:32:14.075Z</time></trkpt><trkpt lat="44.0044375" lon="10.818305"><ele>913.0</ele><time>2026-04-26T08:32:15.076Z</time></trkpt><trkpt lat="44.0044704" lon="10.8184165"><ele>912.1666666666666</ele><time>2026-04-26T08:32:16.075Z</time></trkpt><trkpt lat="44.0044899" lon="10.8185307"><ele>911.3333333333333</ele><time>2026-04-26T08:32:17.075Z</time></trkpt><trkpt lat="44.0045146" lon="10.8186395"><ele>910.5</ele><time>2026-04-26T08:32:18.074Z</time></trkpt><trkpt lat="44.004516" lon="10.81875"><ele>909.6666666666667</ele><time>2026-04-26T08:32:19.076Z</time></trkpt><trkpt lat="44.0044838" lon="10.8188613"><ele>908.8333333333334</ele><time>2026-04-26T08:32:21.076Z</time></trkpt><trkpt lat="44.0043958" lon="10.8188689"><ele>908.0</ele><time>2026-04-26T08:32:22.076Z</time></trkpt><trkpt lat="44.0042879" lon="10.8189287"><ele>908.0000000000001</ele><time>2026-04-26T08:32:23.075Z</time></trkpt><trkpt lat="44.0043324" lon="10.8190083"><ele>908.0</ele><time>2026-04-26T08:32:24.076Z</time></trkpt><trkpt lat="44.0043591" lon="10.8191386"><ele>908.0</ele><time>2026-04-26T08:32:25.076Z</time></trkpt><trkpt lat="44.0043818" lon="10.8192214"><ele>908.0</ele><time>2026-04-26T08:32:26.075Z</time></trkpt><trkpt lat="44.0044232" lon="10.8193239"><ele>908.0000000000001</ele><time>2026-04-26T08:32:27.075Z</time></trkpt><trkpt lat="44.0044565" lon="10.8194164"><ele>908.0</ele><time>2026-04-26T08:32:28.076Z</time></trkpt><trkpt lat="44.0044825" lon="10.8195418"><ele>907.0000000000001</ele><time>2026-04-26T08:32:29.075Z</time></trkpt><trkpt lat="44.0044892" lon="10.8196746"><ele>906.0</ele><time>2026-04-26T08:32:30.074Z</time></trkpt><trkpt lat="44.0045013" lon="10.8197997"><ele>905.0</ele><time>2026-04-26T08:32:31.076Z</time></trkpt><trkpt lat="44.0045087" lon="10.8199116"><ele>904.0</ele><time>2026-04-26T08:32:32.075Z</time></trkpt><trkpt lat="44.0045307" lon="10.8200033"><ele>903.0000000000001</ele><time>2026-04-26T08:32:33.075Z</time></trkpt><trkpt lat="44.0045542" lon="10.8200926"><ele>902.0</ele><time>2026-04-26T08:32:34.076Z</time></trkpt><trkpt lat="44.0045725" lon="10.8201764"><ele>898.8</ele><time>2026-04-26T08:32:35.075Z</time></trkpt><trkpt lat="44.00457" lon="10.8203092"><ele>895.6</ele><time>2026-04-26T08:32:37.075Z</time></trkpt><trkpt lat="44.0045675" lon="10.8204037"><ele>892.3999999999999</ele><time>2026-04-26T08:32:51.075Z</time></trkpt><trkpt lat="44.0046486" lon="10.8205262"><ele>889.1999999999999</ele><time>2026-04-26T08:32:54.075Z</time></trkpt><trkpt lat="44.0047179" lon="10.8206389"><ele>886.0</ele><time>2026-04-26T08:32:56.075Z</time></trkpt><trkpt lat="44.0047659" lon="10.8207394"><ele>885.9999999999999</ele><time>2026-04-26T08:32:58.076Z</time></trkpt><trkpt lat="44.0048353" lon="10.8208655"><ele>886.0</ele><time>2026-04-26T08:33:01.075Z</time></trkpt><trkpt lat="44.0048661" lon="10.8209656"><ele>886.0</ele><time>2026-04-26T08:33:03.075Z</time></trkpt><trkpt lat="44.0048508" lon="10.8210981"><ele>886.0</ele><time>2026-04-26T08:33:05.075Z</time></trkpt><trkpt lat="44.0048691" lon="10.821188"><ele>885.9999999999999</ele><time>2026-04-26T08:33:07.075Z</time></trkpt><trkpt lat="44.0049086" lon="10.821257"><ele>886.0</ele><time>2026-04-26T08:33:09.076Z</time></trkpt><trkpt lat="44.0049664" lon="10.8213304"><ele>881.2857142857143</ele><time>2026-04-26T08:33:11.075Z</time></trkpt><trkpt lat="44.0050215" lon="10.8213935"><ele>876.5714285714287</ele><time>2026-04-26T08:33:13.075Z</time></trkpt><trkpt lat="44.0050952" lon="10.8214246"><ele>871.8571428571429</ele><time>2026-04-26T08:33:16.075Z</time></trkpt><trkpt lat="44.0051066" lon="10.8215215"><ele>867.1428571428571</ele><time>2026-04-26T08:33:18.074Z</time></trkpt><trkpt lat="44.0050957" lon="10.8216134"><ele>862.4285714285714</ele><time>2026-04-26T08:33:20.075Z</time></trkpt><trkpt lat="44.0051276" lon="10.8216917"><ele>857.7142857142857</ele><time>2026-04-26T08:33:22.076Z</time></trkpt><trkpt lat="44.0052064" lon="10.8217532"><ele>853.0</ele><time>2026-04-26T08:33:25.075Z</time></trkpt><trkpt lat="44.0053023" lon="10.8218075"><ele>850.3333333333333</ele><time>2026-04-26T08:33:28.076Z</time></trkpt><trkpt lat="44.0053831" lon="10.821863"><ele>847.6666666666666</ele><time>2026-04-26T08:33:31.076Z</time></trkpt><trkpt lat="44.0054442" lon="10.8219178"><ele>845.0</ele><time>2026-04-26T08:33:40.075Z</time></trkpt><trkpt lat="44.0054978" lon="10.8219996"><ele>842.3333333333333</ele><time>2026-04-26T08:33:44.075Z</time></trkpt><trkpt lat="44.0055351" lon="10.8220942"><ele>839.6666666666666</ele><time>2026-04-26T08:33:48.074Z</time></trkpt><trkpt lat="44.0055834" lon="10.8221699"><ele>837.0</ele><time>2026-04-26T08:33:51.075Z</time></trkpt><trkpt lat="44.0056451" lon="10.8221968"><ele>837.0</ele><time>2026-04-26T08:33:54.076Z</time></trkpt><trkpt lat="44.0057195" lon="10.8221645"><ele>837.0</ele><time>2026-04-26T08:33:57.076Z</time></trkpt><trkpt lat="44.005783" lon="10.8221425"><ele>837.0</ele><time>2026-04-26T08:34:00.075Z</time></trkpt><trkpt lat="44.0058123" lon="10.8222291"><ele>837.0</ele><time>2026-04-26T08:34:04.075Z</time></trkpt><trkpt lat="44.0058403" lon="10.8223344"><ele>837.0</ele><time>2026-04-26T08:34:08.076Z</time></trkpt><trkpt lat="44.0058738" lon="10.8224516"><ele>837.0</ele><time>2026-04-26T08:34:11.075Z</time></trkpt><trkpt lat="44.0058946" lon="10.822537"><ele>837.0</ele><time>2026-04-26T08:34:13.076Z</time></trkpt><trkpt lat="44.0059181" lon="10.8226266"><ele>835.1666666666666</ele><time>2026-04-26T08:34:15.076Z</time></trkpt><trkpt lat="44.0059451" lon="10.8227117"><ele>833.3333333333333</ele><time>2026-04-26T08:34:17.077Z</time></trkpt><trkpt lat="44.0059816" lon="10.8228321"><ele>831.5</ele><time>2026-04-26T08:34:25.076Z</time></trkpt><trkpt lat="44.0060697" lon="10.8228855"><ele>829.6666666666666</ele><time>2026-04-26T08:34:28.076Z</time></trkpt><trkpt lat="44.0060951" lon="10.8230032"><ele>827.8333333333333</ele><time>2026-04-26T08:34:29.076Z</time></trkpt><trkpt lat="44.0061564" lon="10.8230829"><ele>826.0</ele><time>2026-04-26T08:34:31.076Z</time></trkpt><trkpt lat="44.0061971" lon="10.8231508"><ele>826.0</ele><time>2026-04-26T08:34:32.075Z</time></trkpt><trkpt lat="44.0062406" lon="10.8232268"><ele>826.0</ele><time>2026-04-26T08:34:33.076Z</time></trkpt><trkpt lat="44.0063077" lon="10.8233317"><ele>826.0</ele><time>2026-04-26T08:34:35.077Z</time></trkpt><trkpt lat="44.0063855" lon="10.8234263"><ele>826.0</ele><time>2026-04-26T08:34:37.076Z</time></trkpt><trkpt lat="44.0064585" lon="10.8235324"><ele>826.0</ele><time>2026-04-26T08:34:39.077Z</time></trkpt><trkpt lat="44.0064927" lon="10.8236188"><ele>825.3333333333333</ele><time>2026-04-26T08:34:40.076Z</time></trkpt><trkpt lat="44.0065313" lon="10.8237128"><ele>824.6666666666666</ele><time>2026-04-26T08:34:41.076Z</time></trkpt><trkpt lat="44.0065629" lon="10.8237991"><ele>824.0</ele><time>2026-04-26T08:34:42.076Z</time></trkpt><trkpt lat="44.0065855" lon="10.8238918"><ele>823.3333333333333</ele><time>2026-04-26T08:34:43.077Z</time></trkpt><trkpt lat="44.0065875" lon="10.8239799"><ele>822.6666666666666</ele><time>2026-04-26T08:34:44.075Z</time></trkpt><trkpt lat="44.0066133" lon="10.824134"><ele>822.0</ele><time>2026-04-26T08:34:46.077Z</time></trkpt><trkpt lat="44.006672" lon="10.8242015"><ele>822.0</ele><time>2026-04-26T08:34:48.077Z</time></trkpt><trkpt lat="44.0067685" lon="10.8242653"><ele>822.0</ele><time>2026-04-26T08:34:50.076Z</time></trkpt><trkpt lat="44.0068899" lon="10.8243258"><ele>822.0</ele><time>2026-04-26T08:34:52.076Z</time></trkpt><trkpt lat="44.0069519" lon="10.8243632"><ele>822.0</ele><time>2026-04-26T08:34:53.077Z</time></trkpt><trkpt lat="44.0070024" lon="10.8244355"><ele>822.0</ele><time>2026-04-26T08:34:54.075Z</time></trkpt><trkpt lat="44.0070689" lon="10.8245126"><ele>819.0</ele><time>2026-04-26T08:34:55.075Z</time></trkpt><trkpt lat="44.0071201" lon="10.8246688"><ele>816.0</ele><time>2026-04-26T08:34:57.075Z</time></trkpt><trkpt lat="44.0071259" lon="10.8247571"><ele>813.0</ele><time>2026-04-26T08:34:58.077Z</time></trkpt><trkpt lat="44.007144" lon="10.8248936"><ele>810.0</ele><time>2026-04-26T08:35:00.076Z</time></trkpt><trkpt lat="44.0071991" lon="10.8250386"><ele>807.0</ele><time>2026-04-26T08:35:02.076Z</time></trkpt><trkpt lat="44.0072568" lon="10.8251038"><ele>803.0</ele><time>2026-04-26T08:35:03.076Z</time></trkpt><trkpt lat="44.0073246" lon="10.8252104"><ele>799.0</ele><time>2026-04-26T08:35:05.075Z</time></trkpt><trkpt lat="44.007349" lon="10.8254213"><ele>795.0</ele><time>2026-04-26T08:35:07.075Z</time></trkpt><trkpt lat="44.007353" lon="10.8255692"><ele>791.0</ele><time>2026-04-26T08:35:08.077Z</time></trkpt><trkpt lat="44.0073507" lon="10.825702"><ele>791.0</ele><time>2026-04-26T08:35:09.076Z</time></trkpt><trkpt lat="44.0073528" lon="10.8258788"><ele>791.0</ele><time>2026-04-26T08:35:10.077Z</time></trkpt><trkpt lat="44.007356" lon="10.8260252"><ele>791.0</ele><time>2026-04-26T08:35:11.076Z</time></trkpt><trkpt lat="44.0073712" lon="10.826175"><ele>791.0</ele><time>2026-04-26T08:35:12.076Z</time></trkpt><trkpt lat="44.007389" lon="10.8263161"><ele>791.0</ele><time>2026-04-26T08:35:13.076Z</time></trkpt><trkpt lat="44.0073828" lon="10.8264479"><ele>789.6666666666667</ele><time>2026-04-26T08:35:14.076Z</time></trkpt><trkpt lat="44.0073809" lon="10.8265607"><ele>788.3333333333334</ele><time>2026-04-26T08:35:15.076Z</time></trkpt><trkpt lat="44.0073798" lon="10.8266848"><ele>787.0</ele><time>2026-04-26T08:35:16.077Z</time></trkpt><trkpt lat="44.0073883" lon="10.8268075"><ele>785.6666666666667</ele><time>2026-04-26T08:35:17.077Z</time></trkpt><trkpt lat="44.0074043" lon="10.8269022"><ele>784.3333333333334</ele><time>2026-04-26T08:35:18.077Z</time></trkpt><trkpt lat="44.0074088" lon="10.827"><ele>783.0</ele><time>2026-04-26T08:35:19.077Z</time></trkpt><trkpt lat="44.0074031" lon="10.8271083"><ele>782.8</ele><time>2026-04-26T08:35:20.075Z</time></trkpt><trkpt lat="44.0073731" lon="10.8272241"><ele>782.5999999999999</ele><time>2026-04-26T08:35:21.076Z</time></trkpt><trkpt lat="44.007344" lon="10.8273401"><ele>782.4000000000001</ele><time>2026-04-26T08:35:22.075Z</time></trkpt><trkpt lat="44.007307" lon="10.8274652"><ele>782.2</ele><time>2026-04-26T08:35:23.076Z</time></trkpt><trkpt lat="44.0073228" lon="10.8276487"><ele>782.0</ele><time>2026-04-26T08:35:25.075Z</time></trkpt><trkpt lat="44.0073451" lon="10.8277717"><ele>781.6</ele><time>2026-04-26T08:35:31.076Z</time></trkpt><trkpt lat="44.0073857" lon="10.827941"><ele>781.2</ele><time>2026-04-26T08:35:33.075Z</time></trkpt><trkpt lat="44.0073958" lon="10.8280679"><ele>780.8</ele><time>2026-04-26T08:35:34.076Z</time></trkpt><trkpt lat="44.0074001" lon="10.8282002"><ele>780.4</ele><time>2026-04-26T08:35:35.075Z</time></trkpt><trkpt lat="44.0073897" lon="10.8283079"><ele>780.0</ele><time>2026-04-26T08:35:36.076Z</time></trkpt><trkpt lat="44.0073664" lon="10.8284013"><ele>780.1666666666666</ele><time>2026-04-26T08:35:37.076Z</time></trkpt><trkpt lat="44.0073204" lon="10.8284848"><ele>780.3333333333333</ele><time>2026-04-26T08:35:38.076Z</time></trkpt><trkpt lat="44.0072516" lon="10.8285665"><ele>780.5</ele><time>2026-04-26T08:35:39.075Z</time></trkpt><trkpt lat="44.0071841" lon="10.8286206"><ele>780.6666666666666</ele><time>2026-04-26T08:35:40.075Z</time></trkpt><trkpt lat="44.0071149" lon="10.8287142"><ele>780.8333333333333</ele><time>2026-04-26T08:35:41.076Z</time></trkpt><trkpt lat="44.0070297" lon="10.8288031"><ele>781.0</ele><time>2026-04-26T08:35:42.077Z</time></trkpt><trkpt lat="44.0069271" lon="10.8288913"><ele>781.0</ele><time>2026-04-26T08:35:43.076Z</time></trkpt><trkpt lat="44.0068401" lon="10.8289465"><ele>781.0</ele><time>2026-04-26T08:35:44.076Z</time></trkpt><trkpt lat="44.0067622" lon="10.8289812"><ele>781.0</ele><time>2026-04-26T08:35:45.077Z</time></trkpt><trkpt lat="44.0066232" lon="10.8290356"><ele>781.0</ele><time>2026-04-26T08:35:47.076Z</time></trkpt><trkpt lat="44.0065536" lon="10.8290645"><ele>781.0</ele><time>2026-04-26T08:35:49.075Z</time></trkpt><trkpt lat="44.006486" lon="10.8291547"><ele>778.4</ele><time>2026-04-26T08:35:51.077Z</time></trkpt><trkpt lat="44.0064061" lon="10.8292123"><ele>775.8</ele><time>2026-04-26T08:35:53.076Z</time></trkpt><trkpt lat="44.0063501" lon="10.829338"><ele>773.1999999999999</ele><time>2026-04-26T08:35:55.075Z</time></trkpt><trkpt lat="44.0063204" lon="10.8294195"><ele>770.5999999999999</ele><time>2026-04-26T08:35:56.077Z</time></trkpt><trkpt lat="44.0062646" lon="10.8295496"><ele>768.0</ele><time>2026-04-26T08:35:58.077Z</time></trkpt><trkpt lat="44.0062292" lon="10.829666"><ele>767.8333333333334</ele><time>2026-04-26T08:36:00.077Z</time></trkpt><trkpt lat="44.0061929" lon="10.829744"><ele>767.6666666666666</ele><time>2026-04-26T08:36:02.076Z</time></trkpt><trkpt lat="44.0061876" lon="10.8298636"><ele>767.5</ele><time>2026-04-26T08:36:05.075Z</time></trkpt><trkpt lat="44.0062568" lon="10.8299595"><ele>767.3333333333333</ele><time>2026-04-26T08:36:08.076Z</time></trkpt><trkpt lat="44.0063154" lon="10.8300479"><ele>767.1666666666666</ele><time>2026-04-26T08:36:10.077Z</time></trkpt><trkpt lat="44.006302" lon="10.8301775"><ele>767.0</ele><time>2026-04-26T08:36:13.076Z</time></trkpt><trkpt lat="44.0062146" lon="10.8302547"><ele>765.8</ele><time>2026-04-26T08:36:15.076Z</time></trkpt><trkpt lat="44.0061127" lon="10.8303108"><ele>764.6</ele><time>2026-04-26T08:36:16.076Z</time></trkpt><trkpt lat="44.0060313" lon="10.830352"><ele>763.4</ele><time>2026-04-26T08:36:18.075Z</time></trkpt><trkpt lat="44.0059271" lon="10.8303479"><ele>762.1999999999999</ele><time>2026-04-26T08:36:20.076Z</time></trkpt><trkpt lat="44.0058529" lon="10.8303372"><ele>761.0</ele><time>2026-04-26T08:36:22.076Z</time></trkpt><trkpt lat="44.0057684" lon="10.8303764"><ele>761.0</ele><time>2026-04-26T08:36:24.077Z</time></trkpt><trkpt lat="44.005719" lon="10.8304802"><ele>761.0</ele><time>2026-04-26T08:36:26.077Z</time></trkpt><trkpt lat="44.0056325" lon="10.8306244"><ele>761.0</ele><time>2026-04-26T08:36:28.075Z</time></trkpt><trkpt lat="44.0055989" lon="10.8307723"><ele>761.0</ele><time>2026-04-26T08:36:30.076Z</time></trkpt><trkpt lat="44.0055757" lon="10.8309219"><ele>761.0</ele><time>2026-04-26T08:36:32.076Z</time></trkpt><trkpt lat="44.0055103" lon="10.8310187"><ele>761.6666666666666</ele><time>2026-04-26T08:36:34.077Z</time></trkpt><trkpt lat="44.0054944" lon="10.8311483"><ele>762.3333333333333</ele><time>2026-04-26T08:36:37.075Z</time></trkpt><trkpt lat="44.0055354" lon="10.8312844"><ele>763.0</ele><time>2026-04-26T08:36:38.075Z</time></trkpt><trkpt lat="44.0055676" lon="10.8313743"><ele>763.6666666666666</ele><time>2026-04-26T08:36:39.076Z</time></trkpt><trkpt lat="44.0055796" lon="10.8314727"><ele>764.3333333333334</ele><time>2026-04-26T08:36:40.077Z</time></trkpt><trkpt lat="44.0055888" lon="10.8315652"><ele>765.0</ele><time>2026-04-26T08:36:41.077Z</time></trkpt><trkpt lat="44.0055793" lon="10.831696"><ele>765.0</ele><time>2026-04-26T08:36:43.076Z</time></trkpt><trkpt lat="44.005611" lon="10.8317768"><ele>765.0</ele><time>2026-04-26T08:36:44.076Z</time></trkpt><trkpt lat="44.0056681" lon="10.8318789"><ele>765.0</ele><time>2026-04-26T08:36:45.076Z</time></trkpt><trkpt lat="44.0057253" lon="10.8319731"><ele>765.0</ele><time>2026-04-26T08:36:46.076Z</time></trkpt><trkpt lat="44.005778" lon="10.8320774"><ele>765.0</ele><time>2026-04-26T08:36:47.076Z</time></trkpt><trkpt lat="44.0058393" lon="10.8321611"><ele>765.0</ele><time>2026-04-26T08:36:48.076Z</time></trkpt><trkpt lat="44.0058922" lon="10.8322558"><ele>763.3333333333334</ele><time>2026-04-26T08:36:49.077Z</time></trkpt><trkpt lat="44.0059207" lon="10.8323465"><ele>761.6666666666666</ele><time>2026-04-26T08:36:50.076Z</time></trkpt><trkpt lat="44.0059693" lon="10.8324073"><ele>760.0</ele><time>2026-04-26T08:36:51.077Z</time></trkpt><trkpt lat="44.0059998" lon="10.8324929"><ele>758.3333333333333</ele><time>2026-04-26T08:36:52.075Z</time></trkpt><trkpt lat="44.0060598" lon="10.8326074"><ele>756.6666666666666</ele><time>2026-04-26T08:36:54.077Z</time></trkpt><trkpt lat="44.0061252" lon="10.8327489"><ele>755.0</ele><time>2026-04-26T08:36:56.076Z</time></trkpt><trkpt lat="44.0061799" lon="10.8328861"><ele>754.4</ele><time>2026-04-26T08:36:58.076Z</time></trkpt><trkpt lat="44.0062226" lon="10.8330197"><ele>753.8</ele><time>2026-04-26T08:37:00.075Z</time></trkpt><trkpt lat="44.0061677" lon="10.8332078"><ele>753.2</ele><time>2026-04-26T08:37:01.076Z</time></trkpt><trkpt lat="44.0061273" lon="10.8333198"><ele>752.6</ele><time>2026-04-26T08:37:02.076Z</time></trkpt><trkpt lat="44.0060803" lon="10.8334269"><ele>752.0</ele><time>2026-04-26T08:37:03.077Z</time></trkpt><trkpt lat="44.0060406" lon="10.8335011"><ele>751.3333333333333</ele><time>2026-04-26T08:37:04.076Z</time></trkpt><trkpt lat="44.0059703" lon="10.8335711"><ele>750.6666666666666</ele><time>2026-04-26T08:37:05.075Z</time></trkpt><trkpt lat="44.0059161" lon="10.833617"><ele>750.0</ele><time>2026-04-26T08:37:06.077Z</time></trkpt><trkpt lat="44.0058998" lon="10.8337213"><ele>749.3333333333334</ele><time>2026-04-26T08:37:07.076Z</time></trkpt><trkpt lat="44.0058878" lon="10.8338543"><ele>748.6666666666667</ele><time>2026-04-26T08:37:08.076Z</time></trkpt><trkpt lat="44.0058381" lon="10.8339683"><ele>748.0</ele><time>2026-04-26T08:37:09.077Z</time></trkpt><trkpt lat="44.0057986" lon="10.8340822"><ele>748.1666666666667</ele><time>2026-04-26T08:37:10.076Z</time></trkpt><trkpt lat="44.0057639" lon="10.8341656"><ele>748.3333333333334</ele><time>2026-04-26T08:37:11.075Z</time></trkpt><trkpt lat="44.005729" lon="10.8342519"><ele>748.5</ele><time>2026-04-26T08:37:12.076Z</time></trkpt><trkpt lat="44.0056829" lon="10.834332"><ele>748.6666666666666</ele><time>2026-04-26T08:37:13.076Z</time></trkpt><trkpt lat="44.0056443" lon="10.8344029"><ele>748.8333333333333</ele><time>2026-04-26T08:37:14.075Z</time></trkpt><trkpt lat="44.0056001" lon="10.8344813"><ele>749.0</ele><time>2026-04-26T08:37:15.075Z</time></trkpt><trkpt lat="44.0054751" lon="10.8346584"><ele>749.0</ele><time>2026-04-26T08:37:18.076Z</time></trkpt><trkpt lat="44.0053981" lon="10.8347643"><ele>749.0</ele><time>2026-04-26T08:37:20.076Z</time></trkpt><trkpt lat="44.0053504" lon="10.8348758"><ele>749.0</ele><time>2026-04-26T08:37:22.077Z</time></trkpt><trkpt lat="44.0053267" lon="10.8349908"><ele>749.0</ele><time>2026-04-26T08:37:25.077Z</time></trkpt><trkpt lat="44.0053935" lon="10.8350124"><ele>749.0</ele><time>2026-04-26T08:37:29.077Z</time></trkpt><trkpt lat="44.0054879" lon="10.8350421"><ele>749.0</ele><time>2026-04-26T08:37:32.075Z</time></trkpt><trkpt lat="44.0055751" lon="10.8350776"><ele>749.0</ele><time>2026-04-26T08:37:33.076Z</time></trkpt><trkpt lat="44.0056489" lon="10.8351278"><ele>749.0</ele><time>2026-04-26T08:37:34.077Z</time></trkpt><trkpt lat="44.005748" lon="10.8351821"><ele>749.0</ele><time>2026-04-26T08:37:35.076Z</time></trkpt><trkpt lat="44.0058096" lon="10.8352112"><ele>749.0</ele><time>2026-04-26T08:37:36.075Z</time></trkpt><trkpt lat="44.0059144" lon="10.8352446"><ele>748.4000000000001</ele><time>2026-04-26T08:37:38.075Z</time></trkpt><trkpt lat="44.0059504" lon="10.8353375"><ele>747.8</ele><time>2026-04-26T08:37:41.076Z</time></trkpt><trkpt lat="44.0058661" lon="10.8354884"><ele>747.2</ele><time>2026-04-26T08:37:42.076Z</time></trkpt><trkpt lat="44.005811" lon="10.8355966"><ele>746.5999999999999</ele><time>2026-04-26T08:37:43.076Z</time></trkpt><trkpt lat="44.0057508" lon="10.8357313"><ele>746.0</ele><time>2026-04-26T08:37:44.075Z</time></trkpt><trkpt lat="44.0056969" lon="10.835852"><ele>746.0</ele><time>2026-04-26T08:37:45.075Z</time></trkpt><trkpt lat="44.0056373" lon="10.8359678"><ele>746.0</ele><time>2026-04-26T08:37:46.075Z</time></trkpt><trkpt lat="44.0055639" lon="10.8360605"><ele>746.0</ele><time>2026-04-26T08:37:47.076Z</time></trkpt><trkpt lat="44.0054876" lon="10.8361248"><ele>746.0</ele><time>2026-04-26T08:37:48.076Z</time></trkpt><trkpt lat="44.0053896" lon="10.8361558"><ele>746.0</ele><time>2026-04-26T08:37:49.076Z</time></trkpt><trkpt lat="44.0052582" lon="10.8361549"><ele>746.6666666666666</ele><time>2026-04-26T08:37:50.075Z</time></trkpt><trkpt lat="44.005113" lon="10.8360386"><ele>747.3333333333334</ele><time>2026-04-26T08:37:51.076Z</time></trkpt><trkpt lat="44.0049702" lon="10.8359813"><ele>748.0</ele><time>2026-04-26T08:37:52.075Z</time></trkpt><trkpt lat="44.004812" lon="10.8359257"><ele>748.0</ele><time>2026-04-26T08:37:53.076Z</time></trkpt><trkpt lat="44.0046513" lon="10.8358712"><ele>748.0</ele><time>2026-04-26T08:37:54.075Z</time></trkpt><trkpt lat="44.0045042" lon="10.8358163"><ele>748.0</ele><time>2026-04-26T08:37:55.076Z</time></trkpt><trkpt lat="44.0043787" lon="10.835772"><ele>748.0</ele><time>2026-04-26T08:37:56.077Z</time></trkpt><trkpt lat="44.0042731" lon="10.8357391"><ele>748.0</ele><time>2026-04-26T08:37:57.077Z</time></trkpt><trkpt lat="44.0041982" lon="10.8357109"><ele>748.0</ele><time>2026-04-26T08:37:58.077Z</time></trkpt><trkpt lat="44.0041236" lon="10.8356769"><ele>759.0</ele><time>2026-04-26T08:37:59.075Z</time></trkpt><trkpt lat="44.0040519" lon="10.8356581"><ele>759.0</ele><time>2026-04-26T08:38:00.076Z</time></trkpt><trkpt lat="44.0040447" lon="10.835546"><ele>759.0</ele><time>2026-04-26T08:38:07.075Z</time></trkpt><trkpt lat="44.003985" lon="10.8355093"><ele>759.0</ele><time>2026-04-26T08:41:25.076Z</time></trkpt><trkpt lat="44.0039244" lon="10.8354841"><ele>759.0</ele><time>2026-04-26T08:41:37.076Z</time></trkpt></trkseg></trk></gpx>